<?xml version="1.0" encoding="UTF-8" standalone="no" ?>
<gpx xmlns="http://www.topografix.com/GPX/1/1" xmlns:xsi="http://www.w3.org/2001/XMLSchema-instance" xsi:schemaLocation="http://www.topografix.com/GPX/1/1 http://www.topografix.com/GPX/1/1/gpx.xsd" version="1.1" creator="VisuGPX - https://www.visugpx.com">
  <metadata>
    <name>Puyloubier - Puits d'Auzon</name>
    <desc><![CDATA[de Puyloubier a la forêt du puits d'Auzon]]></desc>
  </metadata>
  <trk>
    <name><![CDATA[20180918222106-TSGYW]]></name>
    <trkseg>
      <trkpt lat="43.52457" lon="5.67164">
        <ele>298.33</ele>
        <time>2014-04-27T06:42:09Z</time>
      </trkpt>
      <trkpt lat="43.52466" lon="5.67143">
        <ele>289.1</ele>
        <time>2014-04-27T06:47:46Z</time>
      </trkpt>
      <trkpt lat="43.52485" lon="5.67153">
        <ele>288.05</ele>
        <time>2014-04-27T06:48:07Z</time>
      </trkpt>
      <trkpt lat="43.52497" lon="5.67175">
        <ele>288.39</ele>
        <time>2014-04-27T06:48:14Z</time>
      </trkpt>
      <trkpt lat="43.52502" lon="5.67202">
        <ele>288.31</ele>
        <time>2014-04-27T06:48:21Z</time>
      </trkpt>
      <trkpt lat="43.52503" lon="5.67228">
        <ele>287.71</ele>
        <time>2014-04-27T06:48:26Z</time>
      </trkpt>
      <trkpt lat="43.52502" lon="5.67257">
        <ele>286.9</ele>
        <time>2014-04-27T06:48:31Z</time>
      </trkpt>
      <trkpt lat="43.52502" lon="5.67283">
        <ele>286.61</ele>
        <time>2014-04-27T06:48:35Z</time>
      </trkpt>
      <trkpt lat="43.52499" lon="5.67308">
        <ele>286.5</ele>
        <time>2014-04-27T06:48:39Z</time>
      </trkpt>
      <trkpt lat="43.52495" lon="5.67333">
        <ele>286.21</ele>
        <time>2014-04-27T06:48:44Z</time>
      </trkpt>
      <trkpt lat="43.52494" lon="5.67361">
        <ele>286.68</ele>
        <time>2014-04-27T06:48:50Z</time>
      </trkpt>
      <trkpt lat="43.52494" lon="5.67387">
        <ele>287.38</ele>
        <time>2014-04-27T06:48:55Z</time>
      </trkpt>
      <trkpt lat="43.52497" lon="5.67413">
        <ele>287.34</ele>
        <time>2014-04-27T06:49:00Z</time>
      </trkpt>
      <trkpt lat="43.52501" lon="5.67441">
        <ele>286.46</ele>
        <time>2014-04-27T06:49:05Z</time>
      </trkpt>
      <trkpt lat="43.52504" lon="5.67465">
        <ele>285.74</ele>
        <time>2014-04-27T06:49:10Z</time>
      </trkpt>
      <trkpt lat="43.52506" lon="5.67491">
        <ele>286.01</ele>
        <time>2014-04-27T06:49:15Z</time>
      </trkpt>
      <trkpt lat="43.52504" lon="5.67519">
        <ele>286.91</ele>
        <time>2014-04-27T06:49:21Z</time>
      </trkpt>
      <trkpt lat="43.52499" lon="5.67547">
        <ele>287.38</ele>
        <time>2014-04-27T06:49:27Z</time>
      </trkpt>
      <trkpt lat="43.52491" lon="5.67573">
        <ele>288.69</ele>
        <time>2014-04-27T06:49:34Z</time>
      </trkpt>
      <trkpt lat="43.52484" lon="5.67597">
        <ele>289.66</ele>
        <time>2014-04-27T06:49:41Z</time>
      </trkpt>
      <trkpt lat="43.5248" lon="5.67625">
        <ele>290.67</ele>
        <time>2014-04-27T06:49:50Z</time>
      </trkpt>
      <trkpt lat="43.52488" lon="5.6765">
        <ele>290.52</ele>
        <time>2014-04-27T06:49:57Z</time>
      </trkpt>
      <trkpt lat="43.52499" lon="5.67675">
        <ele>290.28</ele>
        <time>2014-04-27T06:50:03Z</time>
      </trkpt>
      <trkpt lat="43.52512" lon="5.67694">
        <ele>290.06</ele>
        <time>2014-04-27T06:50:09Z</time>
      </trkpt>
      <trkpt lat="43.52524" lon="5.67716">
        <ele>290.74</ele>
        <time>2014-04-27T06:50:15Z</time>
      </trkpt>
      <trkpt lat="43.52527" lon="5.67741">
        <ele>291.42</ele>
        <time>2014-04-27T06:50:20Z</time>
      </trkpt>
      <trkpt lat="43.52531" lon="5.67767">
        <ele>292.09</ele>
        <time>2014-04-27T06:50:26Z</time>
      </trkpt>
      <trkpt lat="43.52538" lon="5.67791">
        <ele>292.97</ele>
        <time>2014-04-27T06:50:31Z</time>
      </trkpt>
      <trkpt lat="43.52546" lon="5.67817">
        <ele>293.77</ele>
        <time>2014-04-27T06:50:36Z</time>
      </trkpt>
      <trkpt lat="43.52553" lon="5.67842">
        <ele>295.4</ele>
        <time>2014-04-27T06:50:41Z</time>
      </trkpt>
      <trkpt lat="43.5256" lon="5.67866">
        <ele>296.85</ele>
        <time>2014-04-27T06:50:46Z</time>
      </trkpt>
      <trkpt lat="43.52568" lon="5.67893">
        <ele>297.84</ele>
        <time>2014-04-27T06:50:52Z</time>
      </trkpt>
      <trkpt lat="43.52573" lon="5.67919">
        <ele>299.12</ele>
        <time>2014-04-27T06:50:57Z</time>
      </trkpt>
      <trkpt lat="43.52577" lon="5.67946">
        <ele>300.28</ele>
        <time>2014-04-27T06:51:02Z</time>
      </trkpt>
      <trkpt lat="43.52582" lon="5.67973">
        <ele>300.48</ele>
        <time>2014-04-27T06:51:07Z</time>
      </trkpt>
      <trkpt lat="43.52592" lon="5.67996">
        <ele>299.95</ele>
        <time>2014-04-27T06:51:12Z</time>
      </trkpt>
      <trkpt lat="43.52604" lon="5.68019">
        <ele>299.56</ele>
        <time>2014-04-27T06:51:17Z</time>
      </trkpt>
      <trkpt lat="43.52615" lon="5.68043">
        <ele>298.81</ele>
        <time>2014-04-27T06:51:22Z</time>
      </trkpt>
      <trkpt lat="43.52622" lon="5.68068">
        <ele>298.34</ele>
        <time>2014-04-27T06:51:27Z</time>
      </trkpt>
      <trkpt lat="43.52627" lon="5.68095">
        <ele>298.79</ele>
        <time>2014-04-27T06:51:33Z</time>
      </trkpt>
      <trkpt lat="43.52633" lon="5.6812">
        <ele>298.95</ele>
        <time>2014-04-27T06:51:40Z</time>
      </trkpt>
      <trkpt lat="43.52638" lon="5.68145">
        <ele>299.29</ele>
        <time>2014-04-27T06:51:46Z</time>
      </trkpt>
      <trkpt lat="43.5264" lon="5.68171">
        <ele>300.75</ele>
        <time>2014-04-27T06:51:52Z</time>
      </trkpt>
      <trkpt lat="43.52635" lon="5.68197">
        <ele>302.7</ele>
        <time>2014-04-27T06:51:59Z</time>
      </trkpt>
      <trkpt lat="43.52631" lon="5.68223">
        <ele>303.72</ele>
        <time>2014-04-27T06:52:06Z</time>
      </trkpt>
      <trkpt lat="43.52632" lon="5.68248">
        <ele>304.51</ele>
        <time>2014-04-27T06:52:12Z</time>
      </trkpt>
      <trkpt lat="43.52636" lon="5.68275">
        <ele>305.29</ele>
        <time>2014-04-27T06:52:19Z</time>
      </trkpt>
      <trkpt lat="43.52638" lon="5.68302">
        <ele>306.13</ele>
        <time>2014-04-27T06:52:26Z</time>
      </trkpt>
      <trkpt lat="43.52641" lon="5.68328">
        <ele>306.76</ele>
        <time>2014-04-27T06:52:31Z</time>
      </trkpt>
      <trkpt lat="43.52645" lon="5.68355">
        <ele>306.82</ele>
        <time>2014-04-27T06:52:36Z</time>
      </trkpt>
      <trkpt lat="43.52647" lon="5.68386">
        <ele>306.64</ele>
        <time>2014-04-27T06:52:40Z</time>
      </trkpt>
      <trkpt lat="43.52646" lon="5.68418">
        <ele>306.51</ele>
        <time>2014-04-27T06:52:44Z</time>
      </trkpt>
      <trkpt lat="43.52643" lon="5.68443">
        <ele>306.03</ele>
        <time>2014-04-27T06:52:47Z</time>
      </trkpt>
      <trkpt lat="43.52638" lon="5.68469">
        <ele>305.68</ele>
        <time>2014-04-27T06:52:50Z</time>
      </trkpt>
      <trkpt lat="43.52631" lon="5.68493">
        <ele>305.52</ele>
        <time>2014-04-27T06:52:53Z</time>
      </trkpt>
      <trkpt lat="43.52623" lon="5.68518">
        <ele>305.19</ele>
        <time>2014-04-27T06:52:56Z</time>
      </trkpt>
      <trkpt lat="43.52617" lon="5.68544">
        <ele>304.49</ele>
        <time>2014-04-27T06:52:59Z</time>
      </trkpt>
      <trkpt lat="43.52611" lon="5.68571">
        <ele>303.98</ele>
        <time>2014-04-27T06:53:02Z</time>
      </trkpt>
      <trkpt lat="43.52606" lon="5.68598">
        <ele>303.42</ele>
        <time>2014-04-27T06:53:05Z</time>
      </trkpt>
      <trkpt lat="43.52607" lon="5.68626">
        <ele>302.73</ele>
        <time>2014-04-27T06:53:08Z</time>
      </trkpt>
      <trkpt lat="43.52609" lon="5.68658">
        <ele>302.82</ele>
        <time>2014-04-27T06:53:11Z</time>
      </trkpt>
      <trkpt lat="43.52618" lon="5.68685">
        <ele>303.28</ele>
        <time>2014-04-27T06:53:14Z</time>
      </trkpt>
      <trkpt lat="43.52628" lon="5.68709">
        <ele>303.44</ele>
        <time>2014-04-27T06:53:17Z</time>
      </trkpt>
      <trkpt lat="43.52637" lon="5.68731">
        <ele>303.3</ele>
        <time>2014-04-27T06:53:20Z</time>
      </trkpt>
      <trkpt lat="43.52649" lon="5.68758">
        <ele>302.8</ele>
        <time>2014-04-27T06:53:24Z</time>
      </trkpt>
      <trkpt lat="43.52657" lon="5.68783">
        <ele>301.64</ele>
        <time>2014-04-27T06:53:29Z</time>
      </trkpt>
      <trkpt lat="43.52671" lon="5.688">
        <ele>298.66</ele>
        <time>2014-04-27T06:54:37Z</time>
      </trkpt>
      <trkpt lat="43.52676" lon="5.68824">
        <ele>298.39</ele>
        <time>2014-04-27T06:54:47Z</time>
      </trkpt>
      <trkpt lat="43.52677" lon="5.68852">
        <ele>298</ele>
        <time>2014-04-27T06:54:54Z</time>
      </trkpt>
      <trkpt lat="43.52679" lon="5.68877">
        <ele>298.32</ele>
        <time>2014-04-27T06:55:00Z</time>
      </trkpt>
      <trkpt lat="43.52682" lon="5.68903">
        <ele>299.31</ele>
        <time>2014-04-27T06:55:06Z</time>
      </trkpt>
      <trkpt lat="43.52685" lon="5.68929">
        <ele>300.05</ele>
        <time>2014-04-27T06:55:12Z</time>
      </trkpt>
      <trkpt lat="43.52688" lon="5.68956">
        <ele>300.66</ele>
        <time>2014-04-27T06:55:19Z</time>
      </trkpt>
      <trkpt lat="43.52691" lon="5.68982">
        <ele>301.37</ele>
        <time>2014-04-27T06:55:25Z</time>
      </trkpt>
      <trkpt lat="43.52695" lon="5.69008">
        <ele>302.89</ele>
        <time>2014-04-27T06:55:31Z</time>
      </trkpt>
      <trkpt lat="43.52708" lon="5.6903">
        <ele>304.88</ele>
        <time>2014-04-27T06:55:39Z</time>
      </trkpt>
      <trkpt lat="43.52721" lon="5.69047">
        <ele>306.66</ele>
        <time>2014-04-27T06:55:46Z</time>
      </trkpt>
      <trkpt lat="43.5273" lon="5.69073">
        <ele>307.29</ele>
        <time>2014-04-27T06:55:53Z</time>
      </trkpt>
      <trkpt lat="43.52738" lon="5.691">
        <ele>307.87</ele>
        <time>2014-04-27T06:55:59Z</time>
      </trkpt>
      <trkpt lat="43.52748" lon="5.69124">
        <ele>307.75</ele>
        <time>2014-04-27T06:56:05Z</time>
      </trkpt>
      <trkpt lat="43.52758" lon="5.6915">
        <ele>306.97</ele>
        <time>2014-04-27T06:56:11Z</time>
      </trkpt>
      <trkpt lat="43.52767" lon="5.69172">
        <ele>306.06</ele>
        <time>2014-04-27T06:56:16Z</time>
      </trkpt>
      <trkpt lat="43.52777" lon="5.69195">
        <ele>305.36</ele>
        <time>2014-04-27T06:56:23Z</time>
      </trkpt>
      <trkpt lat="43.52786" lon="5.69218">
        <ele>305.52</ele>
        <time>2014-04-27T06:56:30Z</time>
      </trkpt>
      <trkpt lat="43.52797" lon="5.69238">
        <ele>306.75</ele>
        <time>2014-04-27T06:56:37Z</time>
      </trkpt>
      <trkpt lat="43.52816" lon="5.69248">
        <ele>307.59</ele>
        <time>2014-04-27T06:56:46Z</time>
      </trkpt>
      <trkpt lat="43.52836" lon="5.69246">
        <ele>308.76</ele>
        <time>2014-04-27T06:56:55Z</time>
      </trkpt>
      <trkpt lat="43.52855" lon="5.69246">
        <ele>311.81</ele>
        <time>2014-04-27T06:57:06Z</time>
      </trkpt>
      <trkpt lat="43.52873" lon="5.69254">
        <ele>316.98</ele>
        <time>2014-04-27T06:57:15Z</time>
      </trkpt>
      <trkpt lat="43.52882" lon="5.69276">
        <ele>321.06</ele>
        <time>2014-04-27T06:57:25Z</time>
      </trkpt>
      <trkpt lat="43.52881" lon="5.69303">
        <ele>324.65</ele>
        <time>2014-04-27T06:57:36Z</time>
      </trkpt>
      <trkpt lat="43.52882" lon="5.69328">
        <ele>327.36</ele>
        <time>2014-04-27T06:57:45Z</time>
      </trkpt>
      <trkpt lat="43.52886" lon="5.69354">
        <ele>329.3</ele>
        <time>2014-04-27T06:57:54Z</time>
      </trkpt>
      <trkpt lat="43.52889" lon="5.69378">
        <ele>331.2</ele>
        <time>2014-04-27T06:58:04Z</time>
      </trkpt>
      <trkpt lat="43.52895" lon="5.69402">
        <ele>333.85</ele>
        <time>2014-04-27T06:58:14Z</time>
      </trkpt>
      <trkpt lat="43.52902" lon="5.69426">
        <ele>336.87</ele>
        <time>2014-04-27T06:58:25Z</time>
      </trkpt>
      <trkpt lat="43.52913" lon="5.69448">
        <ele>339.08</ele>
        <time>2014-04-27T06:58:37Z</time>
      </trkpt>
      <trkpt lat="43.52927" lon="5.69465">
        <ele>340.91</ele>
        <time>2014-04-27T06:58:49Z</time>
      </trkpt>
      <trkpt lat="43.52944" lon="5.69477">
        <ele>342.75</ele>
        <time>2014-04-27T06:59:01Z</time>
      </trkpt>
      <trkpt lat="43.52963" lon="5.69478">
        <ele>344.31</ele>
        <time>2014-04-27T06:59:14Z</time>
      </trkpt>
      <trkpt lat="43.52981" lon="5.69471">
        <ele>344.45</ele>
        <time>2014-04-27T06:59:26Z</time>
      </trkpt>
      <trkpt lat="43.52998" lon="5.6946">
        <ele>344.96</ele>
        <time>2014-04-27T06:59:40Z</time>
      </trkpt>
      <trkpt lat="43.53015" lon="5.6945">
        <ele>344.92</ele>
        <time>2014-04-27T06:59:52Z</time>
      </trkpt>
      <trkpt lat="43.53032" lon="5.69443">
        <ele>345.59</ele>
        <time>2014-04-27T07:00:04Z</time>
      </trkpt>
      <trkpt lat="43.53051" lon="5.69447">
        <ele>349.32</ele>
        <time>2014-04-27T07:00:17Z</time>
      </trkpt>
      <trkpt lat="43.53056" lon="5.69473">
        <ele>353.23</ele>
        <time>2014-04-27T07:00:31Z</time>
      </trkpt>
      <trkpt lat="43.53058" lon="5.695">
        <ele>356.67</ele>
        <time>2014-04-27T07:00:44Z</time>
      </trkpt>
      <trkpt lat="43.53061" lon="5.69527">
        <ele>359.59</ele>
        <time>2014-04-27T07:00:56Z</time>
      </trkpt>
      <trkpt lat="43.53065" lon="5.69552">
        <ele>362.28</ele>
        <time>2014-04-27T07:01:07Z</time>
      </trkpt>
      <trkpt lat="43.53067" lon="5.69579">
        <ele>365</ele>
        <time>2014-04-27T07:01:19Z</time>
      </trkpt>
      <trkpt lat="43.53071" lon="5.69604">
        <ele>368.78</ele>
        <time>2014-04-27T07:03:19Z</time>
      </trkpt>
      <trkpt lat="43.53076" lon="5.6963">
        <ele>368.84</ele>
        <time>2014-04-27T07:03:27Z</time>
      </trkpt>
      <trkpt lat="43.53081" lon="5.69657">
        <ele>368.33</ele>
        <time>2014-04-27T07:03:34Z</time>
      </trkpt>
      <trkpt lat="43.53084" lon="5.69683">
        <ele>369.7</ele>
        <time>2014-04-27T07:03:42Z</time>
      </trkpt>
      <trkpt lat="43.5309" lon="5.69708">
        <ele>371.03</ele>
        <time>2014-04-27T07:03:50Z</time>
      </trkpt>
      <trkpt lat="43.53105" lon="5.69725">
        <ele>372.6</ele>
        <time>2014-04-27T07:03:59Z</time>
      </trkpt>
      <trkpt lat="43.53122" lon="5.69735">
        <ele>375.06</ele>
        <time>2014-04-27T07:04:08Z</time>
      </trkpt>
      <trkpt lat="43.5314" lon="5.69741">
        <ele>377.61</ele>
        <time>2014-04-27T07:04:17Z</time>
      </trkpt>
      <trkpt lat="43.53159" lon="5.69747">
        <ele>378.5</ele>
        <time>2014-04-27T07:04:26Z</time>
      </trkpt>
      <trkpt lat="43.53168" lon="5.6977">
        <ele>380.71</ele>
        <time>2014-04-27T07:04:37Z</time>
      </trkpt>
      <trkpt lat="43.53155" lon="5.69787">
        <ele>381.95</ele>
        <time>2014-04-27T07:04:47Z</time>
      </trkpt>
      <trkpt lat="43.53147" lon="5.69811">
        <ele>383.18</ele>
        <time>2014-04-27T07:04:56Z</time>
      </trkpt>
      <trkpt lat="43.53146" lon="5.69838">
        <ele>385.28</ele>
        <time>2014-04-27T07:05:06Z</time>
      </trkpt>
      <trkpt lat="43.53153" lon="5.69863">
        <ele>386.81</ele>
        <time>2014-04-27T07:05:16Z</time>
      </trkpt>
      <trkpt lat="43.53166" lon="5.69882">
        <ele>389.05</ele>
        <time>2014-04-27T07:05:25Z</time>
      </trkpt>
      <trkpt lat="43.53181" lon="5.69898">
        <ele>391.52</ele>
        <time>2014-04-27T07:05:35Z</time>
      </trkpt>
      <trkpt lat="43.53198" lon="5.69914">
        <ele>393.36</ele>
        <time>2014-04-27T07:05:45Z</time>
      </trkpt>
      <trkpt lat="43.53215" lon="5.69923">
        <ele>395.1</ele>
        <time>2014-04-27T07:05:55Z</time>
      </trkpt>
      <trkpt lat="43.53223" lon="5.69947">
        <ele>396.29</ele>
        <time>2014-04-27T07:06:05Z</time>
      </trkpt>
      <trkpt lat="43.53219" lon="5.69972">
        <ele>396.44</ele>
        <time>2014-04-27T07:06:14Z</time>
      </trkpt>
      <trkpt lat="43.53205" lon="5.69989">
        <ele>396.96</ele>
        <time>2014-04-27T07:06:23Z</time>
      </trkpt>
      <trkpt lat="43.53199" lon="5.70016">
        <ele>397.61</ele>
        <time>2014-04-27T07:06:32Z</time>
      </trkpt>
      <trkpt lat="43.53201" lon="5.70042">
        <ele>399.78</ele>
        <time>2014-04-27T07:06:41Z</time>
      </trkpt>
      <trkpt lat="43.53203" lon="5.70067">
        <ele>402.27</ele>
        <time>2014-04-27T07:06:50Z</time>
      </trkpt>
      <trkpt lat="43.53204" lon="5.70092">
        <ele>404.24</ele>
        <time>2014-04-27T07:06:59Z</time>
      </trkpt>
      <trkpt lat="43.53208" lon="5.70118">
        <ele>407.05</ele>
        <time>2014-04-27T07:07:08Z</time>
      </trkpt>
      <trkpt lat="43.53213" lon="5.70143">
        <ele>408.1</ele>
        <time>2014-04-27T07:07:18Z</time>
      </trkpt>
      <trkpt lat="43.53219" lon="5.70168">
        <ele>408.26</ele>
        <time>2014-04-27T07:07:30Z</time>
      </trkpt>
      <trkpt lat="43.53221" lon="5.70194">
        <ele>409.09</ele>
        <time>2014-04-27T07:07:42Z</time>
      </trkpt>
      <trkpt lat="43.53227" lon="5.7022">
        <ele>409.95</ele>
        <time>2014-04-27T07:07:54Z</time>
      </trkpt>
      <trkpt lat="43.53241" lon="5.7024">
        <ele>411.55</ele>
        <time>2014-04-27T07:08:02Z</time>
      </trkpt>
      <trkpt lat="43.53257" lon="5.70251">
        <ele>412.34</ele>
        <time>2014-04-27T07:08:11Z</time>
      </trkpt>
      <trkpt lat="43.53266" lon="5.70275">
        <ele>412.69</ele>
        <time>2014-04-27T07:08:20Z</time>
      </trkpt>
      <trkpt lat="43.53266" lon="5.703">
        <ele>413.07</ele>
        <time>2014-04-27T07:08:28Z</time>
      </trkpt>
      <trkpt lat="43.5327" lon="5.70325">
        <ele>414.47</ele>
        <time>2014-04-27T07:08:35Z</time>
      </trkpt>
      <trkpt lat="43.53272" lon="5.70351">
        <ele>415.91</ele>
        <time>2014-04-27T07:08:43Z</time>
      </trkpt>
      <trkpt lat="43.53275" lon="5.70378">
        <ele>418.04</ele>
        <time>2014-04-27T07:08:51Z</time>
      </trkpt>
      <trkpt lat="43.53282" lon="5.70403">
        <ele>419.75</ele>
        <time>2014-04-27T07:08:59Z</time>
      </trkpt>
      <trkpt lat="43.5329" lon="5.70428">
        <ele>420.1</ele>
        <time>2014-04-27T07:09:05Z</time>
      </trkpt>
      <trkpt lat="43.53297" lon="5.70453">
        <ele>420.62</ele>
        <time>2014-04-27T07:09:10Z</time>
      </trkpt>
      <trkpt lat="43.53304" lon="5.70477">
        <ele>420.99</ele>
        <time>2014-04-27T07:09:14Z</time>
      </trkpt>
      <trkpt lat="43.53314" lon="5.70502">
        <ele>421.12</ele>
        <time>2014-04-27T07:09:18Z</time>
      </trkpt>
      <trkpt lat="43.53326" lon="5.70528">
        <ele>421.03</ele>
        <time>2014-04-27T07:09:22Z</time>
      </trkpt>
      <trkpt lat="43.53338" lon="5.70555">
        <ele>420.89</ele>
        <time>2014-04-27T07:09:26Z</time>
      </trkpt>
      <trkpt lat="43.5335" lon="5.70583">
        <ele>420.65</ele>
        <time>2014-04-27T07:09:30Z</time>
      </trkpt>
      <trkpt lat="43.53359" lon="5.70606">
        <ele>420.54</ele>
        <time>2014-04-27T07:09:33Z</time>
      </trkpt>
      <trkpt lat="43.53368" lon="5.70627">
        <ele>420.35</ele>
        <time>2014-04-27T07:09:36Z</time>
      </trkpt>
      <trkpt lat="43.53379" lon="5.70649">
        <ele>420.28</ele>
        <time>2014-04-27T07:09:39Z</time>
      </trkpt>
      <trkpt lat="43.53389" lon="5.70673">
        <ele>419.89</ele>
        <time>2014-04-27T07:09:42Z</time>
      </trkpt>
      <trkpt lat="43.53398" lon="5.70699">
        <ele>419.59</ele>
        <time>2014-04-27T07:09:45Z</time>
      </trkpt>
      <trkpt lat="43.53409" lon="5.70723">
        <ele>419.18</ele>
        <time>2014-04-27T07:09:48Z</time>
      </trkpt>
      <trkpt lat="43.53418" lon="5.70747">
        <ele>418.62</ele>
        <time>2014-04-27T07:09:51Z</time>
      </trkpt>
      <trkpt lat="43.53427" lon="5.70771">
        <ele>417.83</ele>
        <time>2014-04-27T07:09:54Z</time>
      </trkpt>
      <trkpt lat="43.53435" lon="5.70796">
        <ele>417.05</ele>
        <time>2014-04-27T07:09:57Z</time>
      </trkpt>
      <trkpt lat="43.53446" lon="5.70822">
        <ele>416.24</ele>
        <time>2014-04-27T07:10:00Z</time>
      </trkpt>
      <trkpt lat="43.53456" lon="5.70844">
        <ele>415.56</ele>
        <time>2014-04-27T07:10:03Z</time>
      </trkpt>
      <trkpt lat="43.53466" lon="5.70868">
        <ele>414.81</ele>
        <time>2014-04-27T07:10:06Z</time>
      </trkpt>
      <trkpt lat="43.53475" lon="5.70892">
        <ele>414.11</ele>
        <time>2014-04-27T07:10:09Z</time>
      </trkpt>
      <trkpt lat="43.53483" lon="5.70918">
        <ele>413.89</ele>
        <time>2014-04-27T07:10:12Z</time>
      </trkpt>
      <trkpt lat="43.5349" lon="5.70941">
        <ele>414.29</ele>
        <time>2014-04-27T07:10:15Z</time>
      </trkpt>
      <trkpt lat="43.53497" lon="5.70967">
        <ele>415.15</ele>
        <time>2014-04-27T07:10:18Z</time>
      </trkpt>
      <trkpt lat="43.53506" lon="5.70991">
        <ele>416.33</ele>
        <time>2014-04-27T07:10:21Z</time>
      </trkpt>
      <trkpt lat="43.53514" lon="5.71014">
        <ele>417.41</ele>
        <time>2014-04-27T07:10:24Z</time>
      </trkpt>
      <trkpt lat="43.53522" lon="5.71038">
        <ele>418.1</ele>
        <time>2014-04-27T07:10:27Z</time>
      </trkpt>
      <trkpt lat="43.53528" lon="5.71063">
        <ele>418.51</ele>
        <time>2014-04-27T07:10:30Z</time>
      </trkpt>
      <trkpt lat="43.53539" lon="5.71084">
        <ele>419.13</ele>
        <time>2014-04-27T07:10:33Z</time>
      </trkpt>
      <trkpt lat="43.53546" lon="5.71109">
        <ele>419.54</ele>
        <time>2014-04-27T07:10:36Z</time>
      </trkpt>
      <trkpt lat="43.53555" lon="5.71131">
        <ele>419.68</ele>
        <time>2014-04-27T07:10:39Z</time>
      </trkpt>
      <trkpt lat="43.53568" lon="5.71156">
        <ele>419.68</ele>
        <time>2014-04-27T07:10:43Z</time>
      </trkpt>
      <trkpt lat="43.53581" lon="5.7118">
        <ele>419.74</ele>
        <time>2014-04-27T07:10:47Z</time>
      </trkpt>
      <trkpt lat="43.53596" lon="5.71202">
        <ele>420.16</ele>
        <time>2014-04-27T07:10:51Z</time>
      </trkpt>
      <trkpt lat="43.53611" lon="5.71224">
        <ele>420.42</ele>
        <time>2014-04-27T07:10:55Z</time>
      </trkpt>
      <trkpt lat="43.53623" lon="5.71243">
        <ele>420.44</ele>
        <time>2014-04-27T07:10:59Z</time>
      </trkpt>
      <trkpt lat="43.53634" lon="5.71263">
        <ele>420.71</ele>
        <time>2014-04-27T07:11:03Z</time>
      </trkpt>
      <trkpt lat="43.53651" lon="5.71284">
        <ele>421.11</ele>
        <time>2014-04-27T07:11:08Z</time>
      </trkpt>
      <trkpt lat="43.53664" lon="5.71307">
        <ele>421.62</ele>
        <time>2014-04-27T07:11:13Z</time>
      </trkpt>
      <trkpt lat="43.53676" lon="5.71329">
        <ele>422.31</ele>
        <time>2014-04-27T07:11:18Z</time>
      </trkpt>
      <trkpt lat="43.53689" lon="5.71354">
        <ele>422.75</ele>
        <time>2014-04-27T07:11:23Z</time>
      </trkpt>
      <trkpt lat="43.53704" lon="5.71376">
        <ele>423.53</ele>
        <time>2014-04-27T07:11:28Z</time>
      </trkpt>
      <trkpt lat="43.53719" lon="5.71397">
        <ele>423.88</ele>
        <time>2014-04-27T07:11:33Z</time>
      </trkpt>
      <trkpt lat="43.5373" lon="5.71417">
        <ele>423.49</ele>
        <time>2014-04-27T07:11:38Z</time>
      </trkpt>
      <trkpt lat="43.53744" lon="5.71436">
        <ele>423.26</ele>
        <time>2014-04-27T07:11:45Z</time>
      </trkpt>
      <trkpt lat="43.53762" lon="5.71455">
        <ele>426.85</ele>
        <time>2014-04-27T07:13:19Z</time>
      </trkpt>
      <trkpt lat="43.53758" lon="5.71479">
        <ele>430.87</ele>
        <time>2014-04-27T07:13:33Z</time>
      </trkpt>
      <trkpt lat="43.53747" lon="5.71502">
        <ele>430.82</ele>
        <time>2014-04-27T07:13:43Z</time>
      </trkpt>
      <trkpt lat="43.53736" lon="5.71522">
        <ele>430.71</ele>
        <time>2014-04-27T07:13:50Z</time>
      </trkpt>
      <trkpt lat="43.5373" lon="5.71546">
        <ele>430.96</ele>
        <time>2014-04-27T07:13:57Z</time>
      </trkpt>
      <trkpt lat="43.5374" lon="5.71567">
        <ele>432.36</ele>
        <time>2014-04-27T07:14:06Z</time>
      </trkpt>
      <trkpt lat="43.53759" lon="5.71568">
        <ele>434.74</ele>
        <time>2014-04-27T07:14:15Z</time>
      </trkpt>
      <trkpt lat="43.53778" lon="5.71566">
        <ele>437.68</ele>
        <time>2014-04-27T07:14:23Z</time>
      </trkpt>
      <trkpt lat="43.53796" lon="5.71566">
        <ele>441.12</ele>
        <time>2014-04-27T07:14:31Z</time>
      </trkpt>
      <trkpt lat="43.53817" lon="5.71562">
        <ele>442.81</ele>
        <time>2014-04-27T07:14:39Z</time>
      </trkpt>
      <trkpt lat="43.53836" lon="5.71559">
        <ele>445.75</ele>
        <time>2014-04-27T07:14:47Z</time>
      </trkpt>
      <trkpt lat="43.53857" lon="5.71555">
        <ele>447.58</ele>
        <time>2014-04-27T07:14:55Z</time>
      </trkpt>
      <trkpt lat="43.53875" lon="5.71551">
        <ele>450.4</ele>
        <time>2014-04-27T07:15:03Z</time>
      </trkpt>
      <trkpt lat="43.53894" lon="5.71548">
        <ele>453.03</ele>
        <time>2014-04-27T07:15:12Z</time>
      </trkpt>
      <trkpt lat="43.53914" lon="5.71547">
        <ele>458.25</ele>
        <time>2014-04-27T07:15:22Z</time>
      </trkpt>
      <trkpt lat="43.53934" lon="5.71546">
        <ele>460.57</ele>
        <time>2014-04-27T07:15:32Z</time>
      </trkpt>
      <trkpt lat="43.53953" lon="5.71543">
        <ele>460.34</ele>
        <time>2014-04-27T07:15:41Z</time>
      </trkpt>
      <trkpt lat="43.53974" lon="5.71539">
        <ele>459.27</ele>
        <time>2014-04-27T07:15:49Z</time>
      </trkpt>
      <trkpt lat="43.53991" lon="5.71531">
        <ele>457.53</ele>
        <time>2014-04-27T07:15:55Z</time>
      </trkpt>
      <trkpt lat="43.54006" lon="5.71518">
        <ele>455.55</ele>
        <time>2014-04-27T07:16:00Z</time>
      </trkpt>
      <trkpt lat="43.54018" lon="5.71499">
        <ele>453.71</ele>
        <time>2014-04-27T07:16:05Z</time>
      </trkpt>
      <trkpt lat="43.54032" lon="5.71483">
        <ele>451.82</ele>
        <time>2014-04-27T07:16:10Z</time>
      </trkpt>
      <trkpt lat="43.54048" lon="5.71465">
        <ele>450.7</ele>
        <time>2014-04-27T07:16:15Z</time>
      </trkpt>
      <trkpt lat="43.54063" lon="5.71451">
        <ele>450.69</ele>
        <time>2014-04-27T07:16:19Z</time>
      </trkpt>
      <trkpt lat="43.54081" lon="5.71435">
        <ele>450.66</ele>
        <time>2014-04-27T07:16:23Z</time>
      </trkpt>
      <trkpt lat="43.54098" lon="5.71417">
        <ele>450.71</ele>
        <time>2014-04-27T07:16:27Z</time>
      </trkpt>
      <trkpt lat="43.54116" lon="5.71399">
        <ele>450.61</ele>
        <time>2014-04-27T07:16:31Z</time>
      </trkpt>
      <trkpt lat="43.54131" lon="5.71381">
        <ele>450.72</ele>
        <time>2014-04-27T07:16:34Z</time>
      </trkpt>
      <trkpt lat="43.54144" lon="5.71363">
        <ele>450.72</ele>
        <time>2014-04-27T07:16:37Z</time>
      </trkpt>
      <trkpt lat="43.54159" lon="5.71339">
        <ele>450.24</ele>
        <time>2014-04-27T07:16:41Z</time>
      </trkpt>
      <trkpt lat="43.54173" lon="5.71321">
        <ele>449.7</ele>
        <time>2014-04-27T07:16:44Z</time>
      </trkpt>
      <trkpt lat="43.54186" lon="5.713">
        <ele>448.98</ele>
        <time>2014-04-27T07:16:47Z</time>
      </trkpt>
      <trkpt lat="43.54201" lon="5.71277">
        <ele>447.8</ele>
        <time>2014-04-27T07:16:50Z</time>
      </trkpt>
      <trkpt lat="43.54216" lon="5.71255">
        <ele>446.45</ele>
        <time>2014-04-27T07:16:53Z</time>
      </trkpt>
      <trkpt lat="43.54229" lon="5.71229">
        <ele>445.35</ele>
        <time>2014-04-27T07:16:56Z</time>
      </trkpt>
      <trkpt lat="43.54246" lon="5.71202">
        <ele>444.19</ele>
        <time>2014-04-27T07:16:59Z</time>
      </trkpt>
      <trkpt lat="43.54264" lon="5.71177">
        <ele>442.89</ele>
        <time>2014-04-27T07:17:02Z</time>
      </trkpt>
      <trkpt lat="43.54278" lon="5.71155">
        <ele>441.72</ele>
        <time>2014-04-27T07:17:05Z</time>
      </trkpt>
      <trkpt lat="43.54289" lon="5.71134">
        <ele>440.39</ele>
        <time>2014-04-27T07:17:08Z</time>
      </trkpt>
      <trkpt lat="43.543" lon="5.71111">
        <ele>439.18</ele>
        <time>2014-04-27T07:17:11Z</time>
      </trkpt>
      <trkpt lat="43.54312" lon="5.71085">
        <ele>437.41</ele>
        <time>2014-04-27T07:17:15Z</time>
      </trkpt>
      <trkpt lat="43.54324" lon="5.71064">
        <ele>435.48</ele>
        <time>2014-04-27T07:17:19Z</time>
      </trkpt>
      <trkpt lat="43.54338" lon="5.71046">
        <ele>433.64</ele>
        <time>2014-04-27T07:17:23Z</time>
      </trkpt>
      <trkpt lat="43.54356" lon="5.71024">
        <ele>430.98</ele>
        <time>2014-04-27T07:17:28Z</time>
      </trkpt>
      <trkpt lat="43.54374" lon="5.71005">
        <ele>428.47</ele>
        <time>2014-04-27T07:17:32Z</time>
      </trkpt>
      <trkpt lat="43.54389" lon="5.70985">
        <ele>426.21</ele>
        <time>2014-04-27T07:17:36Z</time>
      </trkpt>
      <trkpt lat="43.54405" lon="5.70962">
        <ele>423.86</ele>
        <time>2014-04-27T07:17:41Z</time>
      </trkpt>
      <trkpt lat="43.5442" lon="5.70941">
        <ele>421.72</ele>
        <time>2014-04-27T07:17:46Z</time>
      </trkpt>
      <trkpt lat="43.54431" lon="5.70919">
        <ele>420.6</ele>
        <time>2014-04-27T07:17:50Z</time>
      </trkpt>
      <trkpt lat="43.54442" lon="5.70895">
        <ele>419.22</ele>
        <time>2014-04-27T07:17:55Z</time>
      </trkpt>
      <trkpt lat="43.54455" lon="5.7087">
        <ele>418</ele>
        <time>2014-04-27T07:18:00Z</time>
      </trkpt>
      <trkpt lat="43.54469" lon="5.70851">
        <ele>417.34</ele>
        <time>2014-04-27T07:18:04Z</time>
      </trkpt>
      <trkpt lat="43.54485" lon="5.7083">
        <ele>416.96</ele>
        <time>2014-04-27T07:18:09Z</time>
      </trkpt>
      <trkpt lat="43.54494" lon="5.70804">
        <ele>416.08</ele>
        <time>2014-04-27T07:18:15Z</time>
      </trkpt>
      <trkpt lat="43.54505" lon="5.70781">
        <ele>415.67</ele>
        <time>2014-04-27T07:18:20Z</time>
      </trkpt>
      <trkpt lat="43.54517" lon="5.70758">
        <ele>414.72</ele>
        <time>2014-04-27T07:18:27Z</time>
      </trkpt>
      <trkpt lat="43.54528" lon="5.70735">
        <ele>413.87</ele>
        <time>2014-04-27T07:18:34Z</time>
      </trkpt>
      <trkpt lat="43.54544" lon="5.70721">
        <ele>413.21</ele>
        <time>2014-04-27T07:18:39Z</time>
      </trkpt>
      <trkpt lat="43.54554" lon="5.707">
        <ele>412.42</ele>
        <time>2014-04-27T07:18:46Z</time>
      </trkpt>
      <trkpt lat="43.54568" lon="5.70683">
        <ele>411.54</ele>
        <time>2014-04-27T07:18:52Z</time>
      </trkpt>
      <trkpt lat="43.54582" lon="5.70663">
        <ele>410.67</ele>
        <time>2014-04-27T07:18:59Z</time>
      </trkpt>
      <trkpt lat="43.54593" lon="5.70642">
        <ele>410.49</ele>
        <time>2014-04-27T07:19:06Z</time>
      </trkpt>
      <trkpt lat="43.54601" lon="5.70618">
        <ele>410.79</ele>
        <time>2014-04-27T07:19:11Z</time>
      </trkpt>
      <trkpt lat="43.54611" lon="5.70597">
        <ele>411.13</ele>
        <time>2014-04-27T07:19:17Z</time>
      </trkpt>
      <trkpt lat="43.54624" lon="5.70579">
        <ele>413.04</ele>
        <time>2014-04-27T07:19:22Z</time>
      </trkpt>
      <trkpt lat="43.54642" lon="5.70567">
        <ele>416.88</ele>
        <time>2014-04-27T07:19:27Z</time>
      </trkpt>
      <trkpt lat="43.54658" lon="5.70554">
        <ele>424.95</ele>
        <time>2014-04-27T07:19:34Z</time>
      </trkpt>
      <trkpt lat="43.54678" lon="5.70556">
        <ele>435.65</ele>
        <time>2014-04-27T07:21:28Z</time>
      </trkpt>
      <trkpt lat="43.54682" lon="5.70531">
        <ele>442.15</ele>
        <time>2014-04-27T07:21:47Z</time>
      </trkpt>
      <trkpt lat="43.54667" lon="5.70515">
        <ele>441.33</ele>
        <time>2014-04-27T07:21:53Z</time>
      </trkpt>
      <trkpt lat="43.54675" lon="5.7049">
        <ele>439.51</ele>
        <time>2014-04-27T07:22:02Z</time>
      </trkpt>
      <trkpt lat="43.54692" lon="5.70475">
        <ele>436.81</ele>
        <time>2014-04-27T07:22:12Z</time>
      </trkpt>
      <trkpt lat="43.54708" lon="5.70463">
        <ele>434.34</ele>
        <time>2014-04-27T07:22:19Z</time>
      </trkpt>
      <trkpt lat="43.54723" lon="5.70445">
        <ele>431.22</ele>
        <time>2014-04-27T07:22:27Z</time>
      </trkpt>
      <trkpt lat="43.54736" lon="5.70426">
        <ele>428.84</ele>
        <time>2014-04-27T07:22:34Z</time>
      </trkpt>
      <trkpt lat="43.5475" lon="5.70407">
        <ele>427.32</ele>
        <time>2014-04-27T07:22:40Z</time>
      </trkpt>
      <trkpt lat="43.54764" lon="5.70388">
        <ele>428.11</ele>
        <time>2014-04-27T07:22:48Z</time>
      </trkpt>
      <trkpt lat="43.54776" lon="5.70367">
        <ele>428.69</ele>
        <time>2014-04-27T07:22:56Z</time>
      </trkpt>
      <trkpt lat="43.54787" lon="5.70345">
        <ele>429.18</ele>
        <time>2014-04-27T07:23:04Z</time>
      </trkpt>
      <trkpt lat="43.548" lon="5.70326">
        <ele>429.64</ele>
        <time>2014-04-27T07:23:11Z</time>
      </trkpt>
      <trkpt lat="43.54815" lon="5.7031">
        <ele>430.6</ele>
        <time>2014-04-27T07:23:18Z</time>
      </trkpt>
      <trkpt lat="43.54828" lon="5.70289">
        <ele>430.8</ele>
        <time>2014-04-27T07:23:25Z</time>
      </trkpt>
      <trkpt lat="43.54839" lon="5.70269">
        <ele>430.83</ele>
        <time>2014-04-27T07:23:32Z</time>
      </trkpt>
      <trkpt lat="43.54851" lon="5.7025">
        <ele>430.94</ele>
        <time>2014-04-27T07:23:39Z</time>
      </trkpt>
      <trkpt lat="43.54867" lon="5.70235">
        <ele>431.81</ele>
        <time>2014-04-27T07:23:47Z</time>
      </trkpt>
      <trkpt lat="43.54886" lon="5.70227">
        <ele>433.18</ele>
        <time>2014-04-27T07:23:56Z</time>
      </trkpt>
      <trkpt lat="43.54904" lon="5.70219">
        <ele>433.95</ele>
        <time>2014-04-27T07:24:03Z</time>
      </trkpt>
      <trkpt lat="43.54923" lon="5.7021">
        <ele>436.4</ele>
        <time>2014-04-27T07:24:11Z</time>
      </trkpt>
      <trkpt lat="43.5494" lon="5.70195">
        <ele>437.14</ele>
        <time>2014-04-27T07:24:19Z</time>
      </trkpt>
      <trkpt lat="43.54957" lon="5.70184">
        <ele>438.17</ele>
        <time>2014-04-27T07:24:26Z</time>
      </trkpt>
      <trkpt lat="43.54975" lon="5.70177">
        <ele>440.38</ele>
        <time>2014-04-27T07:24:32Z</time>
      </trkpt>
      <trkpt lat="43.54991" lon="5.70168">
        <ele>441.93</ele>
        <time>2014-04-27T07:24:41Z</time>
      </trkpt>
      <trkpt lat="43.55009" lon="5.7016">
        <ele>442.95</ele>
        <time>2014-04-27T07:24:49Z</time>
      </trkpt>
      <trkpt lat="43.55025" lon="5.70147">
        <ele>444.48</ele>
        <time>2014-04-27T07:24:57Z</time>
      </trkpt>
      <trkpt lat="43.55043" lon="5.70134">
        <ele>445.28</ele>
        <time>2014-04-27T07:25:05Z</time>
      </trkpt>
      <trkpt lat="43.5506" lon="5.70119">
        <ele>446.51</ele>
        <time>2014-04-27T07:25:14Z</time>
      </trkpt>
      <trkpt lat="43.55074" lon="5.70101">
        <ele>447.21</ele>
        <time>2014-04-27T07:25:23Z</time>
      </trkpt>
      <trkpt lat="43.5509" lon="5.70091">
        <ele>448.32</ele>
        <time>2014-04-27T07:25:30Z</time>
      </trkpt>
      <trkpt lat="43.55107" lon="5.70077">
        <ele>449.78</ele>
        <time>2014-04-27T07:25:39Z</time>
      </trkpt>
      <trkpt lat="43.55119" lon="5.70056">
        <ele>450.05</ele>
        <time>2014-04-27T07:25:47Z</time>
      </trkpt>
      <trkpt lat="43.55126" lon="5.70032">
        <ele>449.11</ele>
        <time>2014-04-27T07:25:57Z</time>
      </trkpt>
      <trkpt lat="43.55125" lon="5.70005">
        <ele>448.51</ele>
        <time>2014-04-27T07:26:09Z</time>
      </trkpt>
      <trkpt lat="43.55125" lon="5.69978">
        <ele>447.41</ele>
        <time>2014-04-27T07:26:18Z</time>
      </trkpt>
      <trkpt lat="43.55122" lon="5.69952">
        <ele>446.23</ele>
        <time>2014-04-27T07:26:32Z</time>
      </trkpt>
      <trkpt lat="43.55117" lon="5.69928">
        <ele>445.45</ele>
        <time>2014-04-27T07:26:42Z</time>
      </trkpt>
      <trkpt lat="43.55113" lon="5.69902">
        <ele>445.15</ele>
        <time>2014-04-27T07:26:51Z</time>
      </trkpt>
      <trkpt lat="43.55108" lon="5.69877">
        <ele>445.68</ele>
        <time>2014-04-27T07:27:04Z</time>
      </trkpt>
      <trkpt lat="43.55101" lon="5.69854">
        <ele>446.13</ele>
        <time>2014-04-27T07:27:16Z</time>
      </trkpt>
      <trkpt lat="43.55095" lon="5.6983">
        <ele>447.2</ele>
        <time>2014-04-27T07:27:30Z</time>
      </trkpt>
      <trkpt lat="43.55094" lon="5.69804">
        <ele>448.24</ele>
        <time>2014-04-27T07:27:46Z</time>
      </trkpt>
      <trkpt lat="43.55091" lon="5.6977">
        <ele>448.35</ele>
        <time>2014-04-27T07:28:01Z</time>
      </trkpt>
      <trkpt lat="43.55094" lon="5.69745">
        <ele>475.52</ele>
        <time>2014-04-27T07:29:13Z</time>
      </trkpt>
      <trkpt lat="43.55106" lon="5.69725">
        <ele>477.45</ele>
        <time>2014-04-27T07:29:33Z</time>
      </trkpt>
      <trkpt lat="43.55124" lon="5.69721">
        <ele>481.66</ele>
        <time>2014-04-27T07:30:05Z</time>
      </trkpt>
      <trkpt lat="43.5513" lon="5.69697">
        <ele>484.82</ele>
        <time>2014-04-27T07:30:31Z</time>
      </trkpt>
      <trkpt lat="43.55139" lon="5.69674">
        <ele>487.72</ele>
        <time>2014-04-27T07:30:52Z</time>
      </trkpt>
      <trkpt lat="43.55149" lon="5.69652">
        <ele>490.56</ele>
        <time>2014-04-27T07:31:12Z</time>
      </trkpt>
      <trkpt lat="43.55144" lon="5.69627">
        <ele>503.47</ele>
        <time>2014-04-27T07:33:50Z</time>
      </trkpt>
      <trkpt lat="43.5514" lon="5.69601">
        <ele>506.03</ele>
        <time>2014-04-27T07:34:03Z</time>
      </trkpt>
      <trkpt lat="43.55136" lon="5.69576">
        <ele>508.75</ele>
        <time>2014-04-27T07:34:15Z</time>
      </trkpt>
      <trkpt lat="43.55127" lon="5.69555">
        <ele>511.47</ele>
        <time>2014-04-27T07:34:28Z</time>
      </trkpt>
      <trkpt lat="43.55117" lon="5.69532">
        <ele>514.21</ele>
        <time>2014-04-27T07:34:40Z</time>
      </trkpt>
      <trkpt lat="43.55104" lon="5.69513">
        <ele>517.41</ele>
        <time>2014-04-27T07:34:51Z</time>
      </trkpt>
      <trkpt lat="43.55094" lon="5.6949">
        <ele>521.63</ele>
        <time>2014-04-27T07:35:05Z</time>
      </trkpt>
      <trkpt lat="43.55091" lon="5.69464">
        <ele>525.81</ele>
        <time>2014-04-27T07:35:18Z</time>
      </trkpt>
      <trkpt lat="43.55091" lon="5.69438">
        <ele>529.97</ele>
        <time>2014-04-27T07:35:31Z</time>
      </trkpt>
      <trkpt lat="43.55081" lon="5.69417">
        <ele>533.74</ele>
        <time>2014-04-27T07:35:44Z</time>
      </trkpt>
      <trkpt lat="43.55078" lon="5.69391">
        <ele>535.76</ele>
        <time>2014-04-27T07:35:58Z</time>
      </trkpt>
      <trkpt lat="43.55068" lon="5.69368">
        <ele>538.09</ele>
        <time>2014-04-27T07:36:12Z</time>
      </trkpt>
      <trkpt lat="43.55056" lon="5.69349">
        <ele>539.77</ele>
        <time>2014-04-27T07:36:25Z</time>
      </trkpt>
      <trkpt lat="43.55046" lon="5.69327">
        <ele>541</ele>
        <time>2014-04-27T07:36:39Z</time>
      </trkpt>
      <trkpt lat="43.55034" lon="5.69306">
        <ele>542.46</ele>
        <time>2014-04-27T07:36:52Z</time>
      </trkpt>
      <trkpt lat="43.55022" lon="5.69287">
        <ele>544.69</ele>
        <time>2014-04-27T07:37:05Z</time>
      </trkpt>
      <trkpt lat="43.55008" lon="5.69271">
        <ele>548.53</ele>
        <time>2014-04-27T07:37:26Z</time>
      </trkpt>
      <trkpt lat="43.54992" lon="5.69259">
        <ele>551.05</ele>
        <time>2014-04-27T07:37:44Z</time>
      </trkpt>
      <trkpt lat="43.54977" lon="5.69245">
        <ele>553.57</ele>
        <time>2014-04-27T07:38:19Z</time>
      </trkpt>
      <trkpt lat="43.54961" lon="5.69235">
        <ele>554.61</ele>
        <time>2014-04-27T07:38:32Z</time>
      </trkpt>
      <trkpt lat="43.54946" lon="5.69221">
        <ele>554.95</ele>
        <time>2014-04-27T07:38:45Z</time>
      </trkpt>
      <trkpt lat="43.54928" lon="5.69212">
        <ele>555.58</ele>
        <time>2014-04-27T07:38:57Z</time>
      </trkpt>
      <trkpt lat="43.54913" lon="5.69197">
        <ele>557.02</ele>
        <time>2014-04-27T07:39:10Z</time>
      </trkpt>
      <trkpt lat="43.54896" lon="5.69181">
        <ele>558.99</ele>
        <time>2014-04-27T07:39:24Z</time>
      </trkpt>
      <trkpt lat="43.54878" lon="5.69173">
        <ele>560.52</ele>
        <time>2014-04-27T07:39:35Z</time>
      </trkpt>
      <trkpt lat="43.54864" lon="5.69156">
        <ele>563.54</ele>
        <time>2014-04-27T07:39:48Z</time>
      </trkpt>
      <trkpt lat="43.54854" lon="5.69132">
        <ele>566.18</ele>
        <time>2014-04-27T07:39:59Z</time>
      </trkpt>
      <trkpt lat="43.54839" lon="5.69117">
        <ele>569.44</ele>
        <time>2014-04-27T07:40:12Z</time>
      </trkpt>
      <trkpt lat="43.54827" lon="5.69097">
        <ele>571.71</ele>
        <time>2014-04-27T07:40:23Z</time>
      </trkpt>
      <trkpt lat="43.54812" lon="5.69081">
        <ele>574.67</ele>
        <time>2014-04-27T07:40:35Z</time>
      </trkpt>
      <trkpt lat="43.54797" lon="5.69095">
        <ele>577.73</ele>
        <time>2014-04-27T07:40:49Z</time>
      </trkpt>
      <trkpt lat="43.54777" lon="5.69092">
        <ele>579.49</ele>
        <time>2014-04-27T07:41:00Z</time>
      </trkpt>
      <trkpt lat="43.54762" lon="5.69077">
        <ele>581.51</ele>
        <time>2014-04-27T07:41:09Z</time>
      </trkpt>
      <trkpt lat="43.54746" lon="5.69065">
        <ele>583</ele>
        <time>2014-04-27T07:41:19Z</time>
      </trkpt>
      <trkpt lat="43.54733" lon="5.69045">
        <ele>584.57</ele>
        <time>2014-04-27T07:41:28Z</time>
      </trkpt>
      <trkpt lat="43.54717" lon="5.6903">
        <ele>584.88</ele>
        <time>2014-04-27T07:41:36Z</time>
      </trkpt>
      <trkpt lat="43.54705" lon="5.6901">
        <ele>585.86</ele>
        <time>2014-04-27T07:41:46Z</time>
      </trkpt>
      <trkpt lat="43.54688" lon="5.68997">
        <ele>587.59</ele>
        <time>2014-04-27T07:41:55Z</time>
      </trkpt>
      <trkpt lat="43.54669" lon="5.69">
        <ele>591.47</ele>
        <time>2014-04-27T07:42:04Z</time>
      </trkpt>
      <trkpt lat="43.54649" lon="5.69006">
        <ele>595.57</ele>
        <time>2014-04-27T07:44:51Z</time>
      </trkpt>
      <trkpt lat="43.5463" lon="5.69001">
        <ele>598.01</ele>
        <time>2014-04-27T07:45:02Z</time>
      </trkpt>
      <trkpt lat="43.54611" lon="5.6899">
        <ele>597.97</ele>
        <time>2014-04-27T07:45:10Z</time>
      </trkpt>
      <trkpt lat="43.54595" lon="5.68973">
        <ele>597.89</ele>
        <time>2014-04-27T07:45:15Z</time>
      </trkpt>
      <trkpt lat="43.54584" lon="5.68952">
        <ele>597.34</ele>
        <time>2014-04-27T07:45:18Z</time>
      </trkpt>
      <trkpt lat="43.54563" lon="5.6894">
        <ele>596.29</ele>
        <time>2014-04-27T07:45:23Z</time>
      </trkpt>
      <trkpt lat="43.54546" lon="5.68929">
        <ele>595.5</ele>
        <time>2014-04-27T07:45:27Z</time>
      </trkpt>
      <trkpt lat="43.54534" lon="5.68909">
        <ele>595.1</ele>
        <time>2014-04-27T07:45:31Z</time>
      </trkpt>
      <trkpt lat="43.54527" lon="5.68884">
        <ele>594.8</ele>
        <time>2014-04-27T07:45:36Z</time>
      </trkpt>
      <trkpt lat="43.54523" lon="5.6886">
        <ele>594.51</ele>
        <time>2014-04-27T07:45:42Z</time>
      </trkpt>
      <trkpt lat="43.5452" lon="5.68835">
        <ele>594.42</ele>
        <time>2014-04-27T07:45:48Z</time>
      </trkpt>
      <trkpt lat="43.54513" lon="5.68811">
        <ele>595.08</ele>
        <time>2014-04-27T07:45:55Z</time>
      </trkpt>
      <trkpt lat="43.54502" lon="5.68789">
        <ele>595.79</ele>
        <time>2014-04-27T07:46:01Z</time>
      </trkpt>
      <trkpt lat="43.54493" lon="5.68766">
        <ele>595.09</ele>
        <time>2014-04-27T07:46:09Z</time>
      </trkpt>
      <trkpt lat="43.54486" lon="5.6874">
        <ele>596.68</ele>
        <time>2014-04-27T07:46:19Z</time>
      </trkpt>
      <trkpt lat="43.54477" lon="5.68715">
        <ele>597.48</ele>
        <time>2014-04-27T07:46:29Z</time>
      </trkpt>
      <trkpt lat="43.5447" lon="5.68691">
        <ele>598.79</ele>
        <time>2014-04-27T07:46:38Z</time>
      </trkpt>
      <trkpt lat="43.54459" lon="5.68669">
        <ele>600.53</ele>
        <time>2014-04-27T07:46:46Z</time>
      </trkpt>
      <trkpt lat="43.54446" lon="5.6865">
        <ele>601.72</ele>
        <time>2014-04-27T07:46:53Z</time>
      </trkpt>
      <trkpt lat="43.54431" lon="5.68633">
        <ele>603.51</ele>
        <time>2014-04-27T07:46:59Z</time>
      </trkpt>
      <trkpt lat="43.54413" lon="5.68617">
        <ele>604.71</ele>
        <time>2014-04-27T07:47:04Z</time>
      </trkpt>
      <trkpt lat="43.54399" lon="5.68601">
        <ele>605.27</ele>
        <time>2014-04-27T07:47:08Z</time>
      </trkpt>
      <trkpt lat="43.54385" lon="5.68583">
        <ele>605.93</ele>
        <time>2014-04-27T07:47:12Z</time>
      </trkpt>
      <trkpt lat="43.54371" lon="5.68564">
        <ele>606.02</ele>
        <time>2014-04-27T07:47:16Z</time>
      </trkpt>
      <trkpt lat="43.54361" lon="5.68543">
        <ele>606.49</ele>
        <time>2014-04-27T07:47:20Z</time>
      </trkpt>
      <trkpt lat="43.54352" lon="5.68519">
        <ele>607.15</ele>
        <time>2014-04-27T07:47:26Z</time>
      </trkpt>
      <trkpt lat="43.54341" lon="5.68495">
        <ele>608.43</ele>
        <time>2014-04-27T07:47:32Z</time>
      </trkpt>
      <trkpt lat="43.54331" lon="5.68472">
        <ele>609.29</ele>
        <time>2014-04-27T07:47:37Z</time>
      </trkpt>
      <trkpt lat="43.54323" lon="5.68447">
        <ele>609.71</ele>
        <time>2014-04-27T07:47:42Z</time>
      </trkpt>
      <trkpt lat="43.54314" lon="5.68423">
        <ele>610.6</ele>
        <time>2014-04-27T07:47:48Z</time>
      </trkpt>
      <trkpt lat="43.54304" lon="5.68401">
        <ele>612.07</ele>
        <time>2014-04-27T07:47:53Z</time>
      </trkpt>
      <trkpt lat="43.54297" lon="5.68375">
        <ele>614.1</ele>
        <time>2014-04-27T07:48:00Z</time>
      </trkpt>
      <trkpt lat="43.54287" lon="5.68352">
        <ele>615.56</ele>
        <time>2014-04-27T07:48:08Z</time>
      </trkpt>
      <trkpt lat="43.5428" lon="5.68328">
        <ele>617.54</ele>
        <time>2014-04-27T07:48:17Z</time>
      </trkpt>
      <trkpt lat="43.54271" lon="5.68306">
        <ele>619.05</ele>
        <time>2014-04-27T07:48:26Z</time>
      </trkpt>
      <trkpt lat="43.54263" lon="5.68282">
        <ele>619.85</ele>
        <time>2014-04-27T07:48:33Z</time>
      </trkpt>
      <trkpt lat="43.5425" lon="5.68262">
        <ele>620.61</ele>
        <time>2014-04-27T07:48:40Z</time>
      </trkpt>
      <trkpt lat="43.54253" lon="5.68237">
        <ele>619.93</ele>
        <time>2014-04-27T07:49:01Z</time>
      </trkpt>
      <trkpt lat="43.54257" lon="5.68212">
        <ele>619.92</ele>
        <time>2014-04-27T07:49:19Z</time>
      </trkpt>
      <trkpt lat="43.54257" lon="5.68188">
        <ele>620.74</ele>
        <time>2014-04-27T07:49:36Z</time>
      </trkpt>
      <trkpt lat="43.54261" lon="5.68162">
        <ele>621.61</ele>
        <time>2014-04-27T07:49:56Z</time>
      </trkpt>
      <trkpt lat="43.54272" lon="5.6814">
        <ele>623.12</ele>
        <time>2014-04-27T07:50:20Z</time>
      </trkpt>
      <trkpt lat="43.54281" lon="5.68117">
        <ele>623.92</ele>
        <time>2014-04-27T07:50:30Z</time>
      </trkpt>
      <trkpt lat="43.54296" lon="5.68102">
        <ele>625.41</ele>
        <time>2014-04-27T07:50:40Z</time>
      </trkpt>
      <trkpt lat="43.54313" lon="5.6809">
        <ele>626.6</ele>
        <time>2014-04-27T07:50:49Z</time>
      </trkpt>
      <trkpt lat="43.5432" lon="5.68066">
        <ele>628.22</ele>
        <time>2014-04-27T07:50:59Z</time>
      </trkpt>
      <trkpt lat="43.54311" lon="5.68044">
        <ele>629.62</ele>
        <time>2014-04-27T07:51:11Z</time>
      </trkpt>
      <trkpt lat="43.54295" lon="5.68029">
        <ele>631.12</ele>
        <time>2014-04-27T07:51:21Z</time>
      </trkpt>
      <trkpt lat="43.54283" lon="5.6801">
        <ele>632.52</ele>
        <time>2014-04-27T07:51:31Z</time>
      </trkpt>
      <trkpt lat="43.54283" lon="5.67983">
        <ele>634.25</ele>
        <time>2014-04-27T07:51:41Z</time>
      </trkpt>
      <trkpt lat="43.54288" lon="5.67958">
        <ele>637.43</ele>
        <time>2014-04-27T07:51:54Z</time>
      </trkpt>
      <trkpt lat="43.54296" lon="5.67934">
        <ele>640.8</ele>
        <time>2014-04-27T07:53:14Z</time>
      </trkpt>
      <trkpt lat="43.54296" lon="5.67907">
        <ele>641.14</ele>
        <time>2014-04-27T07:53:27Z</time>
      </trkpt>
      <trkpt lat="43.54288" lon="5.67881">
        <ele>640.87</ele>
        <time>2014-04-27T07:53:33Z</time>
      </trkpt>
      <trkpt lat="43.54283" lon="5.67857">
        <ele>640.62</ele>
        <time>2014-04-27T07:53:38Z</time>
      </trkpt>
      <trkpt lat="43.54278" lon="5.67829">
        <ele>640.37</ele>
        <time>2014-04-27T07:53:43Z</time>
      </trkpt>
      <trkpt lat="43.54275" lon="5.67803">
        <ele>640.3</ele>
        <time>2014-04-27T07:53:48Z</time>
      </trkpt>
      <trkpt lat="43.54275" lon="5.67775">
        <ele>639.9</ele>
        <time>2014-04-27T07:53:53Z</time>
      </trkpt>
      <trkpt lat="43.54277" lon="5.67749">
        <ele>639.49</ele>
        <time>2014-04-27T07:53:58Z</time>
      </trkpt>
      <trkpt lat="43.54283" lon="5.67717">
        <ele>638.89</ele>
        <time>2014-04-27T07:54:04Z</time>
      </trkpt>
      <trkpt lat="43.54291" lon="5.67693">
        <ele>638.31</ele>
        <time>2014-04-27T07:54:08Z</time>
      </trkpt>
      <trkpt lat="43.54305" lon="5.67676">
        <ele>637.69</ele>
        <time>2014-04-27T07:54:13Z</time>
      </trkpt>
      <trkpt lat="43.54325" lon="5.67667">
        <ele>637.2</ele>
        <time>2014-04-27T07:54:19Z</time>
      </trkpt>
      <trkpt lat="43.54341" lon="5.67647">
        <ele>636.31</ele>
        <time>2014-04-27T07:54:25Z</time>
      </trkpt>
      <trkpt lat="43.5435" lon="5.67624">
        <ele>634.99</ele>
        <time>2014-04-27T07:54:30Z</time>
      </trkpt>
      <trkpt lat="43.54365" lon="5.67602">
        <ele>633.39</ele>
        <time>2014-04-27T07:54:36Z</time>
      </trkpt>
      <trkpt lat="43.54383" lon="5.67585">
        <ele>632.08</ele>
        <time>2014-04-27T07:54:41Z</time>
      </trkpt>
      <trkpt lat="43.54398" lon="5.67567">
        <ele>631.15</ele>
        <time>2014-04-27T07:54:45Z</time>
      </trkpt>
      <trkpt lat="43.5441" lon="5.67548">
        <ele>630.36</ele>
        <time>2014-04-27T07:54:49Z</time>
      </trkpt>
      <trkpt lat="43.54403" lon="5.67523">
        <ele>629.16</ele>
        <time>2014-04-27T07:54:55Z</time>
      </trkpt>
      <trkpt lat="43.54386" lon="5.67506">
        <ele>628.09</ele>
        <time>2014-04-27T07:55:00Z</time>
      </trkpt>
      <trkpt lat="43.5437" lon="5.67491">
        <ele>626.98</ele>
        <time>2014-04-27T07:55:05Z</time>
      </trkpt>
      <trkpt lat="43.54369" lon="5.67466">
        <ele>624.95</ele>
        <time>2014-04-27T07:55:12Z</time>
      </trkpt>
      <trkpt lat="43.54385" lon="5.6745">
        <ele>621.15</ele>
        <time>2014-04-27T07:55:25Z</time>
      </trkpt>
      <trkpt lat="43.54402" lon="5.6744">
        <ele>620.49</ele>
        <time>2014-04-27T07:55:31Z</time>
      </trkpt>
      <trkpt lat="43.54425" lon="5.67434">
        <ele>619.75</ele>
        <time>2014-04-27T07:55:35Z</time>
      </trkpt>
      <trkpt lat="43.54447" lon="5.67432">
        <ele>618.98</ele>
        <time>2014-04-27T07:55:39Z</time>
      </trkpt>
      <trkpt lat="43.54464" lon="5.67421">
        <ele>618.09</ele>
        <time>2014-04-27T07:55:43Z</time>
      </trkpt>
      <trkpt lat="43.54468" lon="5.67394">
        <ele>616.86</ele>
        <time>2014-04-27T07:55:50Z</time>
      </trkpt>
      <trkpt lat="43.54458" lon="5.67368">
        <ele>615.67</ele>
        <time>2014-04-27T07:55:56Z</time>
      </trkpt>
      <trkpt lat="43.54447" lon="5.67341">
        <ele>615.14</ele>
        <time>2014-04-27T07:56:00Z</time>
      </trkpt>
      <trkpt lat="43.54437" lon="5.6732">
        <ele>614.76</ele>
        <time>2014-04-27T07:56:03Z</time>
      </trkpt>
      <trkpt lat="43.54426" lon="5.67299">
        <ele>614.36</ele>
        <time>2014-04-27T07:56:06Z</time>
      </trkpt>
      <trkpt lat="43.54411" lon="5.67277">
        <ele>614.19</ele>
        <time>2014-04-27T07:56:10Z</time>
      </trkpt>
      <trkpt lat="43.54422" lon="5.67255">
        <ele>614.08</ele>
        <time>2014-04-27T07:56:17Z</time>
      </trkpt>
      <trkpt lat="43.54442" lon="5.6725">
        <ele>612.99</ele>
        <time>2014-04-27T07:56:21Z</time>
      </trkpt>
      <trkpt lat="43.54461" lon="5.67251">
        <ele>612.34</ele>
        <time>2014-04-27T07:56:24Z</time>
      </trkpt>
      <trkpt lat="43.5448" lon="5.67252">
        <ele>611.34</ele>
        <time>2014-04-27T07:56:27Z</time>
      </trkpt>
      <trkpt lat="43.54501" lon="5.67249">
        <ele>610.12</ele>
        <time>2014-04-27T07:56:30Z</time>
      </trkpt>
      <trkpt lat="43.5452" lon="5.67249">
        <ele>608.21</ele>
        <time>2014-04-27T07:56:33Z</time>
      </trkpt>
      <trkpt lat="43.54541" lon="5.67247">
        <ele>605.87</ele>
        <time>2014-04-27T07:56:37Z</time>
      </trkpt>
      <trkpt lat="43.54555" lon="5.67224">
        <ele>603.2</ele>
        <time>2014-04-27T07:56:41Z</time>
      </trkpt>
      <trkpt lat="43.54557" lon="5.67194">
        <ele>600.24</ele>
        <time>2014-04-27T07:56:46Z</time>
      </trkpt>
      <trkpt lat="43.5455" lon="5.67169">
        <ele>598.34</ele>
        <time>2014-04-27T07:56:50Z</time>
      </trkpt>
      <trkpt lat="43.54537" lon="5.67145">
        <ele>596.49</ele>
        <time>2014-04-27T07:56:54Z</time>
      </trkpt>
      <trkpt lat="43.54522" lon="5.67129">
        <ele>594.99</ele>
        <time>2014-04-27T07:56:57Z</time>
      </trkpt>
      <trkpt lat="43.54508" lon="5.67113">
        <ele>593.52</ele>
        <time>2014-04-27T07:57:00Z</time>
      </trkpt>
      <trkpt lat="43.54506" lon="5.67086">
        <ele>590.46</ele>
        <time>2014-04-27T07:57:06Z</time>
      </trkpt>
      <trkpt lat="43.54519" lon="5.67066">
        <ele>584.67</ele>
        <time>2014-04-27T07:57:17Z</time>
      </trkpt>
      <trkpt lat="43.54509" lon="5.67041">
        <ele>581.99</ele>
        <time>2014-04-27T07:57:25Z</time>
      </trkpt>
      <trkpt lat="43.54512" lon="5.67016">
        <ele>579.48</ele>
        <time>2014-04-27T07:57:34Z</time>
      </trkpt>
      <trkpt lat="43.54532" lon="5.67021">
        <ele>575.02</ele>
        <time>2014-04-27T07:57:45Z</time>
      </trkpt>
      <trkpt lat="43.54547" lon="5.67038">
        <ele>572.06</ele>
        <time>2014-04-27T07:57:50Z</time>
      </trkpt>
      <trkpt lat="43.54561" lon="5.67053">
        <ele>570.48</ele>
        <time>2014-04-27T07:57:53Z</time>
      </trkpt>
      <trkpt lat="43.54577" lon="5.67069">
        <ele>569.02</ele>
        <time>2014-04-27T07:57:56Z</time>
      </trkpt>
      <trkpt lat="43.54596" lon="5.67084">
        <ele>567.74</ele>
        <time>2014-04-27T07:57:59Z</time>
      </trkpt>
      <trkpt lat="43.54614" lon="5.671">
        <ele>566.35</ele>
        <time>2014-04-27T07:58:02Z</time>
      </trkpt>
      <trkpt lat="43.54623" lon="5.67123">
        <ele>564.92</ele>
        <time>2014-04-27T07:58:05Z</time>
      </trkpt>
      <trkpt lat="43.54634" lon="5.67147">
        <ele>563.9</ele>
        <time>2014-04-27T07:58:08Z</time>
      </trkpt>
      <trkpt lat="43.54647" lon="5.67166">
        <ele>563.01</ele>
        <time>2014-04-27T07:58:11Z</time>
      </trkpt>
      <trkpt lat="43.54659" lon="5.67193">
        <ele>561.2</ele>
        <time>2014-04-27T07:58:15Z</time>
      </trkpt>
      <trkpt lat="43.54677" lon="5.67203">
        <ele>558.7</ele>
        <time>2014-04-27T07:58:19Z</time>
      </trkpt>
      <trkpt lat="43.54696" lon="5.67215">
        <ele>556.89</ele>
        <time>2014-04-27T07:58:23Z</time>
      </trkpt>
      <trkpt lat="43.54717" lon="5.67225">
        <ele>555.01</ele>
        <time>2014-04-27T07:58:27Z</time>
      </trkpt>
      <trkpt lat="43.54737" lon="5.67228">
        <ele>552.46</ele>
        <time>2014-04-27T07:58:31Z</time>
      </trkpt>
      <trkpt lat="43.54756" lon="5.67236">
        <ele>550.12</ele>
        <time>2014-04-27T07:58:35Z</time>
      </trkpt>
      <trkpt lat="43.54774" lon="5.67244">
        <ele>548.29</ele>
        <time>2014-04-27T07:58:39Z</time>
      </trkpt>
      <trkpt lat="43.54794" lon="5.67245">
        <ele>546.42</ele>
        <time>2014-04-27T07:58:44Z</time>
      </trkpt>
      <trkpt lat="43.54816" lon="5.67248">
        <ele>544.21</ele>
        <time>2014-04-27T07:58:48Z</time>
      </trkpt>
      <trkpt lat="43.54838" lon="5.67247">
        <ele>543.44</ele>
        <time>2014-04-27T07:58:52Z</time>
      </trkpt>
      <trkpt lat="43.54857" lon="5.67248">
        <ele>542.7</ele>
        <time>2014-04-27T07:58:56Z</time>
      </trkpt>
      <trkpt lat="43.54881" lon="5.67248">
        <ele>541.29</ele>
        <time>2014-04-27T07:59:00Z</time>
      </trkpt>
      <trkpt lat="43.54903" lon="5.67252">
        <ele>540.62</ele>
        <time>2014-04-27T07:59:04Z</time>
      </trkpt>
      <trkpt lat="43.5492" lon="5.67261">
        <ele>540.01</ele>
        <time>2014-04-27T07:59:07Z</time>
      </trkpt>
      <trkpt lat="43.54941" lon="5.67253">
        <ele>539.04</ele>
        <time>2014-04-27T07:59:12Z</time>
      </trkpt>
      <trkpt lat="43.5496" lon="5.67242">
        <ele>539.26</ele>
        <time>2014-04-27T07:59:30Z</time>
      </trkpt>
      <trkpt lat="43.54978" lon="5.67249">
        <ele>539.6</ele>
        <time>2014-04-27T07:59:42Z</time>
      </trkpt>
      <trkpt lat="43.54997" lon="5.67255">
        <ele>537.61</ele>
        <time>2014-04-27T07:59:49Z</time>
      </trkpt>
      <trkpt lat="43.55017" lon="5.67262">
        <ele>534.16</ele>
        <time>2014-04-27T07:59:57Z</time>
      </trkpt>
      <trkpt lat="43.55037" lon="5.67266">
        <ele>531.81</ele>
        <time>2014-04-27T08:00:07Z</time>
      </trkpt>
      <trkpt lat="43.5504" lon="5.67241">
        <ele>529.12</ele>
        <time>2014-04-27T08:00:22Z</time>
      </trkpt>
      <trkpt lat="43.55052" lon="5.67262">
        <ele>532.06</ele>
        <time>2014-04-27T08:02:00Z</time>
      </trkpt>
      <trkpt lat="43.55062" lon="5.67283">
        <ele>531.78</ele>
        <time>2014-04-27T08:02:05Z</time>
      </trkpt>
      <trkpt lat="43.55073" lon="5.67308">
        <ele>531.04</ele>
        <time>2014-04-27T08:02:10Z</time>
      </trkpt>
      <trkpt lat="43.55085" lon="5.6733">
        <ele>529.85</ele>
        <time>2014-04-27T08:02:15Z</time>
      </trkpt>
      <trkpt lat="43.55094" lon="5.67355">
        <ele>528.89</ele>
        <time>2014-04-27T08:02:19Z</time>
      </trkpt>
      <trkpt lat="43.551" lon="5.67383">
        <ele>527.94</ele>
        <time>2014-04-27T08:02:23Z</time>
      </trkpt>
      <trkpt lat="43.55102" lon="5.6741">
        <ele>526.48</ele>
        <time>2014-04-27T08:02:29Z</time>
      </trkpt>
      <trkpt lat="43.5511" lon="5.67436">
        <ele>524.95</ele>
        <time>2014-04-27T08:02:35Z</time>
      </trkpt>
      <trkpt lat="43.55122" lon="5.67455">
        <ele>523.31</ele>
        <time>2014-04-27T08:02:43Z</time>
      </trkpt>
      <trkpt lat="43.55134" lon="5.67474">
        <ele>523.73</ele>
        <time>2014-04-27T08:02:52Z</time>
      </trkpt>
      <trkpt lat="43.55146" lon="5.67495">
        <ele>524.25</ele>
        <time>2014-04-27T08:03:00Z</time>
      </trkpt>
      <trkpt lat="43.55161" lon="5.67513">
        <ele>525.35</ele>
        <time>2014-04-27T08:03:08Z</time>
      </trkpt>
      <trkpt lat="43.55175" lon="5.67533">
        <ele>527.19</ele>
        <time>2014-04-27T08:03:18Z</time>
      </trkpt>
      <trkpt lat="43.55182" lon="5.67558">
        <ele>528.02</ele>
        <time>2014-04-27T08:03:27Z</time>
      </trkpt>
      <trkpt lat="43.55191" lon="5.67583">
        <ele>532.92</ele>
        <time>2014-04-27T08:03:36Z</time>
      </trkpt>
      <trkpt lat="43.55205" lon="5.676">
        <ele>535.92</ele>
        <time>2014-04-27T08:03:46Z</time>
      </trkpt>
      <trkpt lat="43.55218" lon="5.67619">
        <ele>537.74</ele>
        <time>2014-04-27T08:03:54Z</time>
      </trkpt>
      <trkpt lat="43.5523" lon="5.6764">
        <ele>538.99</ele>
        <time>2014-04-27T08:04:01Z</time>
      </trkpt>
      <trkpt lat="43.55242" lon="5.67662">
        <ele>540.24</ele>
        <time>2014-04-27T08:04:09Z</time>
      </trkpt>
      <trkpt lat="43.55255" lon="5.67682">
        <ele>540.33</ele>
        <time>2014-04-27T08:04:16Z</time>
      </trkpt>
      <trkpt lat="43.55274" lon="5.67695">
        <ele>539.63</ele>
        <time>2014-04-27T08:04:23Z</time>
      </trkpt>
      <trkpt lat="43.55292" lon="5.67701">
        <ele>539.21</ele>
        <time>2014-04-27T08:04:30Z</time>
      </trkpt>
      <trkpt lat="43.5531" lon="5.67704">
        <ele>539.22</ele>
        <time>2014-04-27T08:04:35Z</time>
      </trkpt>
      <trkpt lat="43.55331" lon="5.67703">
        <ele>539.25</ele>
        <time>2014-04-27T08:04:40Z</time>
      </trkpt>
      <trkpt lat="43.55353" lon="5.67702">
        <ele>539.37</ele>
        <time>2014-04-27T08:04:45Z</time>
      </trkpt>
      <trkpt lat="43.55372" lon="5.67706">
        <ele>538.68</ele>
        <time>2014-04-27T08:04:50Z</time>
      </trkpt>
      <trkpt lat="43.55392" lon="5.67712">
        <ele>536.96</ele>
        <time>2014-04-27T08:04:56Z</time>
      </trkpt>
      <trkpt lat="43.55411" lon="5.67712">
        <ele>535.85</ele>
        <time>2014-04-27T08:05:00Z</time>
      </trkpt>
      <trkpt lat="43.55431" lon="5.677">
        <ele>534.55</ele>
        <time>2014-04-27T08:05:05Z</time>
      </trkpt>
      <trkpt lat="43.55449" lon="5.67683">
        <ele>533.27</ele>
        <time>2014-04-27T08:05:10Z</time>
      </trkpt>
      <trkpt lat="43.55467" lon="5.67677">
        <ele>532.8</ele>
        <time>2014-04-27T08:05:14Z</time>
      </trkpt>
      <trkpt lat="43.55485" lon="5.6767">
        <ele>533.3</ele>
        <time>2014-04-27T08:05:19Z</time>
      </trkpt>
      <trkpt lat="43.55504" lon="5.67662">
        <ele>534.46</ele>
        <time>2014-04-27T08:05:25Z</time>
      </trkpt>
      <trkpt lat="43.55523" lon="5.67652">
        <ele>534.86</ele>
        <time>2014-04-27T08:05:31Z</time>
      </trkpt>
      <trkpt lat="43.55542" lon="5.67639">
        <ele>535.1</ele>
        <time>2014-04-27T08:05:37Z</time>
      </trkpt>
      <trkpt lat="43.5556" lon="5.67625">
        <ele>536.1</ele>
        <time>2014-04-27T08:05:43Z</time>
      </trkpt>
      <trkpt lat="43.55576" lon="5.67614">
        <ele>536.58</ele>
        <time>2014-04-27T08:05:49Z</time>
      </trkpt>
      <trkpt lat="43.55594" lon="5.676">
        <ele>537.14</ele>
        <time>2014-04-27T08:05:55Z</time>
      </trkpt>
      <trkpt lat="43.5561" lon="5.67588">
        <ele>537.77</ele>
        <time>2014-04-27T08:06:01Z</time>
      </trkpt>
      <trkpt lat="43.55628" lon="5.67576">
        <ele>538.7</ele>
        <time>2014-04-27T08:06:07Z</time>
      </trkpt>
      <trkpt lat="43.55647" lon="5.67569">
        <ele>539.53</ele>
        <time>2014-04-27T08:06:13Z</time>
      </trkpt>
      <trkpt lat="43.55666" lon="5.67562">
        <ele>538.63</ele>
        <time>2014-04-27T08:06:19Z</time>
      </trkpt>
      <trkpt lat="43.55684" lon="5.67553">
        <ele>539.44</ele>
        <time>2014-04-27T08:06:25Z</time>
      </trkpt>
      <trkpt lat="43.55701" lon="5.67544">
        <ele>539.15</ele>
        <time>2014-04-27T08:06:31Z</time>
      </trkpt>
      <trkpt lat="43.55718" lon="5.67534">
        <ele>539.14</ele>
        <time>2014-04-27T08:06:38Z</time>
      </trkpt>
      <trkpt lat="43.55733" lon="5.67517">
        <ele>539.79</ele>
        <time>2014-04-27T08:07:37Z</time>
      </trkpt>
      <trkpt lat="43.55751" lon="5.67506">
        <ele>539.22</ele>
        <time>2014-04-27T08:07:44Z</time>
      </trkpt>
      <trkpt lat="43.55769" lon="5.67495">
        <ele>537.27</ele>
        <time>2014-04-27T08:07:51Z</time>
      </trkpt>
      <trkpt lat="43.55786" lon="5.67485">
        <ele>535.57</ele>
        <time>2014-04-27T08:07:57Z</time>
      </trkpt>
      <trkpt lat="43.55804" lon="5.67474">
        <ele>534.07</ele>
        <time>2014-04-27T08:08:03Z</time>
      </trkpt>
      <trkpt lat="43.55824" lon="5.67462">
        <ele>532.63</ele>
        <time>2014-04-27T08:08:10Z</time>
      </trkpt>
      <trkpt lat="43.55842" lon="5.67451">
        <ele>531.9</ele>
        <time>2014-04-27T08:08:16Z</time>
      </trkpt>
      <trkpt lat="43.55858" lon="5.67441">
        <ele>531.56</ele>
        <time>2014-04-27T08:08:21Z</time>
      </trkpt>
      <trkpt lat="43.55872" lon="5.67418">
        <ele>531.23</ele>
        <time>2014-04-27T08:08:26Z</time>
      </trkpt>
      <trkpt lat="43.55881" lon="5.6739">
        <ele>531.11</ele>
        <time>2014-04-27T08:08:30Z</time>
      </trkpt>
      <trkpt lat="43.55891" lon="5.67368">
        <ele>530.4</ele>
        <time>2014-04-27T08:08:34Z</time>
      </trkpt>
      <trkpt lat="43.55907" lon="5.67356">
        <ele>529.4</ele>
        <time>2014-04-27T08:08:38Z</time>
      </trkpt>
      <trkpt lat="43.55927" lon="5.6734">
        <ele>527.81</ele>
        <time>2014-04-27T08:08:42Z</time>
      </trkpt>
      <trkpt lat="43.55944" lon="5.67322">
        <ele>526.36</ele>
        <time>2014-04-27T08:08:46Z</time>
      </trkpt>
      <trkpt lat="43.5596" lon="5.67308">
        <ele>525.84</ele>
        <time>2014-04-27T08:08:52Z</time>
      </trkpt>
      <trkpt lat="43.55977" lon="5.67293">
        <ele>525.83</ele>
        <time>2014-04-27T08:08:59Z</time>
      </trkpt>
      <trkpt lat="43.55992" lon="5.67276">
        <ele>526.57</ele>
        <time>2014-04-27T08:09:06Z</time>
      </trkpt>
      <trkpt lat="43.56004" lon="5.67257">
        <ele>526.85</ele>
        <time>2014-04-27T08:09:13Z</time>
      </trkpt>
      <trkpt lat="43.5601" lon="5.6723">
        <ele>526.94</ele>
        <time>2014-04-27T08:09:21Z</time>
      </trkpt>
      <trkpt lat="43.56015" lon="5.67206">
        <ele>526.99</ele>
        <time>2014-04-27T08:09:28Z</time>
      </trkpt>
      <trkpt lat="43.56017" lon="5.6718">
        <ele>527.1</ele>
        <time>2014-04-27T08:09:35Z</time>
      </trkpt>
      <trkpt lat="43.56017" lon="5.67155">
        <ele>527.3</ele>
        <time>2014-04-27T08:09:41Z</time>
      </trkpt>
      <trkpt lat="43.56017" lon="5.67127">
        <ele>527.55</ele>
        <time>2014-04-27T08:09:49Z</time>
      </trkpt>
      <trkpt lat="43.56021" lon="5.67103">
        <ele>527.68</ele>
        <time>2014-04-27T08:09:57Z</time>
      </trkpt>
      <trkpt lat="43.56024" lon="5.67076">
        <ele>527.55</ele>
        <time>2014-04-27T08:10:05Z</time>
      </trkpt>
      <trkpt lat="43.56022" lon="5.67045">
        <ele>527.99</ele>
        <time>2014-04-27T08:10:13Z</time>
      </trkpt>
      <trkpt lat="43.5603" lon="5.67023">
        <ele>528.73</ele>
        <time>2014-04-27T08:10:23Z</time>
      </trkpt>
      <trkpt lat="43.56043" lon="5.67041">
        <ele>529.98</ele>
        <time>2014-04-27T08:10:34Z</time>
      </trkpt>
      <trkpt lat="43.56042" lon="5.6707">
        <ele>530.89</ele>
        <time>2014-04-27T08:10:44Z</time>
      </trkpt>
      <trkpt lat="43.56049" lon="5.67094">
        <ele>531.12</ele>
        <time>2014-04-27T08:10:57Z</time>
      </trkpt>
      <trkpt lat="43.56056" lon="5.67118">
        <ele>538.46</ele>
        <time>2014-04-27T08:11:55Z</time>
      </trkpt>
      <trkpt lat="43.56065" lon="5.67142">
        <ele>539.21</ele>
        <time>2014-04-27T08:12:06Z</time>
      </trkpt>
      <trkpt lat="43.56074" lon="5.67166">
        <ele>540.01</ele>
        <time>2014-04-27T08:12:15Z</time>
      </trkpt>
      <trkpt lat="43.5609" lon="5.67177">
        <ele>541.76</ele>
        <time>2014-04-27T08:12:26Z</time>
      </trkpt>
      <trkpt lat="43.56101" lon="5.67157">
        <ele>543.99</ele>
        <time>2014-04-27T08:12:36Z</time>
      </trkpt>
      <trkpt lat="43.56106" lon="5.67131">
        <ele>545.77</ele>
        <time>2014-04-27T08:12:46Z</time>
      </trkpt>
      <trkpt lat="43.56112" lon="5.67106">
        <ele>547.58</ele>
        <time>2014-04-27T08:12:55Z</time>
      </trkpt>
      <trkpt lat="43.56127" lon="5.67088">
        <ele>550.32</ele>
        <time>2014-04-27T08:13:04Z</time>
      </trkpt>
      <trkpt lat="43.56141" lon="5.67068">
        <ele>553.08</ele>
        <time>2014-04-27T08:13:13Z</time>
      </trkpt>
      <trkpt lat="43.56153" lon="5.67048">
        <ele>554.4</ele>
        <time>2014-04-27T08:13:22Z</time>
      </trkpt>
      <trkpt lat="43.56165" lon="5.67029">
        <ele>554.87</ele>
        <time>2014-04-27T08:13:30Z</time>
      </trkpt>
      <trkpt lat="43.56152" lon="5.67048">
        <ele>553.98</ele>
        <time>2014-04-27T08:14:23Z</time>
      </trkpt>
      <trkpt lat="43.56135" lon="5.67033">
        <ele>554.15</ele>
        <time>2014-04-27T08:14:32Z</time>
      </trkpt>
      <trkpt lat="43.56118" lon="5.67019">
        <ele>554.54</ele>
        <time>2014-04-27T08:14:39Z</time>
      </trkpt>
      <trkpt lat="43.56107" lon="5.66996">
        <ele>555.35</ele>
        <time>2014-04-27T08:14:47Z</time>
      </trkpt>
      <trkpt lat="43.56106" lon="5.6697">
        <ele>555.47</ele>
        <time>2014-04-27T08:14:55Z</time>
      </trkpt>
      <trkpt lat="43.56106" lon="5.66945">
        <ele>555.25</ele>
        <time>2014-04-27T08:15:04Z</time>
      </trkpt>
      <trkpt lat="43.56106" lon="5.66917">
        <ele>555.96</ele>
        <time>2014-04-27T08:15:14Z</time>
      </trkpt>
      <trkpt lat="43.56106" lon="5.66891">
        <ele>556.2</ele>
        <time>2014-04-27T08:15:22Z</time>
      </trkpt>
      <trkpt lat="43.56106" lon="5.66865">
        <ele>557.12</ele>
        <time>2014-04-27T08:15:33Z</time>
      </trkpt>
      <trkpt lat="43.56105" lon="5.66838">
        <ele>559.49</ele>
        <time>2014-04-27T08:15:44Z</time>
      </trkpt>
      <trkpt lat="43.56099" lon="5.66813">
        <ele>561.4</ele>
        <time>2014-04-27T08:15:55Z</time>
      </trkpt>
      <trkpt lat="43.56093" lon="5.66789">
        <ele>563.35</ele>
        <time>2014-04-27T08:16:05Z</time>
      </trkpt>
      <trkpt lat="43.56091" lon="5.66764">
        <ele>565.28</ele>
        <time>2014-04-27T08:16:15Z</time>
      </trkpt>
      <trkpt lat="43.56084" lon="5.66739">
        <ele>567.77</ele>
        <time>2014-04-27T08:16:26Z</time>
      </trkpt>
      <trkpt lat="43.5608" lon="5.66715">
        <ele>569.56</ele>
        <time>2014-04-27T08:16:35Z</time>
      </trkpt>
      <trkpt lat="43.56075" lon="5.66689">
        <ele>571.75</ele>
        <time>2014-04-27T08:16:44Z</time>
      </trkpt>
      <trkpt lat="43.56074" lon="5.66664">
        <ele>573.74</ele>
        <time>2014-04-27T08:16:54Z</time>
      </trkpt>
      <trkpt lat="43.56076" lon="5.66638">
        <ele>576.7</ele>
        <time>2014-04-27T08:17:04Z</time>
      </trkpt>
      <trkpt lat="43.56077" lon="5.66613">
        <ele>579.61</ele>
        <time>2014-04-27T08:17:13Z</time>
      </trkpt>
      <trkpt lat="43.56079" lon="5.66586">
        <ele>582.69</ele>
        <time>2014-04-27T08:17:23Z</time>
      </trkpt>
      <trkpt lat="43.56081" lon="5.66559">
        <ele>584.94</ele>
        <time>2014-04-27T08:17:34Z</time>
      </trkpt>
      <trkpt lat="43.56086" lon="5.66532">
        <ele>586.88</ele>
        <time>2014-04-27T08:17:44Z</time>
      </trkpt>
      <trkpt lat="43.5609" lon="5.66506">
        <ele>589.29</ele>
        <time>2014-04-27T08:17:53Z</time>
      </trkpt>
      <trkpt lat="43.56095" lon="5.66481">
        <ele>591.18</ele>
        <time>2014-04-27T08:18:02Z</time>
      </trkpt>
      <trkpt lat="43.56103" lon="5.66457">
        <ele>592.84</ele>
        <time>2014-04-27T08:18:11Z</time>
      </trkpt>
      <trkpt lat="43.56112" lon="5.66433">
        <ele>594.03</ele>
        <time>2014-04-27T08:18:19Z</time>
      </trkpt>
      <trkpt lat="43.56115" lon="5.66405">
        <ele>594.83</ele>
        <time>2014-04-27T08:18:27Z</time>
      </trkpt>
      <trkpt lat="43.56118" lon="5.6638">
        <ele>594.79</ele>
        <time>2014-04-27T08:18:35Z</time>
      </trkpt>
      <trkpt lat="43.56122" lon="5.66355">
        <ele>594.76</ele>
        <time>2014-04-27T08:18:42Z</time>
      </trkpt>
      <trkpt lat="43.56126" lon="5.66327">
        <ele>593.14</ele>
        <time>2014-04-27T08:18:50Z</time>
      </trkpt>
      <trkpt lat="43.56127" lon="5.66301">
        <ele>592.06</ele>
        <time>2014-04-27T08:18:57Z</time>
      </trkpt>
      <trkpt lat="43.56127" lon="5.66275">
        <ele>591.53</ele>
        <time>2014-04-27T08:19:04Z</time>
      </trkpt>
      <trkpt lat="43.56129" lon="5.66247">
        <ele>591.56</ele>
        <time>2014-04-27T08:19:12Z</time>
      </trkpt>
      <trkpt lat="43.56133" lon="5.66219">
        <ele>591.8</ele>
        <time>2014-04-27T08:19:20Z</time>
      </trkpt>
      <trkpt lat="43.56136" lon="5.66191">
        <ele>592.37</ele>
        <time>2014-04-27T08:19:27Z</time>
      </trkpt>
      <trkpt lat="43.56138" lon="5.66165">
        <ele>593.18</ele>
        <time>2014-04-27T08:19:34Z</time>
      </trkpt>
      <trkpt lat="43.56139" lon="5.66137">
        <ele>594.77</ele>
        <time>2014-04-27T08:19:43Z</time>
      </trkpt>
      <trkpt lat="43.56139" lon="5.66111">
        <ele>594.98</ele>
        <time>2014-04-27T08:19:50Z</time>
      </trkpt>
      <trkpt lat="43.56141" lon="5.66084">
        <ele>595.23</ele>
        <time>2014-04-27T08:19:57Z</time>
      </trkpt>
      <trkpt lat="43.56146" lon="5.66057">
        <ele>595.94</ele>
        <time>2014-04-27T08:20:05Z</time>
      </trkpt>
      <trkpt lat="43.56148" lon="5.66031">
        <ele>595.35</ele>
        <time>2014-04-27T08:20:12Z</time>
      </trkpt>
      <trkpt lat="43.56149" lon="5.66005">
        <ele>595.38</ele>
        <time>2014-04-27T08:20:18Z</time>
      </trkpt>
      <trkpt lat="43.56149" lon="5.65978">
        <ele>595.08</ele>
        <time>2014-04-27T08:20:24Z</time>
      </trkpt>
      <trkpt lat="43.56149" lon="5.6595">
        <ele>595.03</ele>
        <time>2014-04-27T08:20:31Z</time>
      </trkpt>
      <trkpt lat="43.56145" lon="5.6592">
        <ele>593.81</ele>
        <time>2014-04-27T08:20:37Z</time>
      </trkpt>
      <trkpt lat="43.56147" lon="5.65892">
        <ele>593.18</ele>
        <time>2014-04-27T08:20:42Z</time>
      </trkpt>
      <trkpt lat="43.56151" lon="5.65864">
        <ele>593.13</ele>
        <time>2014-04-27T08:20:47Z</time>
      </trkpt>
      <trkpt lat="43.56153" lon="5.65839">
        <ele>592.58</ele>
        <time>2014-04-27T08:20:51Z</time>
      </trkpt>
      <trkpt lat="43.56154" lon="5.65811">
        <ele>591.96</ele>
        <time>2014-04-27T08:20:56Z</time>
      </trkpt>
      <trkpt lat="43.56152" lon="5.65785">
        <ele>591.48</ele>
        <time>2014-04-27T08:21:02Z</time>
      </trkpt>
      <trkpt lat="43.56151" lon="5.65759">
        <ele>591.06</ele>
        <time>2014-04-27T08:21:08Z</time>
      </trkpt>
      <trkpt lat="43.56153" lon="5.65732">
        <ele>591.13</ele>
        <time>2014-04-27T08:21:14Z</time>
      </trkpt>
      <trkpt lat="43.56158" lon="5.65706">
        <ele>591.11</ele>
        <time>2014-04-27T08:21:20Z</time>
      </trkpt>
      <trkpt lat="43.56164" lon="5.65679">
        <ele>591.75</ele>
        <time>2014-04-27T08:21:26Z</time>
      </trkpt>
      <trkpt lat="43.56167" lon="5.65653">
        <ele>592.58</ele>
        <time>2014-04-27T08:21:32Z</time>
      </trkpt>
      <trkpt lat="43.56168" lon="5.65626">
        <ele>593.19</ele>
        <time>2014-04-27T08:21:38Z</time>
      </trkpt>
      <trkpt lat="43.56167" lon="5.65596">
        <ele>593.86</ele>
        <time>2014-04-27T08:21:44Z</time>
      </trkpt>
      <trkpt lat="43.56167" lon="5.65567">
        <ele>594.81</ele>
        <time>2014-04-27T08:21:50Z</time>
      </trkpt>
      <trkpt lat="43.5617" lon="5.65538">
        <ele>595.58</ele>
        <time>2014-04-27T08:21:56Z</time>
      </trkpt>
      <trkpt lat="43.56173" lon="5.6551">
        <ele>597.15</ele>
        <time>2014-04-27T08:22:03Z</time>
      </trkpt>
      <trkpt lat="43.56177" lon="5.65486">
        <ele>599.01</ele>
        <time>2014-04-27T08:22:09Z</time>
      </trkpt>
      <trkpt lat="43.56178" lon="5.65459">
        <ele>599.73</ele>
        <time>2014-04-27T08:22:15Z</time>
      </trkpt>
      <trkpt lat="43.56177" lon="5.65434">
        <ele>599.29</ele>
        <time>2014-04-27T08:22:21Z</time>
      </trkpt>
      <trkpt lat="43.56178" lon="5.65409">
        <ele>598.94</ele>
        <time>2014-04-27T08:22:27Z</time>
      </trkpt>
      <trkpt lat="43.56183" lon="5.65384">
        <ele>599.69</ele>
        <time>2014-04-27T08:22:35Z</time>
      </trkpt>
      <trkpt lat="43.56185" lon="5.65357">
        <ele>597.93</ele>
        <time>2014-04-27T08:22:46Z</time>
      </trkpt>
      <trkpt lat="43.56189" lon="5.6533">
        <ele>597</ele>
        <time>2014-04-27T08:22:55Z</time>
      </trkpt>
      <trkpt lat="43.56191" lon="5.65303">
        <ele>595.49</ele>
        <time>2014-04-27T08:23:03Z</time>
      </trkpt>
      <trkpt lat="43.56186" lon="5.65274">
        <ele>594.04</ele>
        <time>2014-04-27T08:23:09Z</time>
      </trkpt>
      <trkpt lat="43.56185" lon="5.65247">
        <ele>593.21</ele>
        <time>2014-04-27T08:23:15Z</time>
      </trkpt>
      <trkpt lat="43.56185" lon="5.65221">
        <ele>592.18</ele>
        <time>2014-04-27T08:23:21Z</time>
      </trkpt>
      <trkpt lat="43.56183" lon="5.65193">
        <ele>591.59</ele>
        <time>2014-04-27T08:23:27Z</time>
      </trkpt>
      <trkpt lat="43.56177" lon="5.65167">
        <ele>591</ele>
        <time>2014-04-27T08:23:32Z</time>
      </trkpt>
      <trkpt lat="43.56168" lon="5.6514">
        <ele>590.68</ele>
        <time>2014-04-27T08:23:37Z</time>
      </trkpt>
      <trkpt lat="43.56158" lon="5.65112">
        <ele>590.27</ele>
        <time>2014-04-27T08:23:42Z</time>
      </trkpt>
      <trkpt lat="43.56151" lon="5.65084">
        <ele>589.94</ele>
        <time>2014-04-27T08:23:46Z</time>
      </trkpt>
      <trkpt lat="43.56145" lon="5.65058">
        <ele>589.57</ele>
        <time>2014-04-27T08:23:50Z</time>
      </trkpt>
      <trkpt lat="43.5614" lon="5.65034">
        <ele>589.23</ele>
        <time>2014-04-27T08:23:54Z</time>
      </trkpt>
      <trkpt lat="43.56135" lon="5.65006">
        <ele>589.05</ele>
        <time>2014-04-27T08:23:59Z</time>
      </trkpt>
      <trkpt lat="43.56132" lon="5.6498">
        <ele>588.43</ele>
        <time>2014-04-27T08:24:04Z</time>
      </trkpt>
      <trkpt lat="43.5613" lon="5.64951">
        <ele>588.85</ele>
        <time>2014-04-27T08:24:09Z</time>
      </trkpt>
      <trkpt lat="43.56131" lon="5.64925">
        <ele>588.64</ele>
        <time>2014-04-27T08:24:15Z</time>
      </trkpt>
      <trkpt lat="43.56129" lon="5.64895">
        <ele>587.41</ele>
        <time>2014-04-27T08:24:22Z</time>
      </trkpt>
      <trkpt lat="43.56119" lon="5.64873">
        <ele>586.32</ele>
        <time>2014-04-27T08:24:27Z</time>
      </trkpt>
      <trkpt lat="43.56112" lon="5.64843">
        <ele>585.27</ele>
        <time>2014-04-27T08:24:32Z</time>
      </trkpt>
      <trkpt lat="43.56113" lon="5.64818">
        <ele>584.88</ele>
        <time>2014-04-27T08:24:37Z</time>
      </trkpt>
      <trkpt lat="43.56121" lon="5.6479">
        <ele>585.08</ele>
        <time>2014-04-27T08:24:42Z</time>
      </trkpt>
      <trkpt lat="43.56135" lon="5.64764">
        <ele>585.24</ele>
        <time>2014-04-27T08:24:46Z</time>
      </trkpt>
      <trkpt lat="43.56146" lon="5.64742">
        <ele>585.86</ele>
        <time>2014-04-27T08:24:49Z</time>
      </trkpt>
      <trkpt lat="43.56165" lon="5.64729">
        <ele>585.72</ele>
        <time>2014-04-27T08:24:54Z</time>
      </trkpt>
      <trkpt lat="43.56184" lon="5.64728">
        <ele>584.96</ele>
        <time>2014-04-27T08:24:57Z</time>
      </trkpt>
      <trkpt lat="43.56204" lon="5.64722">
        <ele>583.36</ele>
        <time>2014-04-27T08:25:01Z</time>
      </trkpt>
      <trkpt lat="43.56224" lon="5.64714">
        <ele>580.83</ele>
        <time>2014-04-27T08:25:06Z</time>
      </trkpt>
      <trkpt lat="43.56245" lon="5.64715">
        <ele>581.34</ele>
        <time>2014-04-27T08:25:11Z</time>
      </trkpt>
      <trkpt lat="43.56266" lon="5.64722">
        <ele>584.31</ele>
        <time>2014-04-27T08:25:16Z</time>
      </trkpt>
      <trkpt lat="43.56281" lon="5.64739">
        <ele>585.87</ele>
        <time>2014-04-27T08:25:23Z</time>
      </trkpt>
      <trkpt lat="43.56292" lon="5.64759">
        <ele>587.74</ele>
        <time>2014-04-27T08:30:19Z</time>
      </trkpt>
      <trkpt lat="43.56303" lon="5.6478">
        <ele>587.63</ele>
        <time>2014-04-27T08:30:27Z</time>
      </trkpt>
      <trkpt lat="43.56313" lon="5.64803">
        <ele>586.97</ele>
        <time>2014-04-27T08:30:33Z</time>
      </trkpt>
      <trkpt lat="43.56325" lon="5.64823">
        <ele>585.8</ele>
        <time>2014-04-27T08:30:39Z</time>
      </trkpt>
      <trkpt lat="43.56346" lon="5.64828">
        <ele>584.69</ele>
        <time>2014-04-27T08:30:45Z</time>
      </trkpt>
      <trkpt lat="43.56365" lon="5.64836">
        <ele>583.8</ele>
        <time>2014-04-27T08:30:50Z</time>
      </trkpt>
      <trkpt lat="43.56388" lon="5.64836">
        <ele>584.39</ele>
        <time>2014-04-27T08:30:54Z</time>
      </trkpt>
      <trkpt lat="43.56404" lon="5.64826">
        <ele>585.75</ele>
        <time>2014-04-27T08:30:58Z</time>
      </trkpt>
      <trkpt lat="43.56417" lon="5.64807">
        <ele>586.79</ele>
        <time>2014-04-27T08:31:03Z</time>
      </trkpt>
      <trkpt lat="43.56433" lon="5.64789">
        <ele>587.57</ele>
        <time>2014-04-27T08:31:07Z</time>
      </trkpt>
      <trkpt lat="43.56446" lon="5.64772">
        <ele>588.12</ele>
        <time>2014-04-27T08:31:11Z</time>
      </trkpt>
      <trkpt lat="43.56462" lon="5.64756">
        <ele>588.61</ele>
        <time>2014-04-27T08:31:16Z</time>
      </trkpt>
      <trkpt lat="43.56477" lon="5.64737">
        <ele>589.52</ele>
        <time>2014-04-27T08:31:22Z</time>
      </trkpt>
      <trkpt lat="43.5649" lon="5.64715">
        <ele>591.53</ele>
        <time>2014-04-27T08:31:31Z</time>
      </trkpt>
      <trkpt lat="43.5649" lon="5.64688">
        <ele>594.75</ele>
        <time>2014-04-27T08:31:40Z</time>
      </trkpt>
      <trkpt lat="43.56482" lon="5.64665">
        <ele>596.17</ele>
        <time>2014-04-27T08:31:48Z</time>
      </trkpt>
      <trkpt lat="43.56475" lon="5.64641">
        <ele>597.54</ele>
        <time>2014-04-27T08:31:54Z</time>
      </trkpt>
      <trkpt lat="43.56473" lon="5.64616">
        <ele>598.1</ele>
        <time>2014-04-27T08:32:01Z</time>
      </trkpt>
      <trkpt lat="43.56469" lon="5.64588">
        <ele>598.17</ele>
        <time>2014-04-27T08:32:07Z</time>
      </trkpt>
      <trkpt lat="43.56462" lon="5.64562">
        <ele>598.2</ele>
        <time>2014-04-27T08:32:13Z</time>
      </trkpt>
      <trkpt lat="43.56452" lon="5.6454">
        <ele>597.7</ele>
        <time>2014-04-27T08:32:18Z</time>
      </trkpt>
      <trkpt lat="43.56447" lon="5.64515">
        <ele>597.74</ele>
        <time>2014-04-27T08:32:23Z</time>
      </trkpt>
      <trkpt lat="43.56444" lon="5.64488">
        <ele>596.84</ele>
        <time>2014-04-27T08:32:29Z</time>
      </trkpt>
      <trkpt lat="43.56451" lon="5.64463">
        <ele>595.44</ele>
        <time>2014-04-27T08:32:34Z</time>
      </trkpt>
      <trkpt lat="43.56457" lon="5.64437">
        <ele>594.28</ele>
        <time>2014-04-27T08:32:40Z</time>
      </trkpt>
      <trkpt lat="43.5646" lon="5.64412">
        <ele>594.9</ele>
        <time>2014-04-27T08:32:48Z</time>
      </trkpt>
      <trkpt lat="43.56474" lon="5.64397">
        <ele>597.54</ele>
        <time>2014-04-27T08:33:01Z</time>
      </trkpt>
      <trkpt lat="43.56492" lon="5.64404">
        <ele>599.06</ele>
        <time>2014-04-27T08:33:12Z</time>
      </trkpt>
      <trkpt lat="43.5651" lon="5.64411">
        <ele>600.46</ele>
        <time>2014-04-27T08:33:22Z</time>
      </trkpt>
      <trkpt lat="43.56528" lon="5.64419">
        <ele>602.41</ele>
        <time>2014-04-27T08:33:32Z</time>
      </trkpt>
      <trkpt lat="43.56548" lon="5.64426">
        <ele>603.73</ele>
        <time>2014-04-27T08:33:42Z</time>
      </trkpt>
      <trkpt lat="43.56566" lon="5.64432">
        <ele>604.05</ele>
        <time>2014-04-27T08:33:52Z</time>
      </trkpt>
      <trkpt lat="43.56585" lon="5.64442">
        <ele>602.98</ele>
        <time>2014-04-27T08:33:58Z</time>
      </trkpt>
      <trkpt lat="43.56604" lon="5.64449">
        <ele>601.73</ele>
        <time>2014-04-27T08:34:05Z</time>
      </trkpt>
      <trkpt lat="43.56622" lon="5.64457">
        <ele>600.07</ele>
        <time>2014-04-27T08:34:13Z</time>
      </trkpt>
      <trkpt lat="43.5664" lon="5.64463">
        <ele>599.05</ele>
        <time>2014-04-27T08:34:19Z</time>
      </trkpt>
      <trkpt lat="43.56661" lon="5.64472">
        <ele>597.53</ele>
        <time>2014-04-27T08:34:26Z</time>
      </trkpt>
      <trkpt lat="43.56682" lon="5.64479">
        <ele>596.15</ele>
        <time>2014-04-27T08:34:32Z</time>
      </trkpt>
      <trkpt lat="43.56701" lon="5.64482">
        <ele>595.96</ele>
        <time>2014-04-27T08:34:38Z</time>
      </trkpt>
      <trkpt lat="43.56719" lon="5.64491">
        <ele>596.58</ele>
        <time>2014-04-27T08:34:46Z</time>
      </trkpt>
      <trkpt lat="43.56737" lon="5.64499">
        <ele>599.1</ele>
        <time>2014-04-27T08:35:42Z</time>
      </trkpt>
      <trkpt lat="43.56755" lon="5.64507">
        <ele>599.6</ele>
        <time>2014-04-27T08:35:50Z</time>
      </trkpt>
      <trkpt lat="43.56773" lon="5.64516">
        <ele>599.18</ele>
        <time>2014-04-27T08:35:57Z</time>
      </trkpt>
      <trkpt lat="43.5679" lon="5.64525">
        <ele>598.71</ele>
        <time>2014-04-27T08:36:03Z</time>
      </trkpt>
      <trkpt lat="43.56808" lon="5.64534">
        <ele>598.28</ele>
        <time>2014-04-27T08:36:10Z</time>
      </trkpt>
      <trkpt lat="43.56826" lon="5.64536">
        <ele>598.43</ele>
        <time>2014-04-27T08:36:19Z</time>
      </trkpt>
      <trkpt lat="43.56847" lon="5.64539">
        <ele>598.44</ele>
        <time>2014-04-27T08:36:42Z</time>
      </trkpt>
      <trkpt lat="43.56866" lon="5.64534">
        <ele>597.94</ele>
        <time>2014-04-27T08:36:47Z</time>
      </trkpt>
      <trkpt lat="43.56885" lon="5.6452">
        <ele>597.48</ele>
        <time>2014-04-27T08:36:52Z</time>
      </trkpt>
      <trkpt lat="43.56897" lon="5.645">
        <ele>597.5</ele>
        <time>2014-04-27T08:36:56Z</time>
      </trkpt>
      <trkpt lat="43.56912" lon="5.64481">
        <ele>597.47</ele>
        <time>2014-04-27T08:37:00Z</time>
      </trkpt>
      <trkpt lat="43.56931" lon="5.64469">
        <ele>597.17</ele>
        <time>2014-04-27T08:37:05Z</time>
      </trkpt>
      <trkpt lat="43.56947" lon="5.64456">
        <ele>596.64</ele>
        <time>2014-04-27T08:37:10Z</time>
      </trkpt>
      <trkpt lat="43.56959" lon="5.64432">
        <ele>595.85</ele>
        <time>2014-04-27T08:37:15Z</time>
      </trkpt>
      <trkpt lat="43.56972" lon="5.64406">
        <ele>595.17</ele>
        <time>2014-04-27T08:37:20Z</time>
      </trkpt>
      <trkpt lat="43.56983" lon="5.64377">
        <ele>595.04</ele>
        <time>2014-04-27T08:37:24Z</time>
      </trkpt>
      <trkpt lat="43.56992" lon="5.64353">
        <ele>594.69</ele>
        <time>2014-04-27T08:37:27Z</time>
      </trkpt>
      <trkpt lat="43.56999" lon="5.64327">
        <ele>593.96</ele>
        <time>2014-04-27T08:37:30Z</time>
      </trkpt>
      <trkpt lat="43.57005" lon="5.64302">
        <ele>593.03</ele>
        <time>2014-04-27T08:37:33Z</time>
      </trkpt>
      <trkpt lat="43.57012" lon="5.64276">
        <ele>592.2</ele>
        <time>2014-04-27T08:37:36Z</time>
      </trkpt>
      <trkpt lat="43.57019" lon="5.64252">
        <ele>591.54</ele>
        <time>2014-04-27T08:37:39Z</time>
      </trkpt>
      <trkpt lat="43.57026" lon="5.64221">
        <ele>590.38</ele>
        <time>2014-04-27T08:37:43Z</time>
      </trkpt>
      <trkpt lat="43.57031" lon="5.64197">
        <ele>589.09</ele>
        <time>2014-04-27T08:37:46Z</time>
      </trkpt>
      <trkpt lat="43.57036" lon="5.64172">
        <ele>587.73</ele>
        <time>2014-04-27T08:37:49Z</time>
      </trkpt>
      <trkpt lat="43.57043" lon="5.64145">
        <ele>586.5</ele>
        <time>2014-04-27T08:37:52Z</time>
      </trkpt>
      <trkpt lat="43.57052" lon="5.64118">
        <ele>585.75</ele>
        <time>2014-04-27T08:37:55Z</time>
      </trkpt>
      <trkpt lat="43.57061" lon="5.64091">
        <ele>585.58</ele>
        <time>2014-04-27T08:37:58Z</time>
      </trkpt>
      <trkpt lat="43.57069" lon="5.64064">
        <ele>584.97</ele>
        <time>2014-04-27T08:38:01Z</time>
      </trkpt>
      <trkpt lat="43.57079" lon="5.64035">
        <ele>584.09</ele>
        <time>2014-04-27T08:38:04Z</time>
      </trkpt>
      <trkpt lat="43.57088" lon="5.64007">
        <ele>583.13</ele>
        <time>2014-04-27T08:38:07Z</time>
      </trkpt>
      <trkpt lat="43.57099" lon="5.63977">
        <ele>582.04</ele>
        <time>2014-04-27T08:38:10Z</time>
      </trkpt>
      <trkpt lat="43.57108" lon="5.63949">
        <ele>580.87</ele>
        <time>2014-04-27T08:38:13Z</time>
      </trkpt>
      <trkpt lat="43.57116" lon="5.63924">
        <ele>579.92</ele>
        <time>2014-04-27T08:38:16Z</time>
      </trkpt>
      <trkpt lat="43.57123" lon="5.63892">
        <ele>578.47</ele>
        <time>2014-04-27T08:38:20Z</time>
      </trkpt>
      <trkpt lat="43.57124" lon="5.6386">
        <ele>576.68</ele>
        <time>2014-04-27T08:38:24Z</time>
      </trkpt>
      <trkpt lat="43.5713" lon="5.63828">
        <ele>574.34</ele>
        <time>2014-04-27T08:38:28Z</time>
      </trkpt>
      <trkpt lat="43.57132" lon="5.63795">
        <ele>572.3</ele>
        <time>2014-04-27T08:38:32Z</time>
      </trkpt>
      <trkpt lat="43.57132" lon="5.63771">
        <ele>571.08</ele>
        <time>2014-04-27T08:38:35Z</time>
      </trkpt>
      <trkpt lat="43.57134" lon="5.6374">
        <ele>568.47</ele>
        <time>2014-04-27T08:38:39Z</time>
      </trkpt>
      <trkpt lat="43.57144" lon="5.63718">
        <ele>566.06</ele>
        <time>2014-04-27T08:38:43Z</time>
      </trkpt>
      <trkpt lat="43.5716" lon="5.63706">
        <ele>563.03</ele>
        <time>2014-04-27T08:38:49Z</time>
      </trkpt>
      <trkpt lat="43.57156" lon="5.63734">
        <ele>555.04</ele>
        <time>2014-04-27T08:39:45Z</time>
      </trkpt>
      <trkpt lat="43.57152" lon="5.63761">
        <ele>554.55</ele>
        <time>2014-04-27T08:39:51Z</time>
      </trkpt>
      <trkpt lat="43.57151" lon="5.6379">
        <ele>554.28</ele>
        <time>2014-04-27T08:39:57Z</time>
      </trkpt>
      <trkpt lat="43.57153" lon="5.63817">
        <ele>554.58</ele>
        <time>2014-04-27T08:40:03Z</time>
      </trkpt>
      <trkpt lat="43.57152" lon="5.63845">
        <ele>554.6</ele>
        <time>2014-04-27T08:40:09Z</time>
      </trkpt>
      <trkpt lat="43.57152" lon="5.6387">
        <ele>554.42</ele>
        <time>2014-04-27T08:40:14Z</time>
      </trkpt>
      <trkpt lat="43.57153" lon="5.63896">
        <ele>554.17</ele>
        <time>2014-04-27T08:40:19Z</time>
      </trkpt>
      <trkpt lat="43.57153" lon="5.63926">
        <ele>553.61</ele>
        <time>2014-04-27T08:40:24Z</time>
      </trkpt>
      <trkpt lat="43.57153" lon="5.6396">
        <ele>552.78</ele>
        <time>2014-04-27T08:40:28Z</time>
      </trkpt>
      <trkpt lat="43.57149" lon="5.6399">
        <ele>552.15</ele>
        <time>2014-04-27T08:40:31Z</time>
      </trkpt>
      <trkpt lat="43.57144" lon="5.64018">
        <ele>551.65</ele>
        <time>2014-04-27T08:40:34Z</time>
      </trkpt>
      <trkpt lat="43.57139" lon="5.6405">
        <ele>551.25</ele>
        <time>2014-04-27T08:40:37Z</time>
      </trkpt>
      <trkpt lat="43.57133" lon="5.64086">
        <ele>550.76</ele>
        <time>2014-04-27T08:40:40Z</time>
      </trkpt>
      <trkpt lat="43.5713" lon="5.64112">
        <ele>550.4</ele>
        <time>2014-04-27T08:40:42Z</time>
      </trkpt>
      <trkpt lat="43.57127" lon="5.64139">
        <ele>550.04</ele>
        <time>2014-04-27T08:40:44Z</time>
      </trkpt>
      <trkpt lat="43.57125" lon="5.64168">
        <ele>549.61</ele>
        <time>2014-04-27T08:40:46Z</time>
      </trkpt>
      <trkpt lat="43.57125" lon="5.64196">
        <ele>549.07</ele>
        <time>2014-04-27T08:40:48Z</time>
      </trkpt>
      <trkpt lat="43.57127" lon="5.64223">
        <ele>548.5</ele>
        <time>2014-04-27T08:40:50Z</time>
      </trkpt>
      <trkpt lat="43.5713" lon="5.64251">
        <ele>547.95</ele>
        <time>2014-04-27T08:40:52Z</time>
      </trkpt>
      <trkpt lat="43.57133" lon="5.64281">
        <ele>547.28</ele>
        <time>2014-04-27T08:40:54Z</time>
      </trkpt>
      <trkpt lat="43.57134" lon="5.6431">
        <ele>546.6</ele>
        <time>2014-04-27T08:40:56Z</time>
      </trkpt>
      <trkpt lat="43.57134" lon="5.6434">
        <ele>545.8</ele>
        <time>2014-04-27T08:40:58Z</time>
      </trkpt>
      <trkpt lat="43.57133" lon="5.6437">
        <ele>545.22</ele>
        <time>2014-04-27T08:41:00Z</time>
      </trkpt>
      <trkpt lat="43.57132" lon="5.64398">
        <ele>544.56</ele>
        <time>2014-04-27T08:41:02Z</time>
      </trkpt>
      <trkpt lat="43.5713" lon="5.64424">
        <ele>543.68</ele>
        <time>2014-04-27T08:41:04Z</time>
      </trkpt>
      <trkpt lat="43.57129" lon="5.64449">
        <ele>542.55</ele>
        <time>2014-04-27T08:41:06Z</time>
      </trkpt>
      <trkpt lat="43.57126" lon="5.64474">
        <ele>541.32</ele>
        <time>2014-04-27T08:41:08Z</time>
      </trkpt>
      <trkpt lat="43.57121" lon="5.64498">
        <ele>540.12</ele>
        <time>2014-04-27T08:41:10Z</time>
      </trkpt>
      <trkpt lat="43.57112" lon="5.64532">
        <ele>538.68</ele>
        <time>2014-04-27T08:41:13Z</time>
      </trkpt>
      <trkpt lat="43.57108" lon="5.6456">
        <ele>537.71</ele>
        <time>2014-04-27T08:41:15Z</time>
      </trkpt>
      <trkpt lat="43.57106" lon="5.6459">
        <ele>536.71</ele>
        <time>2014-04-27T08:41:17Z</time>
      </trkpt>
      <trkpt lat="43.57108" lon="5.64616">
        <ele>535.9</ele>
        <time>2014-04-27T08:41:19Z</time>
      </trkpt>
      <trkpt lat="43.57121" lon="5.64639">
        <ele>534.58</ele>
        <time>2014-04-27T08:41:22Z</time>
      </trkpt>
      <trkpt lat="43.57138" lon="5.64651">
        <ele>533.1</ele>
        <time>2014-04-27T08:41:26Z</time>
      </trkpt>
      <trkpt lat="43.57145" lon="5.64675">
        <ele>531.68</ele>
        <time>2014-04-27T08:41:30Z</time>
      </trkpt>
      <trkpt lat="43.57147" lon="5.64707">
        <ele>530.53</ele>
        <time>2014-04-27T08:41:34Z</time>
      </trkpt>
      <trkpt lat="43.57147" lon="5.64735">
        <ele>529.84</ele>
        <time>2014-04-27T08:41:37Z</time>
      </trkpt>
      <trkpt lat="43.57142" lon="5.64766">
        <ele>529.28</ele>
        <time>2014-04-27T08:41:40Z</time>
      </trkpt>
      <trkpt lat="43.57133" lon="5.64793">
        <ele>528.5</ele>
        <time>2014-04-27T08:41:43Z</time>
      </trkpt>
      <trkpt lat="43.57119" lon="5.64823">
        <ele>527.31</ele>
        <time>2014-04-27T08:41:46Z</time>
      </trkpt>
      <trkpt lat="43.57107" lon="5.64842">
        <ele>526.48</ele>
        <time>2014-04-27T08:41:48Z</time>
      </trkpt>
      <trkpt lat="43.57105" lon="5.64872">
        <ele>525.14</ele>
        <time>2014-04-27T08:41:51Z</time>
      </trkpt>
      <trkpt lat="43.57104" lon="5.649">
        <ele>524.19</ele>
        <time>2014-04-27T08:41:53Z</time>
      </trkpt>
      <trkpt lat="43.57106" lon="5.64928">
        <ele>523.12</ele>
        <time>2014-04-27T08:41:55Z</time>
      </trkpt>
      <trkpt lat="43.57108" lon="5.64959">
        <ele>521.84</ele>
        <time>2014-04-27T08:41:57Z</time>
      </trkpt>
      <trkpt lat="43.57112" lon="5.6499">
        <ele>520.58</ele>
        <time>2014-04-27T08:41:59Z</time>
      </trkpt>
      <trkpt lat="43.57114" lon="5.6502">
        <ele>519.35</ele>
        <time>2014-04-27T08:42:01Z</time>
      </trkpt>
      <trkpt lat="43.57114" lon="5.65048">
        <ele>518.15</ele>
        <time>2014-04-27T08:42:03Z</time>
      </trkpt>
      <trkpt lat="43.57111" lon="5.65076">
        <ele>516.97</ele>
        <time>2014-04-27T08:42:05Z</time>
      </trkpt>
      <trkpt lat="43.57108" lon="5.65106">
        <ele>515.87</ele>
        <time>2014-04-27T08:42:07Z</time>
      </trkpt>
      <trkpt lat="43.57109" lon="5.65137">
        <ele>514.82</ele>
        <time>2014-04-27T08:42:09Z</time>
      </trkpt>
      <trkpt lat="43.57108" lon="5.65171">
        <ele>513.57</ele>
        <time>2014-04-27T08:42:11Z</time>
      </trkpt>
      <trkpt lat="43.57109" lon="5.65203">
        <ele>512.32</ele>
        <time>2014-04-27T08:42:13Z</time>
      </trkpt>
      <trkpt lat="43.57111" lon="5.65236">
        <ele>510.8</ele>
        <time>2014-04-27T08:42:15Z</time>
      </trkpt>
      <trkpt lat="43.57112" lon="5.65268">
        <ele>509.24</ele>
        <time>2014-04-27T08:42:17Z</time>
      </trkpt>
      <trkpt lat="43.57114" lon="5.65301">
        <ele>507.6</ele>
        <time>2014-04-27T08:42:19Z</time>
      </trkpt>
      <trkpt lat="43.57114" lon="5.65333">
        <ele>506</ele>
        <time>2014-04-27T08:42:21Z</time>
      </trkpt>
      <trkpt lat="43.57113" lon="5.65364">
        <ele>504.51</ele>
        <time>2014-04-27T08:42:23Z</time>
      </trkpt>
      <trkpt lat="43.57113" lon="5.65395">
        <ele>503.09</ele>
        <time>2014-04-27T08:42:25Z</time>
      </trkpt>
      <trkpt lat="43.57113" lon="5.65427">
        <ele>501.7</ele>
        <time>2014-04-27T08:42:27Z</time>
      </trkpt>
      <trkpt lat="43.57113" lon="5.6546">
        <ele>500.52</ele>
        <time>2014-04-27T08:42:29Z</time>
      </trkpt>
      <trkpt lat="43.57112" lon="5.65493">
        <ele>499.56</ele>
        <time>2014-04-27T08:42:31Z</time>
      </trkpt>
      <trkpt lat="43.57111" lon="5.65526">
        <ele>498.27</ele>
        <time>2014-04-27T08:42:33Z</time>
      </trkpt>
      <trkpt lat="43.57111" lon="5.65558">
        <ele>496.86</ele>
        <time>2014-04-27T08:42:35Z</time>
      </trkpt>
      <trkpt lat="43.57111" lon="5.6559">
        <ele>495.61</ele>
        <time>2014-04-27T08:42:37Z</time>
      </trkpt>
      <trkpt lat="43.5711" lon="5.65622">
        <ele>494.56</ele>
        <time>2014-04-27T08:42:39Z</time>
      </trkpt>
      <trkpt lat="43.57109" lon="5.65651">
        <ele>493.74</ele>
        <time>2014-04-27T08:42:41Z</time>
      </trkpt>
      <trkpt lat="43.5711" lon="5.65678">
        <ele>492.99</ele>
        <time>2014-04-27T08:42:43Z</time>
      </trkpt>
      <trkpt lat="43.57111" lon="5.65704">
        <ele>492.19</ele>
        <time>2014-04-27T08:42:45Z</time>
      </trkpt>
      <trkpt lat="43.57112" lon="5.65729">
        <ele>491.41</ele>
        <time>2014-04-27T08:42:47Z</time>
      </trkpt>
      <trkpt lat="43.57113" lon="5.65754">
        <ele>490.58</ele>
        <time>2014-04-27T08:42:49Z</time>
      </trkpt>
      <trkpt lat="43.57113" lon="5.6578">
        <ele>489.76</ele>
        <time>2014-04-27T08:42:51Z</time>
      </trkpt>
      <trkpt lat="43.57115" lon="5.65806">
        <ele>488.95</ele>
        <time>2014-04-27T08:42:53Z</time>
      </trkpt>
      <trkpt lat="43.57115" lon="5.65833">
        <ele>488.09</ele>
        <time>2014-04-27T08:42:55Z</time>
      </trkpt>
      <trkpt lat="43.57113" lon="5.6586">
        <ele>487.4</ele>
        <time>2014-04-27T08:42:57Z</time>
      </trkpt>
      <trkpt lat="43.57108" lon="5.65885">
        <ele>486.73</ele>
        <time>2014-04-27T08:42:59Z</time>
      </trkpt>
      <trkpt lat="43.57101" lon="5.65908">
        <ele>485.89</ele>
        <time>2014-04-27T08:43:01Z</time>
      </trkpt>
      <trkpt lat="43.57091" lon="5.65939">
        <ele>484.12</ele>
        <time>2014-04-27T08:43:04Z</time>
      </trkpt>
      <trkpt lat="43.57084" lon="5.65966">
        <ele>482.03</ele>
        <time>2014-04-27T08:43:07Z</time>
      </trkpt>
      <trkpt lat="43.57077" lon="5.65991">
        <ele>480.23</ele>
        <time>2014-04-27T08:43:11Z</time>
      </trkpt>
      <trkpt lat="43.57072" lon="5.6602">
        <ele>479.14</ele>
        <time>2014-04-27T08:43:15Z</time>
      </trkpt>
      <trkpt lat="43.57064" lon="5.66049">
        <ele>478.28</ele>
        <time>2014-04-27T08:43:19Z</time>
      </trkpt>
      <trkpt lat="43.57054" lon="5.66077">
        <ele>477.39</ele>
        <time>2014-04-27T08:43:23Z</time>
      </trkpt>
      <trkpt lat="43.57039" lon="5.66101">
        <ele>476.39</ele>
        <time>2014-04-27T08:43:27Z</time>
      </trkpt>
      <trkpt lat="43.57021" lon="5.66116">
        <ele>475.88</ele>
        <time>2014-04-27T08:43:31Z</time>
      </trkpt>
      <trkpt lat="43.57003" lon="5.66133">
        <ele>475.75</ele>
        <time>2014-04-27T08:43:36Z</time>
      </trkpt>
      <trkpt lat="43.56986" lon="5.66151">
        <ele>475.27</ele>
        <time>2014-04-27T08:43:40Z</time>
      </trkpt>
      <trkpt lat="43.56969" lon="5.66166">
        <ele>474.77</ele>
        <time>2014-04-27T08:43:44Z</time>
      </trkpt>
      <trkpt lat="43.5695" lon="5.66183">
        <ele>474.33</ele>
        <time>2014-04-27T08:43:48Z</time>
      </trkpt>
      <trkpt lat="43.56933" lon="5.66199">
        <ele>474.98</ele>
        <time>2014-04-27T08:43:52Z</time>
      </trkpt>
      <trkpt lat="43.56914" lon="5.66216">
        <ele>475.3</ele>
        <time>2014-04-27T08:43:56Z</time>
      </trkpt>
      <trkpt lat="43.56902" lon="5.6624">
        <ele>475.11</ele>
        <time>2014-04-27T08:43:59Z</time>
      </trkpt>
      <trkpt lat="43.56897" lon="5.66268">
        <ele>475.33</ele>
        <time>2014-04-27T08:44:02Z</time>
      </trkpt>
      <trkpt lat="43.5689" lon="5.66296">
        <ele>475.73</ele>
        <time>2014-04-27T08:44:06Z</time>
      </trkpt>
      <trkpt lat="43.56879" lon="5.66317">
        <ele>475.51</ele>
        <time>2014-04-27T08:44:11Z</time>
      </trkpt>
      <trkpt lat="43.56867" lon="5.6634">
        <ele>474.99</ele>
        <time>2014-04-27T08:44:17Z</time>
      </trkpt>
      <trkpt lat="43.56857" lon="5.66365">
        <ele>474.35</ele>
        <time>2014-04-27T08:44:24Z</time>
      </trkpt>
      <trkpt lat="43.56847" lon="5.66388">
        <ele>474.48</ele>
        <time>2014-04-27T08:44:32Z</time>
      </trkpt>
      <trkpt lat="43.56835" lon="5.66412">
        <ele>474.65</ele>
        <time>2014-04-27T08:44:39Z</time>
      </trkpt>
      <trkpt lat="43.56823" lon="5.66434">
        <ele>474.24</ele>
        <time>2014-04-27T08:44:44Z</time>
      </trkpt>
      <trkpt lat="43.56811" lon="5.66455">
        <ele>474.47</ele>
        <time>2014-04-27T08:44:52Z</time>
      </trkpt>
      <trkpt lat="43.568" lon="5.66476">
        <ele>476.21</ele>
        <time>2014-04-27T08:45:04Z</time>
      </trkpt>
      <trkpt lat="43.56788" lon="5.66498">
        <ele>478.47</ele>
        <time>2014-04-27T08:45:15Z</time>
      </trkpt>
      <trkpt lat="43.56772" lon="5.66513">
        <ele>480.47</ele>
        <time>2014-04-27T08:45:23Z</time>
      </trkpt>
      <trkpt lat="43.56757" lon="5.66526">
        <ele>482.23</ele>
        <time>2014-04-27T08:45:32Z</time>
      </trkpt>
      <trkpt lat="43.56739" lon="5.66535">
        <ele>483.77</ele>
        <time>2014-04-27T08:45:43Z</time>
      </trkpt>
      <trkpt lat="43.56721" lon="5.66546">
        <ele>490.26</ele>
        <time>2014-04-27T08:46:01Z</time>
      </trkpt>
      <trkpt lat="43.56706" lon="5.66561">
        <ele>495</ele>
        <time>2014-04-27T08:46:13Z</time>
      </trkpt>
      <trkpt lat="43.56687" lon="5.6657">
        <ele>502.11</ele>
        <time>2014-04-27T08:48:11Z</time>
      </trkpt>
      <trkpt lat="43.56673" lon="5.66591">
        <ele>502.5</ele>
        <time>2014-04-27T08:48:15Z</time>
      </trkpt>
      <trkpt lat="43.5666" lon="5.66609">
        <ele>502.47</ele>
        <time>2014-04-27T08:48:17Z</time>
      </trkpt>
      <trkpt lat="43.56645" lon="5.66625">
        <ele>502.32</ele>
        <time>2014-04-27T08:48:19Z</time>
      </trkpt>
      <trkpt lat="43.56625" lon="5.66642">
        <ele>501.85</ele>
        <time>2014-04-27T08:48:22Z</time>
      </trkpt>
      <trkpt lat="43.56606" lon="5.66658">
        <ele>501.34</ele>
        <time>2014-04-27T08:48:25Z</time>
      </trkpt>
      <trkpt lat="43.56589" lon="5.66672">
        <ele>500.98</ele>
        <time>2014-04-27T08:48:28Z</time>
      </trkpt>
      <trkpt lat="43.56572" lon="5.6669">
        <ele>499.69</ele>
        <time>2014-04-27T08:48:33Z</time>
      </trkpt>
      <trkpt lat="43.56557" lon="5.66706">
        <ele>496.76</ele>
        <time>2014-04-27T08:48:40Z</time>
      </trkpt>
      <trkpt lat="43.56546" lon="5.66727">
        <ele>494.39</ele>
        <time>2014-04-27T08:48:47Z</time>
      </trkpt>
      <trkpt lat="43.56547" lon="5.66754">
        <ele>491.82</ele>
        <time>2014-04-27T08:48:57Z</time>
      </trkpt>
      <trkpt lat="43.56546" lon="5.66781">
        <ele>489.86</ele>
        <time>2014-04-27T08:49:06Z</time>
      </trkpt>
      <trkpt lat="43.56548" lon="5.66809">
        <ele>488.73</ele>
        <time>2014-04-27T08:49:13Z</time>
      </trkpt>
      <trkpt lat="43.56543" lon="5.66835">
        <ele>487.62</ele>
        <time>2014-04-27T08:49:19Z</time>
      </trkpt>
      <trkpt lat="43.56539" lon="5.6686">
        <ele>487.16</ele>
        <time>2014-04-27T08:49:25Z</time>
      </trkpt>
      <trkpt lat="43.56538" lon="5.66887">
        <ele>487.01</ele>
        <time>2014-04-27T08:49:33Z</time>
      </trkpt>
      <trkpt lat="43.56541" lon="5.66913">
        <ele>487.26</ele>
        <time>2014-04-27T08:49:41Z</time>
      </trkpt>
      <trkpt lat="43.56547" lon="5.66938">
        <ele>486.67</ele>
        <time>2014-04-27T08:49:49Z</time>
      </trkpt>
      <trkpt lat="43.56548" lon="5.66964">
        <ele>485.55</ele>
        <time>2014-04-27T08:49:55Z</time>
      </trkpt>
      <trkpt lat="43.56554" lon="5.66989">
        <ele>484.42</ele>
        <time>2014-04-27T08:50:01Z</time>
      </trkpt>
      <trkpt lat="43.56558" lon="5.67015">
        <ele>483.08</ele>
        <time>2014-04-27T08:50:07Z</time>
      </trkpt>
      <trkpt lat="43.56563" lon="5.67042">
        <ele>480.63</ele>
        <time>2014-04-27T08:50:13Z</time>
      </trkpt>
      <trkpt lat="43.56574" lon="5.67068">
        <ele>482.32</ele>
        <time>2014-04-27T08:50:18Z</time>
      </trkpt>
      <trkpt lat="43.56585" lon="5.67088">
        <ele>487.82</ele>
        <time>2014-04-27T08:50:23Z</time>
      </trkpt>
      <trkpt lat="43.56591" lon="5.67113">
        <ele>493.01</ele>
        <time>2014-04-27T08:50:32Z</time>
      </trkpt>
      <trkpt lat="43.56595" lon="5.67139">
        <ele>496.05</ele>
        <time>2014-04-27T08:50:43Z</time>
      </trkpt>
      <trkpt lat="43.56601" lon="5.67165">
        <ele>500.41</ele>
        <time>2014-04-27T08:50:52Z</time>
      </trkpt>
      <trkpt lat="43.56607" lon="5.67191">
        <ele>504.17</ele>
        <time>2014-04-27T08:51:04Z</time>
      </trkpt>
      <trkpt lat="43.56612" lon="5.67217">
        <ele>507.54</ele>
        <time>2014-04-27T08:51:12Z</time>
      </trkpt>
      <trkpt lat="43.5662" lon="5.67241">
        <ele>513.27</ele>
        <time>2014-04-27T08:51:24Z</time>
      </trkpt>
      <trkpt lat="43.56627" lon="5.67265">
        <ele>518.68</ele>
        <time>2014-04-27T08:51:37Z</time>
      </trkpt>
      <trkpt lat="43.56638" lon="5.67287">
        <ele>522.53</ele>
        <time>2014-04-27T08:51:50Z</time>
      </trkpt>
      <trkpt lat="43.56632" lon="5.67311">
        <ele>527.12</ele>
        <time>2014-04-27T08:52:04Z</time>
      </trkpt>
      <trkpt lat="43.56614" lon="5.67306">
        <ele>531.26</ele>
        <time>2014-04-27T08:52:16Z</time>
      </trkpt>
      <trkpt lat="43.56597" lon="5.67294">
        <ele>535.95</ele>
        <time>2014-04-27T08:52:31Z</time>
      </trkpt>
      <trkpt lat="43.56584" lon="5.67275">
        <ele>539.37</ele>
        <time>2014-04-27T08:52:43Z</time>
      </trkpt>
      <trkpt lat="43.56568" lon="5.6726">
        <ele>542.16</ele>
        <time>2014-04-27T08:52:56Z</time>
      </trkpt>
      <trkpt lat="43.56554" lon="5.67242">
        <ele>544.01</ele>
        <time>2014-04-27T08:53:07Z</time>
      </trkpt>
      <trkpt lat="43.56542" lon="5.67222">
        <ele>546.06</ele>
        <time>2014-04-27T08:53:19Z</time>
      </trkpt>
      <trkpt lat="43.56528" lon="5.67204">
        <ele>548.08</ele>
        <time>2014-04-27T08:53:30Z</time>
      </trkpt>
      <trkpt lat="43.56515" lon="5.67184">
        <ele>549.43</ele>
        <time>2014-04-27T08:53:41Z</time>
      </trkpt>
      <trkpt lat="43.56505" lon="5.67161">
        <ele>551.66</ele>
        <time>2014-04-27T08:53:53Z</time>
      </trkpt>
      <trkpt lat="43.56493" lon="5.6714">
        <ele>553.71</ele>
        <time>2014-04-27T08:54:03Z</time>
      </trkpt>
      <trkpt lat="43.56483" lon="5.67119">
        <ele>555.58</ele>
        <time>2014-04-27T08:54:14Z</time>
      </trkpt>
      <trkpt lat="43.56471" lon="5.67097">
        <ele>556.62</ele>
        <time>2014-04-27T08:54:23Z</time>
      </trkpt>
      <trkpt lat="43.56461" lon="5.67076">
        <ele>556.91</ele>
        <time>2014-04-27T08:54:31Z</time>
      </trkpt>
      <trkpt lat="43.56449" lon="5.67053">
        <ele>557.64</ele>
        <time>2014-04-27T08:54:41Z</time>
      </trkpt>
      <trkpt lat="43.56433" lon="5.67038">
        <ele>559.09</ele>
        <time>2014-04-27T08:54:52Z</time>
      </trkpt>
      <trkpt lat="43.56414" lon="5.67041">
        <ele>560.36</ele>
        <time>2014-04-27T08:55:02Z</time>
      </trkpt>
      <trkpt lat="43.56395" lon="5.67046">
        <ele>561.34</ele>
        <time>2014-04-27T08:55:13Z</time>
      </trkpt>
      <trkpt lat="43.56376" lon="5.6705">
        <ele>561.53</ele>
        <time>2014-04-27T08:55:23Z</time>
      </trkpt>
      <trkpt lat="43.56356" lon="5.67052">
        <ele>561.31</ele>
        <time>2014-04-27T08:55:30Z</time>
      </trkpt>
      <trkpt lat="43.56338" lon="5.67055">
        <ele>561</ele>
        <time>2014-04-27T08:55:34Z</time>
      </trkpt>
      <trkpt lat="43.56316" lon="5.67053">
        <ele>561.4</ele>
        <time>2014-04-27T08:55:39Z</time>
      </trkpt>
      <trkpt lat="43.56297" lon="5.67038">
        <ele>561.74</ele>
        <time>2014-04-27T08:55:44Z</time>
      </trkpt>
      <trkpt lat="43.56283" lon="5.6702">
        <ele>562.02</ele>
        <time>2014-04-27T08:55:48Z</time>
      </trkpt>
      <trkpt lat="43.56268" lon="5.67003">
        <ele>562.11</ele>
        <time>2014-04-27T08:55:52Z</time>
      </trkpt>
      <trkpt lat="43.56259" lon="5.66979">
        <ele>561.88</ele>
        <time>2014-04-27T08:55:57Z</time>
      </trkpt>
      <trkpt lat="43.56246" lon="5.66959">
        <ele>560.64</ele>
        <time>2014-04-27T08:56:02Z</time>
      </trkpt>
      <trkpt lat="43.56229" lon="5.6695">
        <ele>558.04</ele>
        <time>2014-04-27T08:56:08Z</time>
      </trkpt>
      <trkpt lat="43.56209" lon="5.66946">
        <ele>555.4</ele>
        <time>2014-04-27T08:56:14Z</time>
      </trkpt>
      <trkpt lat="43.56198" lon="5.66968">
        <ele>551.21</ele>
        <time>2014-04-27T08:58:23Z</time>
      </trkpt>
      <trkpt lat="43.56187" lon="5.6699">
        <ele>550.38</ele>
        <time>2014-04-27T08:58:31Z</time>
      </trkpt>
      <trkpt lat="43.56176" lon="5.6701">
        <ele>549.22</ele>
        <time>2014-04-27T08:58:38Z</time>
      </trkpt>
      <trkpt lat="43.56165" lon="5.6703">
        <ele>548.46</ele>
        <time>2014-04-27T08:58:44Z</time>
      </trkpt>
      <trkpt lat="43.56151" lon="5.67053">
        <ele>548.32</ele>
        <time>2014-04-27T08:58:50Z</time>
      </trkpt>
      <trkpt lat="43.56141" lon="5.67074">
        <ele>547.69</ele>
        <time>2014-04-27T08:58:55Z</time>
      </trkpt>
      <trkpt lat="43.56125" lon="5.67093">
        <ele>547.15</ele>
        <time>2014-04-27T08:59:00Z</time>
      </trkpt>
      <trkpt lat="43.56114" lon="5.67114">
        <ele>546.62</ele>
        <time>2014-04-27T08:59:04Z</time>
      </trkpt>
      <trkpt lat="43.56109" lon="5.67143">
        <ele>546.16</ele>
        <time>2014-04-27T08:59:08Z</time>
      </trkpt>
      <trkpt lat="43.56103" lon="5.67168">
        <ele>545.82</ele>
        <time>2014-04-27T08:59:11Z</time>
      </trkpt>
      <trkpt lat="43.56091" lon="5.67194">
        <ele>545.44</ele>
        <time>2014-04-27T08:59:14Z</time>
      </trkpt>
      <trkpt lat="43.56078" lon="5.67221">
        <ele>544.95</ele>
        <time>2014-04-27T08:59:17Z</time>
      </trkpt>
      <trkpt lat="43.5607" lon="5.67255">
        <ele>544.26</ele>
        <time>2014-04-27T08:59:20Z</time>
      </trkpt>
      <trkpt lat="43.56064" lon="5.67291">
        <ele>543.58</ele>
        <time>2014-04-27T08:59:23Z</time>
      </trkpt>
      <trkpt lat="43.56062" lon="5.67316">
        <ele>542.75</ele>
        <time>2014-04-27T08:59:25Z</time>
      </trkpt>
      <trkpt lat="43.56062" lon="5.67347">
        <ele>541.08</ele>
        <time>2014-04-27T08:59:28Z</time>
      </trkpt>
      <trkpt lat="43.56048" lon="5.67362">
        <ele>538.21</ele>
        <time>2014-04-27T08:59:34Z</time>
      </trkpt>
      <trkpt lat="43.56033" lon="5.67337">
        <ele>535.57</ele>
        <time>2014-04-27T08:59:39Z</time>
      </trkpt>
      <trkpt lat="43.56021" lon="5.67317">
        <ele>534.58</ele>
        <time>2014-04-27T08:59:42Z</time>
      </trkpt>
      <trkpt lat="43.5601" lon="5.67296">
        <ele>533.74</ele>
        <time>2014-04-27T08:59:45Z</time>
      </trkpt>
      <trkpt lat="43.55991" lon="5.6729">
        <ele>532.94</ele>
        <time>2014-04-27T08:59:49Z</time>
      </trkpt>
      <trkpt lat="43.55973" lon="5.67304">
        <ele>531.77</ele>
        <time>2014-04-27T08:59:53Z</time>
      </trkpt>
      <trkpt lat="43.55956" lon="5.67319">
        <ele>530.61</ele>
        <time>2014-04-27T08:59:57Z</time>
      </trkpt>
      <trkpt lat="43.5594" lon="5.67337">
        <ele>529.52</ele>
        <time>2014-04-27T09:00:01Z</time>
      </trkpt>
      <trkpt lat="43.55925" lon="5.67353">
        <ele>529.01</ele>
        <time>2014-04-27T09:00:05Z</time>
      </trkpt>
      <trkpt lat="43.55906" lon="5.67361">
        <ele>528.93</ele>
        <time>2014-04-27T09:00:10Z</time>
      </trkpt>
      <trkpt lat="43.55894" lon="5.67381">
        <ele>529.14</ele>
        <time>2014-04-27T09:00:15Z</time>
      </trkpt>
      <trkpt lat="43.55888" lon="5.67405">
        <ele>528.88</ele>
        <time>2014-04-27T09:00:20Z</time>
      </trkpt>
      <trkpt lat="43.5588" lon="5.67428">
        <ele>529.21</ele>
        <time>2014-04-27T09:00:27Z</time>
      </trkpt>
      <trkpt lat="43.55864" lon="5.67441">
        <ele>530.97</ele>
        <time>2014-04-27T09:00:35Z</time>
      </trkpt>
      <trkpt lat="43.55845" lon="5.67452">
        <ele>532.87</ele>
        <time>2014-04-27T09:00:42Z</time>
      </trkpt>
      <trkpt lat="43.55827" lon="5.67462">
        <ele>534.61</ele>
        <time>2014-04-27T09:00:48Z</time>
      </trkpt>
      <trkpt lat="43.5581" lon="5.67472">
        <ele>537.04</ele>
        <time>2014-04-27T09:00:54Z</time>
      </trkpt>
      <trkpt lat="43.5579" lon="5.67483">
        <ele>538.05</ele>
        <time>2014-04-27T09:01:01Z</time>
      </trkpt>
      <trkpt lat="43.55774" lon="5.67495">
        <ele>538.2</ele>
        <time>2014-04-27T09:01:08Z</time>
      </trkpt>
      <trkpt lat="43.55782" lon="5.6752">
        <ele>540.03</ele>
        <time>2014-04-27T09:02:19Z</time>
      </trkpt>
      <trkpt lat="43.55794" lon="5.67542">
        <ele>539.65</ele>
        <time>2014-04-27T09:02:25Z</time>
      </trkpt>
      <trkpt lat="43.55808" lon="5.67567">
        <ele>538.82</ele>
        <time>2014-04-27T09:02:30Z</time>
      </trkpt>
      <trkpt lat="43.55818" lon="5.67589">
        <ele>538.03</ele>
        <time>2014-04-27T09:02:34Z</time>
      </trkpt>
      <trkpt lat="43.5583" lon="5.67612">
        <ele>536.92</ele>
        <time>2014-04-27T09:02:39Z</time>
      </trkpt>
      <trkpt lat="43.55847" lon="5.67632">
        <ele>535.57</ele>
        <time>2014-04-27T09:02:43Z</time>
      </trkpt>
      <trkpt lat="43.55864" lon="5.67649">
        <ele>534.34</ele>
        <time>2014-04-27T09:02:46Z</time>
      </trkpt>
      <trkpt lat="43.55881" lon="5.67666">
        <ele>532.86</ele>
        <time>2014-04-27T09:02:49Z</time>
      </trkpt>
      <trkpt lat="43.55896" lon="5.67688">
        <ele>531.11</ele>
        <time>2014-04-27T09:02:53Z</time>
      </trkpt>
      <trkpt lat="43.55911" lon="5.6771">
        <ele>529.92</ele>
        <time>2014-04-27T09:02:57Z</time>
      </trkpt>
      <trkpt lat="43.55927" lon="5.67731">
        <ele>528.74</ele>
        <time>2014-04-27T09:03:01Z</time>
      </trkpt>
      <trkpt lat="43.55937" lon="5.67757">
        <ele>527.45</ele>
        <time>2014-04-27T09:03:05Z</time>
      </trkpt>
      <trkpt lat="43.55945" lon="5.67784">
        <ele>526.29</ele>
        <time>2014-04-27T09:03:09Z</time>
      </trkpt>
      <trkpt lat="43.55954" lon="5.67812">
        <ele>525.59</ele>
        <time>2014-04-27T09:03:13Z</time>
      </trkpt>
      <trkpt lat="43.55958" lon="5.6784">
        <ele>524.15</ele>
        <time>2014-04-27T09:03:17Z</time>
      </trkpt>
      <trkpt lat="43.55959" lon="5.6787">
        <ele>522.16</ele>
        <time>2014-04-27T09:03:21Z</time>
      </trkpt>
      <trkpt lat="43.55955" lon="5.67899">
        <ele>520.37</ele>
        <time>2014-04-27T09:03:25Z</time>
      </trkpt>
      <trkpt lat="43.55944" lon="5.67919">
        <ele>519.51</ele>
        <time>2014-04-27T09:03:28Z</time>
      </trkpt>
      <trkpt lat="43.55935" lon="5.67941">
        <ele>519.01</ele>
        <time>2014-04-27T09:03:31Z</time>
      </trkpt>
      <trkpt lat="43.55931" lon="5.67969">
        <ele>517.85</ele>
        <time>2014-04-27T09:03:35Z</time>
      </trkpt>
      <trkpt lat="43.55925" lon="5.67999">
        <ele>516.23</ele>
        <time>2014-04-27T09:03:39Z</time>
      </trkpt>
      <trkpt lat="43.55916" lon="5.68027">
        <ele>513.95</ele>
        <time>2014-04-27T09:03:43Z</time>
      </trkpt>
      <trkpt lat="43.55896" lon="5.68044">
        <ele>511.04</ele>
        <time>2014-04-27T09:03:47Z</time>
      </trkpt>
      <trkpt lat="43.55887" lon="5.68065">
        <ele>509.32</ele>
        <time>2014-04-27T09:03:51Z</time>
      </trkpt>
      <trkpt lat="43.55886" lon="5.68095">
        <ele>507.59</ele>
        <time>2014-04-27T09:03:55Z</time>
      </trkpt>
      <trkpt lat="43.55892" lon="5.68124">
        <ele>505.44</ele>
        <time>2014-04-27T09:03:59Z</time>
      </trkpt>
      <trkpt lat="43.55904" lon="5.68147">
        <ele>503.43</ele>
        <time>2014-04-27T09:04:03Z</time>
      </trkpt>
      <trkpt lat="43.5592" lon="5.68163">
        <ele>501.92</ele>
        <time>2014-04-27T09:04:07Z</time>
      </trkpt>
      <trkpt lat="43.5594" lon="5.68164">
        <ele>501</ele>
        <time>2014-04-27T09:04:12Z</time>
      </trkpt>
      <trkpt lat="43.5596" lon="5.6817">
        <ele>500.51</ele>
        <time>2014-04-27T09:04:18Z</time>
      </trkpt>
      <trkpt lat="43.55979" lon="5.68183">
        <ele>502.3</ele>
        <time>2014-04-27T09:04:24Z</time>
      </trkpt>
      <trkpt lat="43.55994" lon="5.682">
        <ele>506.88</ele>
        <time>2014-04-27T09:04:29Z</time>
      </trkpt>
      <trkpt lat="43.56002" lon="5.68226">
        <ele>510.69</ele>
        <time>2014-04-27T09:04:34Z</time>
      </trkpt>
      <trkpt lat="43.55999" lon="5.68254">
        <ele>512.47</ele>
        <time>2014-04-27T09:04:40Z</time>
      </trkpt>
      <trkpt lat="43.55993" lon="5.68283">
        <ele>511.96</ele>
        <time>2014-04-27T09:04:45Z</time>
      </trkpt>
      <trkpt lat="43.55986" lon="5.68307">
        <ele>512.15</ele>
        <time>2014-04-27T09:04:48Z</time>
      </trkpt>
      <trkpt lat="43.55973" lon="5.6833">
        <ele>512.63</ele>
        <time>2014-04-27T09:04:51Z</time>
      </trkpt>
      <trkpt lat="43.55957" lon="5.68347">
        <ele>513.32</ele>
        <time>2014-04-27T09:04:54Z</time>
      </trkpt>
      <trkpt lat="43.55942" lon="5.68364">
        <ele>513.57</ele>
        <time>2014-04-27T09:04:57Z</time>
      </trkpt>
      <trkpt lat="43.5593" lon="5.68388">
        <ele>513.23</ele>
        <time>2014-04-27T09:05:01Z</time>
      </trkpt>
      <trkpt lat="43.5591" lon="5.68402">
        <ele>512.82</ele>
        <time>2014-04-27T09:05:05Z</time>
      </trkpt>
      <trkpt lat="43.55896" lon="5.68421">
        <ele>512.29</ele>
        <time>2014-04-27T09:05:08Z</time>
      </trkpt>
      <trkpt lat="43.55885" lon="5.68448">
        <ele>511.87</ele>
        <time>2014-04-27T09:05:11Z</time>
      </trkpt>
      <trkpt lat="43.55878" lon="5.68478">
        <ele>511.27</ele>
        <time>2014-04-27T09:05:14Z</time>
      </trkpt>
      <trkpt lat="43.55879" lon="5.68506">
        <ele>510.17</ele>
        <time>2014-04-27T09:05:17Z</time>
      </trkpt>
      <trkpt lat="43.55888" lon="5.68534">
        <ele>509.01</ele>
        <time>2014-04-27T09:05:20Z</time>
      </trkpt>
      <trkpt lat="43.559" lon="5.68557">
        <ele>507.98</ele>
        <time>2014-04-27T09:05:23Z</time>
      </trkpt>
      <trkpt lat="43.55909" lon="5.6858">
        <ele>506.89</ele>
        <time>2014-04-27T09:05:27Z</time>
      </trkpt>
      <trkpt lat="43.55923" lon="5.68601">
        <ele>506.19</ele>
        <time>2014-04-27T09:05:33Z</time>
      </trkpt>
      <trkpt lat="43.55938" lon="5.68614">
        <ele>505.17</ele>
        <time>2014-04-27T09:07:21Z</time>
      </trkpt>
      <trkpt lat="43.55956" lon="5.68627">
        <ele>504.64</ele>
        <time>2014-04-27T09:07:27Z</time>
      </trkpt>
      <trkpt lat="43.55971" lon="5.68641">
        <ele>503.96</ele>
        <time>2014-04-27T09:07:31Z</time>
      </trkpt>
      <trkpt lat="43.55983" lon="5.68664">
        <ele>503.29</ele>
        <time>2014-04-27T09:07:34Z</time>
      </trkpt>
      <trkpt lat="43.55997" lon="5.68682">
        <ele>502.39</ele>
        <time>2014-04-27T09:07:38Z</time>
      </trkpt>
      <trkpt lat="43.56007" lon="5.68703">
        <ele>501.21</ele>
        <time>2014-04-27T09:07:42Z</time>
      </trkpt>
      <trkpt lat="43.56019" lon="5.68728">
        <ele>499.6</ele>
        <time>2014-04-27T09:07:46Z</time>
      </trkpt>
      <trkpt lat="43.56034" lon="5.68745">
        <ele>497.84</ele>
        <time>2014-04-27T09:07:50Z</time>
      </trkpt>
      <trkpt lat="43.56047" lon="5.68769">
        <ele>495.77</ele>
        <time>2014-04-27T09:07:54Z</time>
      </trkpt>
      <trkpt lat="43.56057" lon="5.6879">
        <ele>492.93</ele>
        <time>2014-04-27T09:07:59Z</time>
      </trkpt>
      <trkpt lat="43.56048" lon="5.68813">
        <ele>490.96</ele>
        <time>2014-04-27T09:08:04Z</time>
      </trkpt>
      <trkpt lat="43.56033" lon="5.68828">
        <ele>489.9</ele>
        <time>2014-04-27T09:08:09Z</time>
      </trkpt>
      <trkpt lat="43.56016" lon="5.68838">
        <ele>489.16</ele>
        <time>2014-04-27T09:08:15Z</time>
      </trkpt>
      <trkpt lat="43.55999" lon="5.68859">
        <ele>488.39</ele>
        <time>2014-04-27T09:08:20Z</time>
      </trkpt>
      <trkpt lat="43.55979" lon="5.6887">
        <ele>487.99</ele>
        <time>2014-04-27T09:08:25Z</time>
      </trkpt>
      <trkpt lat="43.55956" lon="5.6887">
        <ele>486.13</ele>
        <time>2014-04-27T09:08:30Z</time>
      </trkpt>
      <trkpt lat="43.55937" lon="5.68879">
        <ele>484.21</ele>
        <time>2014-04-27T09:08:34Z</time>
      </trkpt>
      <trkpt lat="43.5594" lon="5.68904">
        <ele>477.47</ele>
        <time>2014-04-27T09:08:43Z</time>
      </trkpt>
      <trkpt lat="43.55947" lon="5.68927">
        <ele>473.95</ele>
        <time>2014-04-27T09:08:47Z</time>
      </trkpt>
      <trkpt lat="43.55954" lon="5.68955">
        <ele>469.24</ele>
        <time>2014-04-27T09:08:52Z</time>
      </trkpt>
      <trkpt lat="43.55956" lon="5.6898">
        <ele>465.15</ele>
        <time>2014-04-27T09:08:56Z</time>
      </trkpt>
      <trkpt lat="43.55961" lon="5.69008">
        <ele>459.73</ele>
        <time>2014-04-27T09:09:01Z</time>
      </trkpt>
      <trkpt lat="43.55971" lon="5.69035">
        <ele>452.96</ele>
        <time>2014-04-27T09:09:06Z</time>
      </trkpt>
      <trkpt lat="43.55982" lon="5.69059">
        <ele>447.58</ele>
        <time>2014-04-27T09:09:10Z</time>
      </trkpt>
      <trkpt lat="43.55994" lon="5.69086">
        <ele>442.41</ele>
        <time>2014-04-27T09:09:14Z</time>
      </trkpt>
      <trkpt lat="43.56006" lon="5.69111">
        <ele>437.23</ele>
        <time>2014-04-27T09:09:18Z</time>
      </trkpt>
      <trkpt lat="43.5602" lon="5.69136">
        <ele>432.31</ele>
        <time>2014-04-27T09:09:22Z</time>
      </trkpt>
      <trkpt lat="43.56032" lon="5.69156">
        <ele>429.17</ele>
        <time>2014-04-27T09:09:25Z</time>
      </trkpt>
      <trkpt lat="43.56041" lon="5.69178">
        <ele>426.28</ele>
        <time>2014-04-27T09:09:28Z</time>
      </trkpt>
      <trkpt lat="43.56054" lon="5.69202">
        <ele>423.18</ele>
        <time>2014-04-27T09:09:32Z</time>
      </trkpt>
      <trkpt lat="43.56069" lon="5.69222">
        <ele>420.69</ele>
        <time>2014-04-27T09:09:36Z</time>
      </trkpt>
      <trkpt lat="43.5608" lon="5.69245">
        <ele>418.7</ele>
        <time>2014-04-27T09:09:41Z</time>
      </trkpt>
      <trkpt lat="43.56072" lon="5.69268">
        <ele>417.93</ele>
        <time>2014-04-27T09:09:47Z</time>
      </trkpt>
      <trkpt lat="43.56056" lon="5.69285">
        <ele>418.86</ele>
        <time>2014-04-27T09:09:54Z</time>
      </trkpt>
      <trkpt lat="43.5604" lon="5.69302">
        <ele>421.88</ele>
        <time>2014-04-27T09:10:01Z</time>
      </trkpt>
      <trkpt lat="43.56027" lon="5.69319">
        <ele>423.71</ele>
        <time>2014-04-27T09:10:07Z</time>
      </trkpt>
      <trkpt lat="43.56017" lon="5.69341">
        <ele>424.85</ele>
        <time>2014-04-27T09:10:13Z</time>
      </trkpt>
      <trkpt lat="43.56007" lon="5.69363">
        <ele>425.63</ele>
        <time>2014-04-27T09:10:19Z</time>
      </trkpt>
      <trkpt lat="43.56" lon="5.69387">
        <ele>426.69</ele>
        <time>2014-04-27T09:10:25Z</time>
      </trkpt>
      <trkpt lat="43.55997" lon="5.69413">
        <ele>427.6</ele>
        <time>2014-04-27T09:10:31Z</time>
      </trkpt>
      <trkpt lat="43.55994" lon="5.69439">
        <ele>428.01</ele>
        <time>2014-04-27T09:10:36Z</time>
      </trkpt>
      <trkpt lat="43.55993" lon="5.69465">
        <ele>428.23</ele>
        <time>2014-04-27T09:10:41Z</time>
      </trkpt>
      <trkpt lat="43.55994" lon="5.69492">
        <ele>428.39</ele>
        <time>2014-04-27T09:10:46Z</time>
      </trkpt>
      <trkpt lat="43.55992" lon="5.69519">
        <ele>428.42</ele>
        <time>2014-04-27T09:10:51Z</time>
      </trkpt>
      <trkpt lat="43.55991" lon="5.69547">
        <ele>428.27</ele>
        <time>2014-04-27T09:10:57Z</time>
      </trkpt>
      <trkpt lat="43.55992" lon="5.69574">
        <ele>427.6</ele>
        <time>2014-04-27T09:11:04Z</time>
      </trkpt>
      <trkpt lat="43.56" lon="5.69599">
        <ele>425.99</ele>
        <time>2014-04-27T09:11:10Z</time>
      </trkpt>
      <trkpt lat="43.56006" lon="5.69622">
        <ele>424.79</ele>
        <time>2014-04-27T09:11:15Z</time>
      </trkpt>
      <trkpt lat="43.56005" lon="5.69648">
        <ele>423.81</ele>
        <time>2014-04-27T09:11:21Z</time>
      </trkpt>
      <trkpt lat="43.56002" lon="5.69674">
        <ele>422.78</ele>
        <time>2014-04-27T09:11:28Z</time>
      </trkpt>
      <trkpt lat="43.56" lon="5.69702">
        <ele>421.78</ele>
        <time>2014-04-27T09:11:35Z</time>
      </trkpt>
      <trkpt lat="43.56002" lon="5.69727">
        <ele>421.97</ele>
        <time>2014-04-27T09:11:41Z</time>
      </trkpt>
      <trkpt lat="43.56004" lon="5.69755">
        <ele>422.44</ele>
        <time>2014-04-27T09:11:47Z</time>
      </trkpt>
      <trkpt lat="43.56006" lon="5.69783">
        <ele>423.09</ele>
        <time>2014-04-27T09:11:53Z</time>
      </trkpt>
      <trkpt lat="43.56008" lon="5.69808">
        <ele>423.84</ele>
        <time>2014-04-27T09:11:58Z</time>
      </trkpt>
      <trkpt lat="43.56007" lon="5.69834">
        <ele>424.45</ele>
        <time>2014-04-27T09:12:03Z</time>
      </trkpt>
      <trkpt lat="43.56005" lon="5.69859">
        <ele>425.24</ele>
        <time>2014-04-27T09:12:08Z</time>
      </trkpt>
      <trkpt lat="43.56004" lon="5.69884">
        <ele>425.92</ele>
        <time>2014-04-27T09:12:13Z</time>
      </trkpt>
      <trkpt lat="43.56001" lon="5.69909">
        <ele>426.71</ele>
        <time>2014-04-27T09:12:18Z</time>
      </trkpt>
      <trkpt lat="43.55998" lon="5.69934">
        <ele>427.26</ele>
        <time>2014-04-27T09:12:23Z</time>
      </trkpt>
      <trkpt lat="43.5599" lon="5.69961">
        <ele>428.42</ele>
        <time>2014-04-27T09:12:29Z</time>
      </trkpt>
      <trkpt lat="43.5598" lon="5.69985">
        <ele>429.74</ele>
        <time>2014-04-27T09:12:34Z</time>
      </trkpt>
      <trkpt lat="43.5597" lon="5.70009">
        <ele>430.99</ele>
        <time>2014-04-27T09:12:39Z</time>
      </trkpt>
      <trkpt lat="43.55959" lon="5.70032">
        <ele>432.76</ele>
        <time>2014-04-27T09:12:44Z</time>
      </trkpt>
      <trkpt lat="43.5594" lon="5.70037">
        <ele>434.91</ele>
        <time>2014-04-27T09:12:52Z</time>
      </trkpt>
      <trkpt lat="43.55928" lon="5.7006">
        <ele>439.81</ele>
        <time>2014-04-27T09:13:07Z</time>
      </trkpt>
      <trkpt lat="43.55921" lon="5.70091">
        <ele>457.13</ele>
        <time>2014-04-27T09:13:41Z</time>
      </trkpt>
      <trkpt lat="43.55912" lon="5.70121">
        <ele>483.25</ele>
        <time>2014-04-27T09:13:54Z</time>
      </trkpt>
      <trkpt lat="43.55923" lon="5.70142">
        <ele>495.43</ele>
        <time>2014-04-27T09:14:38Z</time>
      </trkpt>
      <trkpt lat="43.55922" lon="5.7017">
        <ele>493.83</ele>
        <time>2014-04-27T09:14:50Z</time>
      </trkpt>
      <trkpt lat="43.55914" lon="5.70193">
        <ele>492.12</ele>
        <time>2014-04-27T09:14:59Z</time>
      </trkpt>
      <trkpt lat="43.55918" lon="5.70219">
        <ele>489.35</ele>
        <time>2014-04-27T09:15:11Z</time>
      </trkpt>
      <trkpt lat="43.55932" lon="5.70236">
        <ele>487.08</ele>
        <time>2014-04-27T09:15:18Z</time>
      </trkpt>
      <trkpt lat="43.55948" lon="5.70252">
        <ele>485.17</ele>
        <time>2014-04-27T09:15:24Z</time>
      </trkpt>
      <trkpt lat="43.55963" lon="5.70266">
        <ele>483.72</ele>
        <time>2014-04-27T09:15:29Z</time>
      </trkpt>
      <trkpt lat="43.55975" lon="5.70287">
        <ele>483.53</ele>
        <time>2014-04-27T09:15:35Z</time>
      </trkpt>
      <trkpt lat="43.55987" lon="5.70309">
        <ele>484.41</ele>
        <time>2014-04-27T09:15:41Z</time>
      </trkpt>
      <trkpt lat="43.55992" lon="5.70337">
        <ele>485.97</ele>
        <time>2014-04-27T09:17:06Z</time>
      </trkpt>
      <trkpt lat="43.55997" lon="5.70362">
        <ele>489.84</ele>
        <time>2014-04-27T09:17:13Z</time>
      </trkpt>
      <trkpt lat="43.55996" lon="5.70391">
        <ele>490.34</ele>
        <time>2014-04-27T09:17:19Z</time>
      </trkpt>
      <trkpt lat="43.55997" lon="5.70416">
        <ele>490.4</ele>
        <time>2014-04-27T09:17:24Z</time>
      </trkpt>
      <trkpt lat="43.56008" lon="5.70442">
        <ele>489.64</ele>
        <time>2014-04-27T09:17:29Z</time>
      </trkpt>
      <trkpt lat="43.56023" lon="5.70468">
        <ele>488.49</ele>
        <time>2014-04-27T09:17:33Z</time>
      </trkpt>
      <trkpt lat="43.5603" lon="5.70493">
        <ele>487.6</ele>
        <time>2014-04-27T09:17:36Z</time>
      </trkpt>
      <trkpt lat="43.56031" lon="5.70527">
        <ele>486.96</ele>
        <time>2014-04-27T09:17:39Z</time>
      </trkpt>
      <trkpt lat="43.56019" lon="5.7056">
        <ele>485.89</ele>
        <time>2014-04-27T09:17:43Z</time>
      </trkpt>
      <trkpt lat="43.56005" lon="5.70586">
        <ele>485.03</ele>
        <time>2014-04-27T09:17:46Z</time>
      </trkpt>
      <trkpt lat="43.55989" lon="5.70607">
        <ele>483.85</ele>
        <time>2014-04-27T09:17:49Z</time>
      </trkpt>
      <trkpt lat="43.55972" lon="5.70616">
        <ele>482.7</ele>
        <time>2014-04-27T09:17:52Z</time>
      </trkpt>
      <trkpt lat="43.55952" lon="5.7061">
        <ele>481.47</ele>
        <time>2014-04-27T09:17:55Z</time>
      </trkpt>
      <trkpt lat="43.55931" lon="5.70596">
        <ele>480.03</ele>
        <time>2014-04-27T09:17:58Z</time>
      </trkpt>
      <trkpt lat="43.55911" lon="5.70589">
        <ele>478.67</ele>
        <time>2014-04-27T09:18:01Z</time>
      </trkpt>
      <trkpt lat="43.5589" lon="5.70594">
        <ele>477.36</ele>
        <time>2014-04-27T09:18:04Z</time>
      </trkpt>
      <trkpt lat="43.5587" lon="5.70606">
        <ele>475.92</ele>
        <time>2014-04-27T09:18:07Z</time>
      </trkpt>
      <trkpt lat="43.55855" lon="5.70624">
        <ele>474.61</ele>
        <time>2014-04-27T09:18:10Z</time>
      </trkpt>
      <trkpt lat="43.55847" lon="5.70647">
        <ele>473.33</ele>
        <time>2014-04-27T09:18:13Z</time>
      </trkpt>
      <trkpt lat="43.55836" lon="5.70668">
        <ele>471.28</ele>
        <time>2014-04-27T09:18:17Z</time>
      </trkpt>
      <trkpt lat="43.55817" lon="5.70674">
        <ele>468.32</ele>
        <time>2014-04-27T09:18:25Z</time>
      </trkpt>
      <trkpt lat="43.55799" lon="5.70664">
        <ele>466.36</ele>
        <time>2014-04-27T09:18:30Z</time>
      </trkpt>
      <trkpt lat="43.55778" lon="5.70652">
        <ele>464.53</ele>
        <time>2014-04-27T09:18:34Z</time>
      </trkpt>
      <trkpt lat="43.55756" lon="5.70651">
        <ele>463.33</ele>
        <time>2014-04-27T09:18:37Z</time>
      </trkpt>
      <trkpt lat="43.55735" lon="5.70657">
        <ele>462.39</ele>
        <time>2014-04-27T09:18:40Z</time>
      </trkpt>
      <trkpt lat="43.55716" lon="5.70668">
        <ele>460.83</ele>
        <time>2014-04-27T09:18:43Z</time>
      </trkpt>
      <trkpt lat="43.55696" lon="5.70688">
        <ele>459.07</ele>
        <time>2014-04-27T09:18:46Z</time>
      </trkpt>
      <trkpt lat="43.55676" lon="5.70709">
        <ele>457.33</ele>
        <time>2014-04-27T09:18:49Z</time>
      </trkpt>
      <trkpt lat="43.55661" lon="5.70728">
        <ele>455.3</ele>
        <time>2014-04-27T09:18:52Z</time>
      </trkpt>
      <trkpt lat="43.55642" lon="5.70752">
        <ele>449.32</ele>
        <time>2014-04-27T09:19:33Z</time>
      </trkpt>
      <trkpt lat="43.55629" lon="5.70771">
        <ele>447.17</ele>
        <time>2014-04-27T09:19:41Z</time>
      </trkpt>
      <trkpt lat="43.55625" lon="5.70746">
        <ele>445</ele>
        <time>2014-04-27T09:19:57Z</time>
      </trkpt>
      <trkpt lat="43.55629" lon="5.70721">
        <ele>444.4</ele>
        <time>2014-04-27T09:20:03Z</time>
      </trkpt>
      <trkpt lat="43.55631" lon="5.70694">
        <ele>443.6</ele>
        <time>2014-04-27T09:20:10Z</time>
      </trkpt>
      <trkpt lat="43.55629" lon="5.70669">
        <ele>441.94</ele>
        <time>2014-04-27T09:20:17Z</time>
      </trkpt>
      <trkpt lat="43.55631" lon="5.70641">
        <ele>440.13</ele>
        <time>2014-04-27T09:20:25Z</time>
      </trkpt>
      <trkpt lat="43.55629" lon="5.70616">
        <ele>438.91</ele>
        <time>2014-04-27T09:20:32Z</time>
      </trkpt>
      <trkpt lat="43.55628" lon="5.7059">
        <ele>437.35</ele>
        <time>2014-04-27T09:20:39Z</time>
      </trkpt>
      <trkpt lat="43.55614" lon="5.70574">
        <ele>436.49</ele>
        <time>2014-04-27T09:20:46Z</time>
      </trkpt>
      <trkpt lat="43.55596" lon="5.70579">
        <ele>437.76</ele>
        <time>2014-04-27T09:20:54Z</time>
      </trkpt>
      <trkpt lat="43.55577" lon="5.70589">
        <ele>438.92</ele>
        <time>2014-04-27T09:21:01Z</time>
      </trkpt>
      <trkpt lat="43.55557" lon="5.70598">
        <ele>440.44</ele>
        <time>2014-04-27T09:21:07Z</time>
      </trkpt>
      <trkpt lat="43.55536" lon="5.70603">
        <ele>440.71</ele>
        <time>2014-04-27T09:21:13Z</time>
      </trkpt>
      <trkpt lat="43.55517" lon="5.7061">
        <ele>441.03</ele>
        <time>2014-04-27T09:21:18Z</time>
      </trkpt>
      <trkpt lat="43.55499" lon="5.70617">
        <ele>441.52</ele>
        <time>2014-04-27T09:21:22Z</time>
      </trkpt>
      <trkpt lat="43.55478" lon="5.70628">
        <ele>441.56</ele>
        <time>2014-04-27T09:21:26Z</time>
      </trkpt>
      <trkpt lat="43.55458" lon="5.70637">
        <ele>441.48</ele>
        <time>2014-04-27T09:21:30Z</time>
      </trkpt>
      <trkpt lat="43.55439" lon="5.70645">
        <ele>441</ele>
        <time>2014-04-27T09:21:34Z</time>
      </trkpt>
      <trkpt lat="43.5542" lon="5.70652">
        <ele>440.31</ele>
        <time>2014-04-27T09:21:38Z</time>
      </trkpt>
      <trkpt lat="43.554" lon="5.70661">
        <ele>440.15</ele>
        <time>2014-04-27T09:21:42Z</time>
      </trkpt>
      <trkpt lat="43.5538" lon="5.70665">
        <ele>440.12</ele>
        <time>2014-04-27T09:21:46Z</time>
      </trkpt>
      <trkpt lat="43.55358" lon="5.70668">
        <ele>439.99</ele>
        <time>2014-04-27T09:21:50Z</time>
      </trkpt>
      <trkpt lat="43.55337" lon="5.70668">
        <ele>440.14</ele>
        <time>2014-04-27T09:21:54Z</time>
      </trkpt>
      <trkpt lat="43.55316" lon="5.70666">
        <ele>440.3</ele>
        <time>2014-04-27T09:21:58Z</time>
      </trkpt>
      <trkpt lat="43.55296" lon="5.70663">
        <ele>440.45</ele>
        <time>2014-04-27T09:22:02Z</time>
      </trkpt>
      <trkpt lat="43.55275" lon="5.70662">
        <ele>440.94</ele>
        <time>2014-04-27T09:22:06Z</time>
      </trkpt>
      <trkpt lat="43.55251" lon="5.70659">
        <ele>441.45</ele>
        <time>2014-04-27T09:22:10Z</time>
      </trkpt>
      <trkpt lat="43.5523" lon="5.70656">
        <ele>441.54</ele>
        <time>2014-04-27T09:22:13Z</time>
      </trkpt>
      <trkpt lat="43.55212" lon="5.70652">
        <ele>441.52</ele>
        <time>2014-04-27T09:22:16Z</time>
      </trkpt>
      <trkpt lat="43.55188" lon="5.70647">
        <ele>441.76</ele>
        <time>2014-04-27T09:22:20Z</time>
      </trkpt>
      <trkpt lat="43.5517" lon="5.70643">
        <ele>441.87</ele>
        <time>2014-04-27T09:22:23Z</time>
      </trkpt>
      <trkpt lat="43.55151" lon="5.70636">
        <ele>441.82</ele>
        <time>2014-04-27T09:22:26Z</time>
      </trkpt>
      <trkpt lat="43.55131" lon="5.7063">
        <ele>441.93</ele>
        <time>2014-04-27T09:22:29Z</time>
      </trkpt>
      <trkpt lat="43.55109" lon="5.70626">
        <ele>441.9</ele>
        <time>2014-04-27T09:22:33Z</time>
      </trkpt>
      <trkpt lat="43.55086" lon="5.7062">
        <ele>441.61</ele>
        <time>2014-04-27T09:22:37Z</time>
      </trkpt>
      <trkpt lat="43.55065" lon="5.70614">
        <ele>441.18</ele>
        <time>2014-04-27T09:22:41Z</time>
      </trkpt>
      <trkpt lat="43.55042" lon="5.70611">
        <ele>440.64</ele>
        <time>2014-04-27T09:22:45Z</time>
      </trkpt>
      <trkpt lat="43.5502" lon="5.70608">
        <ele>440.03</ele>
        <time>2014-04-27T09:22:49Z</time>
      </trkpt>
      <trkpt lat="43.55" lon="5.70605">
        <ele>439.7</ele>
        <time>2014-04-27T09:22:53Z</time>
      </trkpt>
      <trkpt lat="43.54977" lon="5.70601">
        <ele>439.68</ele>
        <time>2014-04-27T09:22:57Z</time>
      </trkpt>
      <trkpt lat="43.54954" lon="5.706">
        <ele>439.4</ele>
        <time>2014-04-27T09:23:01Z</time>
      </trkpt>
      <trkpt lat="43.54936" lon="5.70598">
        <ele>439.06</ele>
        <time>2014-04-27T09:23:04Z</time>
      </trkpt>
      <trkpt lat="43.54914" lon="5.70596">
        <ele>438.89</ele>
        <time>2014-04-27T09:23:07Z</time>
      </trkpt>
      <trkpt lat="43.54892" lon="5.70597">
        <ele>438.93</ele>
        <time>2014-04-27T09:23:10Z</time>
      </trkpt>
      <trkpt lat="43.54868" lon="5.70597">
        <ele>438.51</ele>
        <time>2014-04-27T09:23:14Z</time>
      </trkpt>
      <trkpt lat="43.54849" lon="5.70596">
        <ele>438.15</ele>
        <time>2014-04-27T09:23:17Z</time>
      </trkpt>
      <trkpt lat="43.5483" lon="5.70595">
        <ele>437.94</ele>
        <time>2014-04-27T09:23:20Z</time>
      </trkpt>
      <trkpt lat="43.54809" lon="5.70593">
        <ele>437.65</ele>
        <time>2014-04-27T09:23:24Z</time>
      </trkpt>
      <trkpt lat="43.54789" lon="5.70589">
        <ele>437.63</ele>
        <time>2014-04-27T09:23:28Z</time>
      </trkpt>
      <trkpt lat="43.5477" lon="5.70585">
        <ele>437.76</ele>
        <time>2014-04-27T09:23:32Z</time>
      </trkpt>
      <trkpt lat="43.54751" lon="5.70582">
        <ele>437.91</ele>
        <time>2014-04-27T09:23:36Z</time>
      </trkpt>
      <trkpt lat="43.54729" lon="5.70577">
        <ele>437.34</ele>
        <time>2014-04-27T09:23:40Z</time>
      </trkpt>
      <trkpt lat="43.54711" lon="5.70572">
        <ele>436.58</ele>
        <time>2014-04-27T09:23:44Z</time>
      </trkpt>
      <trkpt lat="43.54688" lon="5.70564">
        <ele>436.11</ele>
        <time>2014-04-27T09:23:48Z</time>
      </trkpt>
      <trkpt lat="43.54668" lon="5.70559">
        <ele>436.39</ele>
        <time>2014-04-27T09:23:52Z</time>
      </trkpt>
      <trkpt lat="43.54649" lon="5.70565">
        <ele>438.35</ele>
        <time>2014-04-27T09:23:56Z</time>
      </trkpt>
      <trkpt lat="43.54636" lon="5.70582">
        <ele>438.67</ele>
        <time>2014-04-27T09:24:00Z</time>
      </trkpt>
      <trkpt lat="43.54623" lon="5.70606">
        <ele>438.19</ele>
        <time>2014-04-27T09:24:04Z</time>
      </trkpt>
      <trkpt lat="43.54609" lon="5.70625">
        <ele>437.55</ele>
        <time>2014-04-27T09:24:07Z</time>
      </trkpt>
      <trkpt lat="43.54594" lon="5.70648">
        <ele>436.85</ele>
        <time>2014-04-27T09:24:10Z</time>
      </trkpt>
      <trkpt lat="43.54577" lon="5.70675">
        <ele>436.16</ele>
        <time>2014-04-27T09:24:13Z</time>
      </trkpt>
      <trkpt lat="43.5456" lon="5.70701">
        <ele>435.55</ele>
        <time>2014-04-27T09:24:16Z</time>
      </trkpt>
      <trkpt lat="43.54547" lon="5.70721">
        <ele>435.1</ele>
        <time>2014-04-27T09:24:18Z</time>
      </trkpt>
      <trkpt lat="43.54529" lon="5.7075">
        <ele>434.43</ele>
        <time>2014-04-27T09:24:21Z</time>
      </trkpt>
      <trkpt lat="43.54516" lon="5.70771">
        <ele>433.87</ele>
        <time>2014-04-27T09:24:23Z</time>
      </trkpt>
      <trkpt lat="43.54503" lon="5.70791">
        <ele>433.35</ele>
        <time>2014-04-27T09:24:25Z</time>
      </trkpt>
      <trkpt lat="43.54489" lon="5.70819">
        <ele>432.77</ele>
        <time>2014-04-27T09:24:28Z</time>
      </trkpt>
      <trkpt lat="43.54472" lon="5.70843">
        <ele>432.18</ele>
        <time>2014-04-27T09:24:31Z</time>
      </trkpt>
      <trkpt lat="43.54458" lon="5.70866">
        <ele>431.66</ele>
        <time>2014-04-27T09:24:34Z</time>
      </trkpt>
      <trkpt lat="43.54444" lon="5.70891">
        <ele>431.25</ele>
        <time>2014-04-27T09:24:37Z</time>
      </trkpt>
      <trkpt lat="43.54431" lon="5.70913">
        <ele>430.76</ele>
        <time>2014-04-27T09:24:40Z</time>
      </trkpt>
      <trkpt lat="43.54417" lon="5.70934">
        <ele>429.87</ele>
        <time>2014-04-27T09:24:43Z</time>
      </trkpt>
      <trkpt lat="43.54402" lon="5.70952">
        <ele>429.05</ele>
        <time>2014-04-27T09:24:46Z</time>
      </trkpt>
      <trkpt lat="43.54387" lon="5.70972">
        <ele>428.55</ele>
        <time>2014-04-27T09:24:49Z</time>
      </trkpt>
      <trkpt lat="43.54373" lon="5.70994">
        <ele>428.19</ele>
        <time>2014-04-27T09:24:52Z</time>
      </trkpt>
      <trkpt lat="43.54359" lon="5.71015">
        <ele>428.19</ele>
        <time>2014-04-27T09:24:55Z</time>
      </trkpt>
      <trkpt lat="43.54347" lon="5.71034">
        <ele>428.4</ele>
        <time>2014-04-27T09:24:58Z</time>
      </trkpt>
      <trkpt lat="43.54333" lon="5.7105">
        <ele>428.82</ele>
        <time>2014-04-27T09:25:01Z</time>
      </trkpt>
      <trkpt lat="43.54319" lon="5.7107">
        <ele>428.32</ele>
        <time>2014-04-27T09:25:05Z</time>
      </trkpt>
      <trkpt lat="43.54307" lon="5.71089">
        <ele>426.85</ele>
        <time>2014-04-27T09:25:10Z</time>
      </trkpt>
      <trkpt lat="43.54294" lon="5.71111">
        <ele>425.72</ele>
        <time>2014-04-27T09:25:16Z</time>
      </trkpt>
      <trkpt lat="43.54282" lon="5.71133">
        <ele>425.21</ele>
        <time>2014-04-27T09:25:21Z</time>
      </trkpt>
      <trkpt lat="43.54269" lon="5.71155">
        <ele>425.33</ele>
        <time>2014-04-27T09:25:27Z</time>
      </trkpt>
      <trkpt lat="43.54256" lon="5.71179">
        <ele>425.61</ele>
        <time>2014-04-27T09:25:33Z</time>
      </trkpt>
      <trkpt lat="43.54244" lon="5.71197">
        <ele>425.74</ele>
        <time>2014-04-27T09:25:38Z</time>
      </trkpt>
      <trkpt lat="43.54232" lon="5.71218">
        <ele>426.28</ele>
        <time>2014-04-27T09:25:44Z</time>
      </trkpt>
      <trkpt lat="43.54219" lon="5.71237">
        <ele>427.07</ele>
        <time>2014-04-27T09:25:51Z</time>
      </trkpt>
      <trkpt lat="43.54209" lon="5.71258">
        <ele>427.84</ele>
        <time>2014-04-27T09:25:57Z</time>
      </trkpt>
      <trkpt lat="43.54197" lon="5.71278">
        <ele>429.07</ele>
        <time>2014-04-27T09:26:03Z</time>
      </trkpt>
      <trkpt lat="43.54183" lon="5.71299">
        <ele>430.78</ele>
        <time>2014-04-27T09:26:09Z</time>
      </trkpt>
      <trkpt lat="43.54172" lon="5.71322">
        <ele>431.8</ele>
        <time>2014-04-27T09:26:17Z</time>
      </trkpt>
      <trkpt lat="43.54157" lon="5.71341">
        <ele>433.72</ele>
        <time>2014-04-27T09:26:25Z</time>
      </trkpt>
      <trkpt lat="43.54143" lon="5.71359">
        <ele>435.68</ele>
        <time>2014-04-27T09:26:32Z</time>
      </trkpt>
      <trkpt lat="43.54129" lon="5.71379">
        <ele>437.47</ele>
        <time>2014-04-27T09:26:39Z</time>
      </trkpt>
      <trkpt lat="43.54113" lon="5.71395">
        <ele>439.54</ele>
        <time>2014-04-27T09:26:46Z</time>
      </trkpt>
      <trkpt lat="43.54097" lon="5.71412">
        <ele>441.37</ele>
        <time>2014-04-27T09:26:53Z</time>
      </trkpt>
      <trkpt lat="43.54081" lon="5.7143">
        <ele>442.71</ele>
        <time>2014-04-27T09:27:01Z</time>
      </trkpt>
      <trkpt lat="43.54066" lon="5.71447">
        <ele>443.15</ele>
        <time>2014-04-27T09:27:08Z</time>
      </trkpt>
      <trkpt lat="43.54051" lon="5.71465">
        <ele>444.89</ele>
        <time>2014-04-27T09:27:14Z</time>
      </trkpt>
      <trkpt lat="43.54035" lon="5.71483">
        <ele>446.83</ele>
        <time>2014-04-27T09:27:20Z</time>
      </trkpt>
      <trkpt lat="43.5402" lon="5.715">
        <ele>447.91</ele>
        <time>2014-04-27T09:27:26Z</time>
      </trkpt>
      <trkpt lat="43.54001" lon="5.71515">
        <ele>448.56</ele>
        <time>2014-04-27T09:27:32Z</time>
      </trkpt>
      <trkpt lat="43.53983" lon="5.71525">
        <ele>449.27</ele>
        <time>2014-04-27T09:27:37Z</time>
      </trkpt>
      <trkpt lat="43.53965" lon="5.71535">
        <ele>449.97</ele>
        <time>2014-04-27T09:27:44Z</time>
      </trkpt>
      <trkpt lat="43.53947" lon="5.71543">
        <ele>449.81</ele>
        <time>2014-04-27T09:30:51Z</time>
      </trkpt>
      <trkpt lat="43.53929" lon="5.71539">
        <ele>449.02</ele>
        <time>2014-04-27T09:31:29Z</time>
      </trkpt>
      <trkpt lat="43.5391" lon="5.71537">
        <ele>448.91</ele>
        <time>2014-04-27T09:31:36Z</time>
      </trkpt>
      <trkpt lat="43.53891" lon="5.71538">
        <ele>448.76</ele>
        <time>2014-04-27T09:31:43Z</time>
      </trkpt>
      <trkpt lat="43.53874" lon="5.71527">
        <ele>448.16</ele>
        <time>2014-04-27T09:31:49Z</time>
      </trkpt>
      <trkpt lat="43.53856" lon="5.71513">
        <ele>446.89</ele>
        <time>2014-04-27T09:31:56Z</time>
      </trkpt>
      <trkpt lat="43.53839" lon="5.715">
        <ele>445.14</ele>
        <time>2014-04-27T09:32:02Z</time>
      </trkpt>
      <trkpt lat="43.53822" lon="5.71486">
        <ele>443.17</ele>
        <time>2014-04-27T09:32:08Z</time>
      </trkpt>
      <trkpt lat="43.53802" lon="5.71475">
        <ele>441.07</ele>
        <time>2014-04-27T09:32:14Z</time>
      </trkpt>
      <trkpt lat="43.53785" lon="5.71464">
        <ele>438.72</ele>
        <time>2014-04-27T09:32:20Z</time>
      </trkpt>
      <trkpt lat="43.53767" lon="5.7145">
        <ele>436.46</ele>
        <time>2014-04-27T09:32:25Z</time>
      </trkpt>
      <trkpt lat="43.5375" lon="5.71434">
        <ele>434.33</ele>
        <time>2014-04-27T09:32:29Z</time>
      </trkpt>
      <trkpt lat="43.53734" lon="5.71418">
        <ele>432.64</ele>
        <time>2014-04-27T09:32:32Z</time>
      </trkpt>
      <trkpt lat="43.53721" lon="5.71399">
        <ele>430.95</ele>
        <time>2014-04-27T09:32:35Z</time>
      </trkpt>
      <trkpt lat="43.53708" lon="5.71377">
        <ele>429.52</ele>
        <time>2014-04-27T09:32:38Z</time>
      </trkpt>
      <trkpt lat="43.53694" lon="5.71357">
        <ele>428.57</ele>
        <time>2014-04-27T09:32:41Z</time>
      </trkpt>
      <trkpt lat="43.53678" lon="5.71333">
        <ele>427.35</ele>
        <time>2014-04-27T09:32:45Z</time>
      </trkpt>
      <trkpt lat="43.53666" lon="5.71313">
        <ele>426.53</ele>
        <time>2014-04-27T09:32:48Z</time>
      </trkpt>
      <trkpt lat="43.53652" lon="5.71289">
        <ele>425.84</ele>
        <time>2014-04-27T09:32:51Z</time>
      </trkpt>
      <trkpt lat="43.53639" lon="5.71267">
        <ele>425.28</ele>
        <time>2014-04-27T09:32:54Z</time>
      </trkpt>
      <trkpt lat="43.53627" lon="5.71248">
        <ele>424.73</ele>
        <time>2014-04-27T09:32:57Z</time>
      </trkpt>
      <trkpt lat="43.5361" lon="5.71224">
        <ele>423.88</ele>
        <time>2014-04-27T09:33:01Z</time>
      </trkpt>
      <trkpt lat="43.53596" lon="5.71201">
        <ele>422.74</ele>
        <time>2014-04-27T09:33:05Z</time>
      </trkpt>
      <trkpt lat="43.53582" lon="5.71182">
        <ele>421.74</ele>
        <time>2014-04-27T09:33:08Z</time>
      </trkpt>
      <trkpt lat="43.53568" lon="5.71161">
        <ele>420.98</ele>
        <time>2014-04-27T09:33:11Z</time>
      </trkpt>
      <trkpt lat="43.53556" lon="5.71137">
        <ele>420.42</ele>
        <time>2014-04-27T09:33:14Z</time>
      </trkpt>
      <trkpt lat="43.53546" lon="5.71111">
        <ele>420.03</ele>
        <time>2014-04-27T09:33:17Z</time>
      </trkpt>
      <trkpt lat="43.53534" lon="5.71082">
        <ele>420.26</ele>
        <time>2014-04-27T09:33:20Z</time>
      </trkpt>
      <trkpt lat="43.53524" lon="5.71056">
        <ele>420.48</ele>
        <time>2014-04-27T09:33:23Z</time>
      </trkpt>
      <trkpt lat="43.53514" lon="5.7103">
        <ele>420.48</ele>
        <time>2014-04-27T09:33:26Z</time>
      </trkpt>
      <trkpt lat="43.53505" lon="5.71003">
        <ele>420.47</ele>
        <time>2014-04-27T09:33:29Z</time>
      </trkpt>
      <trkpt lat="43.53494" lon="5.70975">
        <ele>420.53</ele>
        <time>2014-04-27T09:33:32Z</time>
      </trkpt>
      <trkpt lat="43.53485" lon="5.70948">
        <ele>420.68</ele>
        <time>2014-04-27T09:33:35Z</time>
      </trkpt>
      <trkpt lat="43.53476" lon="5.7092">
        <ele>420.87</ele>
        <time>2014-04-27T09:33:38Z</time>
      </trkpt>
      <trkpt lat="43.53468" lon="5.70894">
        <ele>420.75</ele>
        <time>2014-04-27T09:33:41Z</time>
      </trkpt>
      <trkpt lat="43.53461" lon="5.7087">
        <ele>420.41</ele>
        <time>2014-04-27T09:33:44Z</time>
      </trkpt>
      <trkpt lat="43.53453" lon="5.70844">
        <ele>420.08</ele>
        <time>2014-04-27T09:33:47Z</time>
      </trkpt>
      <trkpt lat="43.53443" lon="5.70819">
        <ele>419.5</ele>
        <time>2014-04-27T09:33:50Z</time>
      </trkpt>
      <trkpt lat="43.53433" lon="5.70794">
        <ele>418.86</ele>
        <time>2014-04-27T09:33:53Z</time>
      </trkpt>
      <trkpt lat="43.53423" lon="5.7077">
        <ele>418.62</ele>
        <time>2014-04-27T09:33:56Z</time>
      </trkpt>
      <trkpt lat="43.53414" lon="5.70747">
        <ele>418.37</ele>
        <time>2014-04-27T09:33:59Z</time>
      </trkpt>
      <trkpt lat="43.53407" lon="5.70724">
        <ele>418.08</ele>
        <time>2014-04-27T09:34:02Z</time>
      </trkpt>
      <trkpt lat="43.53397" lon="5.70696">
        <ele>417.77</ele>
        <time>2014-04-27T09:34:06Z</time>
      </trkpt>
      <trkpt lat="43.53386" lon="5.7067">
        <ele>417.68</ele>
        <time>2014-04-27T09:34:10Z</time>
      </trkpt>
      <trkpt lat="43.53376" lon="5.70645">
        <ele>417.91</ele>
        <time>2014-04-27T09:34:14Z</time>
      </trkpt>
      <trkpt lat="43.53365" lon="5.7062">
        <ele>417.98</ele>
        <time>2014-04-27T09:34:18Z</time>
      </trkpt>
      <trkpt lat="43.53355" lon="5.70595">
        <ele>417.31</ele>
        <time>2014-04-27T09:34:22Z</time>
      </trkpt>
      <trkpt lat="43.53344" lon="5.70572">
        <ele>416.45</ele>
        <time>2014-04-27T09:34:26Z</time>
      </trkpt>
      <trkpt lat="43.53332" lon="5.70546">
        <ele>415.28</ele>
        <time>2014-04-27T09:34:30Z</time>
      </trkpt>
      <trkpt lat="43.53323" lon="5.7052">
        <ele>414.17</ele>
        <time>2014-04-27T09:34:34Z</time>
      </trkpt>
      <trkpt lat="43.53314" lon="5.70497">
        <ele>414.41</ele>
        <time>2014-04-27T09:34:37Z</time>
      </trkpt>
      <trkpt lat="43.53306" lon="5.70475">
        <ele>414.77</ele>
        <time>2014-04-27T09:34:40Z</time>
      </trkpt>
      <trkpt lat="43.53297" lon="5.70447">
        <ele>415.48</ele>
        <time>2014-04-27T09:34:44Z</time>
      </trkpt>
      <trkpt lat="43.53287" lon="5.7042">
        <ele>416.31</ele>
        <time>2014-04-27T09:34:48Z</time>
      </trkpt>
      <trkpt lat="43.53279" lon="5.70396">
        <ele>416.97</ele>
        <time>2014-04-27T09:34:52Z</time>
      </trkpt>
      <trkpt lat="43.53273" lon="5.7037">
        <ele>416.94</ele>
        <time>2014-04-27T09:34:56Z</time>
      </trkpt>
      <trkpt lat="43.53269" lon="5.7034">
        <ele>416.57</ele>
        <time>2014-04-27T09:35:00Z</time>
      </trkpt>
      <trkpt lat="43.53264" lon="5.70315">
        <ele>416.27</ele>
        <time>2014-04-27T09:35:03Z</time>
      </trkpt>
      <trkpt lat="43.53264" lon="5.70291">
        <ele>415.57</ele>
        <time>2014-04-27T09:35:06Z</time>
      </trkpt>
      <trkpt lat="43.53259" lon="5.7026">
        <ele>414.52</ele>
        <time>2014-04-27T09:35:10Z</time>
      </trkpt>
      <trkpt lat="43.53243" lon="5.70248">
        <ele>413.85</ele>
        <time>2014-04-27T09:35:13Z</time>
      </trkpt>
      <trkpt lat="43.53229" lon="5.7023">
        <ele>412.62</ele>
        <time>2014-04-27T09:35:16Z</time>
      </trkpt>
      <trkpt lat="43.53222" lon="5.70206">
        <ele>411.49</ele>
        <time>2014-04-27T09:35:19Z</time>
      </trkpt>
      <trkpt lat="43.53216" lon="5.70179">
        <ele>410.42</ele>
        <time>2014-04-27T09:35:22Z</time>
      </trkpt>
      <trkpt lat="43.53209" lon="5.70151">
        <ele>409.69</ele>
        <time>2014-04-27T09:35:25Z</time>
      </trkpt>
      <trkpt lat="43.53203" lon="5.70124">
        <ele>409.18</ele>
        <time>2014-04-27T09:35:28Z</time>
      </trkpt>
      <trkpt lat="43.53199" lon="5.70095">
        <ele>408.38</ele>
        <time>2014-04-27T09:35:31Z</time>
      </trkpt>
      <trkpt lat="43.53197" lon="5.70062">
        <ele>407.33</ele>
        <time>2014-04-27T09:35:34Z</time>
      </trkpt>
      <trkpt lat="43.53195" lon="5.70025">
        <ele>406.17</ele>
        <time>2014-04-27T09:35:37Z</time>
      </trkpt>
      <trkpt lat="43.53201" lon="5.69993">
        <ele>404.63</ele>
        <time>2014-04-27T09:35:40Z</time>
      </trkpt>
      <trkpt lat="43.53212" lon="5.6997">
        <ele>403.3</ele>
        <time>2014-04-27T09:35:43Z</time>
      </trkpt>
      <trkpt lat="43.53216" lon="5.69938">
        <ele>401.62</ele>
        <time>2014-04-27T09:35:47Z</time>
      </trkpt>
      <trkpt lat="43.53202" lon="5.69918">
        <ele>400.58</ele>
        <time>2014-04-27T09:35:51Z</time>
      </trkpt>
      <trkpt lat="43.53183" lon="5.69907">
        <ele>399.69</ele>
        <time>2014-04-27T09:35:54Z</time>
      </trkpt>
      <trkpt lat="43.53163" lon="5.6989">
        <ele>398.64</ele>
        <time>2014-04-27T09:35:57Z</time>
      </trkpt>
      <trkpt lat="43.53148" lon="5.69865">
        <ele>397.54</ele>
        <time>2014-04-27T09:36:00Z</time>
      </trkpt>
      <trkpt lat="43.53142" lon="5.69836">
        <ele>396.4</ele>
        <time>2014-04-27T09:36:03Z</time>
      </trkpt>
      <trkpt lat="43.53147" lon="5.69807">
        <ele>394.89</ele>
        <time>2014-04-27T09:36:06Z</time>
      </trkpt>
      <trkpt lat="43.53158" lon="5.69784">
        <ele>393.42</ele>
        <time>2014-04-27T09:36:09Z</time>
      </trkpt>
      <trkpt lat="43.53161" lon="5.69755">
        <ele>391.01</ele>
        <time>2014-04-27T09:36:14Z</time>
      </trkpt>
      <trkpt lat="43.53141" lon="5.69742">
        <ele>389.18</ele>
        <time>2014-04-27T09:36:18Z</time>
      </trkpt>
      <trkpt lat="43.5312" lon="5.69736">
        <ele>387.79</ele>
        <time>2014-04-27T09:36:21Z</time>
      </trkpt>
      <trkpt lat="43.53103" lon="5.69725">
        <ele>386.07</ele>
        <time>2014-04-27T09:36:24Z</time>
      </trkpt>
      <trkpt lat="43.53088" lon="5.69706">
        <ele>384.19</ele>
        <time>2014-04-27T09:36:27Z</time>
      </trkpt>
      <trkpt lat="43.53082" lon="5.69676">
        <ele>381.97</ele>
        <time>2014-04-27T09:36:30Z</time>
      </trkpt>
      <trkpt lat="43.53078" lon="5.69644">
        <ele>379.65</ele>
        <time>2014-04-27T09:36:33Z</time>
      </trkpt>
      <trkpt lat="43.53072" lon="5.69615">
        <ele>377.52</ele>
        <time>2014-04-27T09:36:36Z</time>
      </trkpt>
      <trkpt lat="43.53067" lon="5.6959">
        <ele>375.44</ele>
        <time>2014-04-27T09:36:39Z</time>
      </trkpt>
      <trkpt lat="43.53062" lon="5.69566">
        <ele>373.58</ele>
        <time>2014-04-27T09:36:42Z</time>
      </trkpt>
      <trkpt lat="43.53056" lon="5.69542">
        <ele>372.11</ele>
        <time>2014-04-27T09:36:45Z</time>
      </trkpt>
      <trkpt lat="43.53053" lon="5.69512">
        <ele>370.2</ele>
        <time>2014-04-27T09:36:49Z</time>
      </trkpt>
      <trkpt lat="43.5305" lon="5.69486">
        <ele>368.9</ele>
        <time>2014-04-27T09:36:52Z</time>
      </trkpt>
      <trkpt lat="43.53049" lon="5.69455">
        <ele>367.51</ele>
        <time>2014-04-27T09:36:55Z</time>
      </trkpt>
      <trkpt lat="43.53033" lon="5.69441">
        <ele>365.05</ele>
        <time>2014-04-27T09:37:00Z</time>
      </trkpt>
      <trkpt lat="43.53016" lon="5.69449">
        <ele>363.49</ele>
        <time>2014-04-27T09:37:03Z</time>
      </trkpt>
      <trkpt lat="43.52995" lon="5.6946">
        <ele>361.97</ele>
        <time>2014-04-27T09:37:06Z</time>
      </trkpt>
      <trkpt lat="43.52974" lon="5.69471">
        <ele>360.59</ele>
        <time>2014-04-27T09:37:09Z</time>
      </trkpt>
      <trkpt lat="43.52954" lon="5.69476">
        <ele>359.19</ele>
        <time>2014-04-27T09:37:12Z</time>
      </trkpt>
      <trkpt lat="43.52929" lon="5.69466">
        <ele>355.66</ele>
        <time>2014-04-27T09:37:16Z</time>
      </trkpt>
      <trkpt lat="43.52911" lon="5.69453">
        <ele>353.07</ele>
        <time>2014-04-27T09:37:19Z</time>
      </trkpt>
      <trkpt lat="43.52899" lon="5.69433">
        <ele>350.68</ele>
        <time>2014-04-27T09:37:22Z</time>
      </trkpt>
      <trkpt lat="43.52888" lon="5.69407">
        <ele>348.37</ele>
        <time>2014-04-27T09:37:25Z</time>
      </trkpt>
      <trkpt lat="43.52879" lon="5.6938">
        <ele>346.08</ele>
        <time>2014-04-27T09:37:28Z</time>
      </trkpt>
      <trkpt lat="43.52878" lon="5.69349">
        <ele>343.7</ele>
        <time>2014-04-27T09:37:31Z</time>
      </trkpt>
      <trkpt lat="43.52875" lon="5.69318">
        <ele>340.36</ele>
        <time>2014-04-27T09:37:35Z</time>
      </trkpt>
      <trkpt lat="43.52876" lon="5.6929">
        <ele>338.24</ele>
        <time>2014-04-27T09:37:38Z</time>
      </trkpt>
      <trkpt lat="43.52872" lon="5.69262">
        <ele>335.37</ele>
        <time>2014-04-27T09:37:42Z</time>
      </trkpt>
      <trkpt lat="43.52854" lon="5.69252">
        <ele>333.32</ele>
        <time>2014-04-27T09:37:45Z</time>
      </trkpt>
      <trkpt lat="43.52831" lon="5.69249">
        <ele>331.25</ele>
        <time>2014-04-27T09:37:48Z</time>
      </trkpt>
      <trkpt lat="43.5281" lon="5.69248">
        <ele>328.76</ele>
        <time>2014-04-27T09:37:51Z</time>
      </trkpt>
      <trkpt lat="43.52794" lon="5.69234">
        <ele>326.19</ele>
        <time>2014-04-27T09:37:54Z</time>
      </trkpt>
      <trkpt lat="43.52781" lon="5.69209">
        <ele>323.56</ele>
        <time>2014-04-27T09:37:57Z</time>
      </trkpt>
      <trkpt lat="43.52768" lon="5.69179">
        <ele>321.2</ele>
        <time>2014-04-27T09:38:00Z</time>
      </trkpt>
      <trkpt lat="43.52757" lon="5.6915">
        <ele>319.39</ele>
        <time>2014-04-27T09:38:03Z</time>
      </trkpt>
      <trkpt lat="43.52747" lon="5.69125">
        <ele>317.43</ele>
        <time>2014-04-27T09:38:06Z</time>
      </trkpt>
      <trkpt lat="43.52737" lon="5.69097">
        <ele>315.82</ele>
        <time>2014-04-27T09:38:09Z</time>
      </trkpt>
      <trkpt lat="43.5273" lon="5.69073">
        <ele>314.51</ele>
        <time>2014-04-27T09:38:12Z</time>
      </trkpt>
      <trkpt lat="43.5272" lon="5.69045">
        <ele>312.54</ele>
        <time>2014-04-27T09:38:16Z</time>
      </trkpt>
      <trkpt lat="43.52705" lon="5.69025">
        <ele>310.47</ele>
        <time>2014-04-27T09:38:20Z</time>
      </trkpt>
      <trkpt lat="43.52692" lon="5.68998">
        <ele>308.67</ele>
        <time>2014-04-27T09:38:24Z</time>
      </trkpt>
      <trkpt lat="43.52687" lon="5.68966">
        <ele>306.99</ele>
        <time>2014-04-27T09:38:28Z</time>
      </trkpt>
      <trkpt lat="43.52683" lon="5.68937">
        <ele>305.66</ele>
        <time>2014-04-27T09:38:31Z</time>
      </trkpt>
      <trkpt lat="43.52679" lon="5.68906">
        <ele>304.22</ele>
        <time>2014-04-27T09:38:34Z</time>
      </trkpt>
      <trkpt lat="43.52675" lon="5.68872">
        <ele>302.72</ele>
        <time>2014-04-27T09:38:37Z</time>
      </trkpt>
      <trkpt lat="43.52674" lon="5.6884">
        <ele>301.33</ele>
        <time>2014-04-27T09:38:40Z</time>
      </trkpt>
      <trkpt lat="43.5267" lon="5.68811">
        <ele>300.27</ele>
        <time>2014-04-27T09:38:43Z</time>
      </trkpt>
      <trkpt lat="43.52665" lon="5.68785">
        <ele>299.21</ele>
        <time>2014-04-27T09:38:46Z</time>
      </trkpt>
      <trkpt lat="43.52657" lon="5.6876">
        <ele>297.59</ele>
        <time>2014-04-27T09:38:50Z</time>
      </trkpt>
      <trkpt lat="43.52648" lon="5.68735">
        <ele>295.61</ele>
        <time>2014-04-27T09:38:54Z</time>
      </trkpt>
      <trkpt lat="43.52638" lon="5.68713">
        <ele>292.99</ele>
        <time>2014-04-27T09:38:58Z</time>
      </trkpt>
      <trkpt lat="43.52628" lon="5.68691">
        <ele>289.9</ele>
        <time>2014-04-27T09:39:02Z</time>
      </trkpt>
      <trkpt lat="43.5262" lon="5.68664">
        <ele>287.45</ele>
        <time>2014-04-27T09:39:07Z</time>
      </trkpt>
      <trkpt lat="43.52613" lon="5.68638">
        <ele>286.22</ele>
        <time>2014-04-27T09:39:12Z</time>
      </trkpt>
      <trkpt lat="43.52612" lon="5.68611">
        <ele>284.79</ele>
        <time>2014-04-27T09:39:17Z</time>
      </trkpt>
      <trkpt lat="43.52617" lon="5.68586">
        <ele>283.53</ele>
        <time>2014-04-27T09:39:22Z</time>
      </trkpt>
      <trkpt lat="43.52624" lon="5.68562">
        <ele>282.7</ele>
        <time>2014-04-27T09:39:27Z</time>
      </trkpt>
      <trkpt lat="43.52631" lon="5.68538">
        <ele>282.13</ele>
        <time>2014-04-27T09:39:33Z</time>
      </trkpt>
      <trkpt lat="43.52639" lon="5.68513">
        <ele>281.76</ele>
        <time>2014-04-27T09:39:39Z</time>
      </trkpt>
      <trkpt lat="43.52646" lon="5.68488">
        <ele>280.91</ele>
        <time>2014-04-27T09:39:45Z</time>
      </trkpt>
      <trkpt lat="43.5265" lon="5.68462">
        <ele>281.14</ele>
        <time>2014-04-27T09:39:51Z</time>
      </trkpt>
      <trkpt lat="43.52652" lon="5.68432">
        <ele>281.94</ele>
        <time>2014-04-27T09:39:57Z</time>
      </trkpt>
      <trkpt lat="43.52655" lon="5.68405">
        <ele>282.04</ele>
        <time>2014-04-27T09:40:03Z</time>
      </trkpt>
      <trkpt lat="43.52655" lon="5.6838">
        <ele>281.47</ele>
        <time>2014-04-27T09:40:09Z</time>
      </trkpt>
      <trkpt lat="43.52653" lon="5.68353">
        <ele>280.92</ele>
        <time>2014-04-27T09:40:15Z</time>
      </trkpt>
      <trkpt lat="43.52651" lon="5.68327">
        <ele>280.65</ele>
        <time>2014-04-27T09:40:20Z</time>
      </trkpt>
      <trkpt lat="43.52647" lon="5.68301">
        <ele>280.74</ele>
        <time>2014-04-27T09:40:25Z</time>
      </trkpt>
      <trkpt lat="43.52645" lon="5.68276">
        <ele>281.48</ele>
        <time>2014-04-27T09:40:30Z</time>
      </trkpt>
      <trkpt lat="43.52643" lon="5.6825">
        <ele>282.09</ele>
        <time>2014-04-27T09:40:34Z</time>
      </trkpt>
      <trkpt lat="43.52645" lon="5.68222">
        <ele>282.42</ele>
        <time>2014-04-27T09:40:38Z</time>
      </trkpt>
      <trkpt lat="43.52648" lon="5.68196">
        <ele>282.43</ele>
        <time>2014-04-27T09:40:41Z</time>
      </trkpt>
      <trkpt lat="43.52645" lon="5.68163">
        <ele>282.45</ele>
        <time>2014-04-27T09:40:44Z</time>
      </trkpt>
      <trkpt lat="43.52638" lon="5.68131">
        <ele>282.67</ele>
        <time>2014-04-27T09:40:47Z</time>
      </trkpt>
      <trkpt lat="43.52632" lon="5.68107">
        <ele>283.19</ele>
        <time>2014-04-27T09:40:49Z</time>
      </trkpt>
      <trkpt lat="43.52623" lon="5.68074">
        <ele>284.02</ele>
        <time>2014-04-27T09:40:52Z</time>
      </trkpt>
      <trkpt lat="43.52611" lon="5.68046">
        <ele>284.6</ele>
        <time>2014-04-27T09:40:55Z</time>
      </trkpt>
      <trkpt lat="43.526" lon="5.68019">
        <ele>284.76</ele>
        <time>2014-04-27T09:40:58Z</time>
      </trkpt>
      <trkpt lat="43.5259" lon="5.67995">
        <ele>284.74</ele>
        <time>2014-04-27T09:41:01Z</time>
      </trkpt>
      <trkpt lat="43.52583" lon="5.67971">
        <ele>284.65</ele>
        <time>2014-04-27T09:41:04Z</time>
      </trkpt>
      <trkpt lat="43.52579" lon="5.67946">
        <ele>284.62</ele>
        <time>2014-04-27T09:41:07Z</time>
      </trkpt>
      <trkpt lat="43.52576" lon="5.67921">
        <ele>284.61</ele>
        <time>2014-04-27T09:41:10Z</time>
      </trkpt>
      <trkpt lat="43.52567" lon="5.67891">
        <ele>284.63</ele>
        <time>2014-04-27T09:41:14Z</time>
      </trkpt>
      <trkpt lat="43.52559" lon="5.6786">
        <ele>284.73</ele>
        <time>2014-04-27T09:41:18Z</time>
      </trkpt>
      <trkpt lat="43.52552" lon="5.67837">
        <ele>284.82</ele>
        <time>2014-04-27T09:41:21Z</time>
      </trkpt>
      <trkpt lat="43.52546" lon="5.67807">
        <ele>285.19</ele>
        <time>2014-04-27T09:41:24Z</time>
      </trkpt>
      <trkpt lat="43.52541" lon="5.67781">
        <ele>285.53</ele>
        <time>2014-04-27T09:41:27Z</time>
      </trkpt>
      <trkpt lat="43.52537" lon="5.67752">
        <ele>286</ele>
        <time>2014-04-27T09:41:30Z</time>
      </trkpt>
      <trkpt lat="43.52528" lon="5.67729">
        <ele>286.52</ele>
        <time>2014-04-27T09:41:33Z</time>
      </trkpt>
      <trkpt lat="43.52516" lon="5.67704">
        <ele>287.58</ele>
        <time>2014-04-27T09:41:38Z</time>
      </trkpt>
      <trkpt lat="43.52504" lon="5.67679">
        <ele>289.19</ele>
        <time>2014-04-27T09:41:42Z</time>
      </trkpt>
      <trkpt lat="43.52494" lon="5.67658">
        <ele>290.4</ele>
        <time>2014-04-27T09:41:46Z</time>
      </trkpt>
      <trkpt lat="43.52481" lon="5.67633">
        <ele>292.06</ele>
        <time>2014-04-27T09:41:50Z</time>
      </trkpt>
      <trkpt lat="43.52482" lon="5.67606">
        <ele>293.71</ele>
        <time>2014-04-27T09:41:56Z</time>
      </trkpt>
      <trkpt lat="43.5249" lon="5.67583">
        <ele>294.48</ele>
        <time>2014-04-27T09:42:01Z</time>
      </trkpt>
      <trkpt lat="43.52494" lon="5.67555">
        <ele>295.04</ele>
        <time>2014-04-27T09:42:05Z</time>
      </trkpt>
      <trkpt lat="43.52499" lon="5.67522">
        <ele>295.63</ele>
        <time>2014-04-27T09:42:09Z</time>
      </trkpt>
      <trkpt lat="43.525" lon="5.67496">
        <ele>295.91</ele>
        <time>2014-04-27T09:42:12Z</time>
      </trkpt>
      <trkpt lat="43.52498" lon="5.67469">
        <ele>296.3</ele>
        <time>2014-04-27T09:42:15Z</time>
      </trkpt>
      <trkpt lat="43.52495" lon="5.67444">
        <ele>297.02</ele>
        <time>2014-04-27T09:42:18Z</time>
      </trkpt>
      <trkpt lat="43.52492" lon="5.67419">
        <ele>297.48</ele>
        <time>2014-04-27T09:42:21Z</time>
      </trkpt>
      <trkpt lat="43.52489" lon="5.67386">
        <ele>297.54</ele>
        <time>2014-04-27T09:42:25Z</time>
      </trkpt>
      <trkpt lat="43.52487" lon="5.6736">
        <ele>297.7</ele>
        <time>2014-04-27T09:42:28Z</time>
      </trkpt>
      <trkpt lat="43.5249" lon="5.6733">
        <ele>297.97</ele>
        <time>2014-04-27T09:42:31Z</time>
      </trkpt>
      <trkpt lat="43.52495" lon="5.67302">
        <ele>298.31</ele>
        <time>2014-04-27T09:42:34Z</time>
      </trkpt>
      <trkpt lat="43.52499" lon="5.67275">
        <ele>298.62</ele>
        <time>2014-04-27T09:42:37Z</time>
      </trkpt>
      <trkpt lat="43.52502" lon="5.67249">
        <ele>298.79</ele>
        <time>2014-04-27T09:42:40Z</time>
      </trkpt>
      <trkpt lat="43.52503" lon="5.67221">
        <ele>298.66</ele>
        <time>2014-04-27T09:42:44Z</time>
      </trkpt>
      <trkpt lat="43.52502" lon="5.67194">
        <ele>298.98</ele>
        <time>2014-04-27T09:42:48Z</time>
      </trkpt>
      <trkpt lat="43.52492" lon="5.67172">
        <ele>299.62</ele>
        <time>2014-04-27T09:42:52Z</time>
      </trkpt>
      <trkpt lat="43.52484" lon="5.67149">
        <ele>299.57</ele>
        <time>2014-04-27T09:42:58Z</time>
      </trkpt>
      <trkpt lat="43.52467" lon="5.67155">
        <ele>293.88</ele>
        <time>2014-04-27T09:43:23Z</time>
      </trkpt>
    </trkseg>
  </trk>
</gpx>